<?xml version="1.0" encoding="UTF-8" standalone="no" ?>
<gpx xmlns="http://www.topografix.com/GPX/1/1" xmlns:xsi="http://www.w3.org/2001/XMLSchema-instance" xsi:schemaLocation="http://www.topografix.com/GPX/1/1 http://www.topografix.com/GPX/1/1/gpx.xsd" version="1.1" creator="VisuGPX - https://www.visugpx.com">
  <metadata>
    <name>UVN 17 avril 2011</name>
    <desc><![CDATA[Sortie de 90km avec le Club UV Le Neubourg.
]]></desc>
  </metadata>
  <trk>
    <name><![CDATA[UVN 17 avril 2011_1]]></name>
    <trkseg>
      <trkpt lat="49.14048" lon="0.90381">
        <ele>137.7</ele>
        <time>2011-04-17T06:32:58Z</time>
      </trkpt>
      <trkpt lat="49.14048" lon="0.90381">
        <ele>169</ele>
        <time>2011-04-17T06:33:45Z</time>
      </trkpt>
      <trkpt lat="49.14121" lon="0.9035">
        <ele>178.9</ele>
        <time>2011-04-17T06:34:10Z</time>
      </trkpt>
      <trkpt lat="49.14129" lon="0.90347">
        <ele>181.5</ele>
        <time>2011-04-17T06:34:15Z</time>
      </trkpt>
      <trkpt lat="49.14139" lon="0.9037">
        <ele>188.2</ele>
        <time>2011-04-17T06:34:35Z</time>
      </trkpt>
      <trkpt lat="49.14142" lon="0.90391">
        <ele>189.8</ele>
        <time>2011-04-17T06:34:39Z</time>
      </trkpt>
      <trkpt lat="49.14149" lon="0.90424">
        <ele>191.4</ele>
        <time>2011-04-17T06:34:45Z</time>
      </trkpt>
      <trkpt lat="49.14165" lon="0.90478">
        <ele>191.9</ele>
        <time>2011-04-17T06:34:55Z</time>
      </trkpt>
      <trkpt lat="49.14184" lon="0.90534">
        <ele>192.7</ele>
        <time>2011-04-17T06:35:05Z</time>
      </trkpt>
      <trkpt lat="49.14202" lon="0.90584">
        <ele>192.9</ele>
        <time>2011-04-17T06:35:13Z</time>
      </trkpt>
      <trkpt lat="49.14235" lon="0.90665">
        <ele>192.5</ele>
        <time>2011-04-17T06:35:25Z</time>
      </trkpt>
      <trkpt lat="49.14246" lon="0.90693">
        <ele>192.3</ele>
        <time>2011-04-17T06:35:29Z</time>
      </trkpt>
      <trkpt lat="49.14279" lon="0.90775">
        <ele>191.2</ele>
        <time>2011-04-17T06:35:41Z</time>
      </trkpt>
      <trkpt lat="49.1429" lon="0.90804">
        <ele>191</ele>
        <time>2011-04-17T06:35:45Z</time>
      </trkpt>
      <trkpt lat="49.14305" lon="0.9084">
        <ele>191.3</ele>
        <time>2011-04-17T06:35:51Z</time>
      </trkpt>
      <trkpt lat="49.1435" lon="0.90952">
        <ele>190.7</ele>
        <time>2011-04-17T06:36:06Z</time>
      </trkpt>
      <trkpt lat="49.14374" lon="0.91004">
        <ele>190.3</ele>
        <time>2011-04-17T06:36:14Z</time>
      </trkpt>
      <trkpt lat="49.14385" lon="0.9103">
        <ele>190.4</ele>
        <time>2011-04-17T06:36:18Z</time>
      </trkpt>
      <trkpt lat="49.14404" lon="0.91083">
        <ele>190.4</ele>
        <time>2011-04-17T06:36:27Z</time>
      </trkpt>
      <trkpt lat="49.14483" lon="0.9121">
        <ele>191.3</ele>
        <time>2011-04-17T06:36:46Z</time>
      </trkpt>
      <trkpt lat="49.14527" lon="0.91282">
        <ele>192.2</ele>
        <time>2011-04-17T06:36:58Z</time>
      </trkpt>
      <trkpt lat="49.14556" lon="0.91328">
        <ele>193.2</ele>
        <time>2011-04-17T06:37:06Z</time>
      </trkpt>
      <trkpt lat="49.14585" lon="0.91376">
        <ele>193.9</ele>
        <time>2011-04-17T06:37:14Z</time>
      </trkpt>
      <trkpt lat="49.14631" lon="0.9145">
        <ele>195.3</ele>
        <time>2011-04-17T06:37:27Z</time>
      </trkpt>
      <trkpt lat="49.14661" lon="0.91503">
        <ele>195.8</ele>
        <time>2011-04-17T06:37:35Z</time>
      </trkpt>
      <trkpt lat="49.14736" lon="0.91631">
        <ele>196.7</ele>
        <time>2011-04-17T06:37:54Z</time>
      </trkpt>
      <trkpt lat="49.14744" lon="0.91642">
        <ele>196.9</ele>
        <time>2011-04-17T06:37:56Z</time>
      </trkpt>
      <trkpt lat="49.14838" lon="0.91749">
        <ele>198.1</ele>
        <time>2011-04-17T06:38:18Z</time>
      </trkpt>
      <trkpt lat="49.14871" lon="0.9178">
        <ele>200.1</ele>
        <time>2011-04-17T06:38:26Z</time>
      </trkpt>
      <trkpt lat="49.14901" lon="0.91812">
        <ele>202.4</ele>
        <time>2011-04-17T06:38:34Z</time>
      </trkpt>
      <trkpt lat="49.14936" lon="0.91877">
        <ele>202.9</ele>
        <time>2011-04-17T06:38:46Z</time>
      </trkpt>
      <trkpt lat="49.14955" lon="0.91868">
        <ele>203</ele>
        <time>2011-04-17T06:38:50Z</time>
      </trkpt>
      <trkpt lat="49.14991" lon="0.91874">
        <ele>203.6</ele>
        <time>2011-04-17T06:38:57Z</time>
      </trkpt>
      <trkpt lat="49.15043" lon="0.91901">
        <ele>201.3</ele>
        <time>2011-04-17T06:39:07Z</time>
      </trkpt>
      <trkpt lat="49.15099" lon="0.91921">
        <ele>195.7</ele>
        <time>2011-04-17T06:39:17Z</time>
      </trkpt>
      <trkpt lat="49.15164" lon="0.91932">
        <ele>193.5</ele>
        <time>2011-04-17T06:39:27Z</time>
      </trkpt>
      <trkpt lat="49.15213" lon="0.91932">
        <ele>191.9</ele>
        <time>2011-04-17T06:39:34Z</time>
      </trkpt>
      <trkpt lat="49.15233" lon="0.91932">
        <ele>190.8</ele>
        <time>2011-04-17T06:39:37Z</time>
      </trkpt>
      <trkpt lat="49.15249" lon="0.91956">
        <ele>191.6</ele>
        <time>2011-04-17T06:39:42Z</time>
      </trkpt>
      <trkpt lat="49.1527" lon="0.92036">
        <ele>191.9</ele>
        <time>2011-04-17T06:39:50Z</time>
      </trkpt>
      <trkpt lat="49.15288" lon="0.92106">
        <ele>192.1</ele>
        <time>2011-04-17T06:39:58Z</time>
      </trkpt>
      <trkpt lat="49.15307" lon="0.922">
        <ele>192.1</ele>
        <time>2011-04-17T06:40:09Z</time>
      </trkpt>
      <trkpt lat="49.1532" lon="0.92316">
        <ele>192.4</ele>
        <time>2011-04-17T06:40:22Z</time>
      </trkpt>
      <trkpt lat="49.15325" lon="0.92351">
        <ele>192.1</ele>
        <time>2011-04-17T06:40:26Z</time>
      </trkpt>
      <trkpt lat="49.15332" lon="0.92386">
        <ele>192</ele>
        <time>2011-04-17T06:40:30Z</time>
      </trkpt>
      <trkpt lat="49.15339" lon="0.92421">
        <ele>192.1</ele>
        <time>2011-04-17T06:40:35Z</time>
      </trkpt>
      <trkpt lat="49.15354" lon="0.9249">
        <ele>192.5</ele>
        <time>2011-04-17T06:40:42Z</time>
      </trkpt>
      <trkpt lat="49.15366" lon="0.92597">
        <ele>192</ele>
        <time>2011-04-17T06:40:54Z</time>
      </trkpt>
      <trkpt lat="49.15371" lon="0.9267">
        <ele>192.4</ele>
        <time>2011-04-17T06:41:02Z</time>
      </trkpt>
      <trkpt lat="49.1539" lon="0.92738">
        <ele>192.2</ele>
        <time>2011-04-17T06:41:10Z</time>
      </trkpt>
      <trkpt lat="49.15404" lon="0.92768">
        <ele>192.1</ele>
        <time>2011-04-17T06:41:14Z</time>
      </trkpt>
      <trkpt lat="49.15419" lon="0.92797">
        <ele>192.5</ele>
        <time>2011-04-17T06:41:18Z</time>
      </trkpt>
      <trkpt lat="49.15431" lon="0.92819">
        <ele>192.8</ele>
        <time>2011-04-17T06:41:21Z</time>
      </trkpt>
      <trkpt lat="49.15452" lon="0.92863">
        <ele>193</ele>
        <time>2011-04-17T06:41:27Z</time>
      </trkpt>
      <trkpt lat="49.15481" lon="0.92923">
        <ele>193.8</ele>
        <time>2011-04-17T06:41:35Z</time>
      </trkpt>
      <trkpt lat="49.15516" lon="0.92993">
        <ele>196.2</ele>
        <time>2011-04-17T06:41:45Z</time>
      </trkpt>
      <trkpt lat="49.15533" lon="0.93028">
        <ele>197.8</ele>
        <time>2011-04-17T06:41:51Z</time>
      </trkpt>
      <trkpt lat="49.15564" lon="0.93085">
        <ele>197.1</ele>
        <time>2011-04-17T06:41:59Z</time>
      </trkpt>
      <trkpt lat="49.15585" lon="0.93129">
        <ele>197.1</ele>
        <time>2011-04-17T06:42:05Z</time>
      </trkpt>
      <trkpt lat="49.156" lon="0.93157">
        <ele>197.9</ele>
        <time>2011-04-17T06:42:09Z</time>
      </trkpt>
      <trkpt lat="49.15622" lon="0.932">
        <ele>199.5</ele>
        <time>2011-04-17T06:42:15Z</time>
      </trkpt>
      <trkpt lat="49.15638" lon="0.9326">
        <ele>199.5</ele>
        <time>2011-04-17T06:42:22Z</time>
      </trkpt>
      <trkpt lat="49.15645" lon="0.93298">
        <ele>199.1</ele>
        <time>2011-04-17T06:42:26Z</time>
      </trkpt>
      <trkpt lat="49.15667" lon="0.93352">
        <ele>200.6</ele>
        <time>2011-04-17T06:42:35Z</time>
      </trkpt>
      <trkpt lat="49.15778" lon="0.9338">
        <ele>196.3</ele>
        <time>2011-04-17T06:42:51Z</time>
      </trkpt>
      <trkpt lat="49.15823" lon="0.93374">
        <ele>196.6</ele>
        <time>2011-04-17T06:42:58Z</time>
      </trkpt>
      <trkpt lat="49.15848" lon="0.93369">
        <ele>196.7</ele>
        <time>2011-04-17T06:43:02Z</time>
      </trkpt>
      <trkpt lat="49.15879" lon="0.93363">
        <ele>197.4</ele>
        <time>2011-04-17T06:43:07Z</time>
      </trkpt>
      <trkpt lat="49.15953" lon="0.93335">
        <ele>197.7</ele>
        <time>2011-04-17T06:43:19Z</time>
      </trkpt>
      <trkpt lat="49.16035" lon="0.93391">
        <ele>200.2</ele>
        <time>2011-04-17T06:43:34Z</time>
      </trkpt>
      <trkpt lat="49.16092" lon="0.93453">
        <ele>202.9</ele>
        <time>2011-04-17T06:43:46Z</time>
      </trkpt>
      <trkpt lat="49.16111" lon="0.93473">
        <ele>203.5</ele>
        <time>2011-04-17T06:43:50Z</time>
      </trkpt>
      <trkpt lat="49.1617" lon="0.93532">
        <ele>205.9</ele>
        <time>2011-04-17T06:44:02Z</time>
      </trkpt>
      <trkpt lat="49.16209" lon="0.93574">
        <ele>207</ele>
        <time>2011-04-17T06:44:10Z</time>
      </trkpt>
      <trkpt lat="49.16247" lon="0.93615">
        <ele>209.4</ele>
        <time>2011-04-17T06:44:18Z</time>
      </trkpt>
      <trkpt lat="49.16306" lon="0.93679">
        <ele>210.4</ele>
        <time>2011-04-17T06:44:30Z</time>
      </trkpt>
      <trkpt lat="49.16338" lon="0.93731">
        <ele>211.1</ele>
        <time>2011-04-17T06:44:38Z</time>
      </trkpt>
      <trkpt lat="49.16396" lon="0.93855">
        <ele>210.6</ele>
        <time>2011-04-17T06:44:55Z</time>
      </trkpt>
      <trkpt lat="49.16441" lon="0.93951">
        <ele>210.7</ele>
        <time>2011-04-17T06:45:07Z</time>
      </trkpt>
      <trkpt lat="49.16474" lon="0.94027">
        <ele>209.6</ele>
        <time>2011-04-17T06:45:15Z</time>
      </trkpt>
      <trkpt lat="49.16497" lon="0.94088">
        <ele>208.7</ele>
        <time>2011-04-17T06:45:22Z</time>
      </trkpt>
      <trkpt lat="49.16509" lon="0.94124">
        <ele>208.5</ele>
        <time>2011-04-17T06:45:26Z</time>
      </trkpt>
      <trkpt lat="49.1652" lon="0.94161">
        <ele>208.7</ele>
        <time>2011-04-17T06:45:30Z</time>
      </trkpt>
      <trkpt lat="49.16539" lon="0.94225">
        <ele>208.1</ele>
        <time>2011-04-17T06:45:37Z</time>
      </trkpt>
      <trkpt lat="49.16567" lon="0.94304">
        <ele>208</ele>
        <time>2011-04-17T06:45:46Z</time>
      </trkpt>
      <trkpt lat="49.16594" lon="0.94371">
        <ele>208.5</ele>
        <time>2011-04-17T06:45:54Z</time>
      </trkpt>
      <trkpt lat="49.16649" lon="0.94488">
        <ele>208</ele>
        <time>2011-04-17T06:46:10Z</time>
      </trkpt>
      <trkpt lat="49.16691" lon="0.94548">
        <ele>208.2</ele>
        <time>2011-04-17T06:46:18Z</time>
      </trkpt>
      <trkpt lat="49.1671" lon="0.94572">
        <ele>209</ele>
        <time>2011-04-17T06:46:22Z</time>
      </trkpt>
      <trkpt lat="49.1677" lon="0.94643">
        <ele>209.5</ele>
        <time>2011-04-17T06:46:34Z</time>
      </trkpt>
      <trkpt lat="49.16851" lon="0.94742">
        <ele>209.4</ele>
        <time>2011-04-17T06:46:50Z</time>
      </trkpt>
      <trkpt lat="49.16893" lon="0.94792">
        <ele>209.1</ele>
        <time>2011-04-17T06:46:58Z</time>
      </trkpt>
      <trkpt lat="49.16934" lon="0.94844">
        <ele>209.8</ele>
        <time>2011-04-17T06:47:06Z</time>
      </trkpt>
      <trkpt lat="49.16955" lon="0.9487">
        <ele>209.5</ele>
        <time>2011-04-17T06:47:10Z</time>
      </trkpt>
      <trkpt lat="49.16997" lon="0.9492">
        <ele>209.9</ele>
        <time>2011-04-17T06:47:18Z</time>
      </trkpt>
      <trkpt lat="49.17036" lon="0.94969">
        <ele>210.5</ele>
        <time>2011-04-17T06:47:27Z</time>
      </trkpt>
      <trkpt lat="49.1707" lon="0.95015">
        <ele>210.2</ele>
        <time>2011-04-17T06:47:34Z</time>
      </trkpt>
      <trkpt lat="49.17155" lon="0.95185">
        <ele>210.4</ele>
        <time>2011-04-17T06:47:54Z</time>
      </trkpt>
      <trkpt lat="49.17174" lon="0.95228">
        <ele>210.1</ele>
        <time>2011-04-17T06:47:59Z</time>
      </trkpt>
      <trkpt lat="49.1719" lon="0.95262">
        <ele>209.7</ele>
        <time>2011-04-17T06:48:03Z</time>
      </trkpt>
      <trkpt lat="49.17237" lon="0.95361">
        <ele>209.2</ele>
        <time>2011-04-17T06:48:15Z</time>
      </trkpt>
      <trkpt lat="49.17282" lon="0.9545">
        <ele>209.3</ele>
        <time>2011-04-17T06:48:27Z</time>
      </trkpt>
      <trkpt lat="49.17329" lon="0.95552">
        <ele>208.1</ele>
        <time>2011-04-17T06:48:38Z</time>
      </trkpt>
      <trkpt lat="49.17354" lon="0.95624">
        <ele>207.6</ele>
        <time>2011-04-17T06:48:46Z</time>
      </trkpt>
      <trkpt lat="49.17366" lon="0.9566">
        <ele>207.8</ele>
        <time>2011-04-17T06:48:50Z</time>
      </trkpt>
      <trkpt lat="49.17381" lon="0.95706">
        <ele>208</ele>
        <time>2011-04-17T06:48:55Z</time>
      </trkpt>
      <trkpt lat="49.17414" lon="0.95804">
        <ele>208.1</ele>
        <time>2011-04-17T06:49:06Z</time>
      </trkpt>
      <trkpt lat="49.17438" lon="0.95876">
        <ele>208.7</ele>
        <time>2011-04-17T06:49:14Z</time>
      </trkpt>
      <trkpt lat="49.17465" lon="0.95947">
        <ele>208.6</ele>
        <time>2011-04-17T06:49:22Z</time>
      </trkpt>
      <trkpt lat="49.17498" lon="0.96023">
        <ele>209.1</ele>
        <time>2011-04-17T06:49:31Z</time>
      </trkpt>
      <trkpt lat="49.17525" lon="0.96081">
        <ele>209.4</ele>
        <time>2011-04-17T06:49:38Z</time>
      </trkpt>
      <trkpt lat="49.17541" lon="0.96115">
        <ele>209.3</ele>
        <time>2011-04-17T06:49:42Z</time>
      </trkpt>
      <trkpt lat="49.17582" lon="0.96212">
        <ele>208.9</ele>
        <time>2011-04-17T06:49:53Z</time>
      </trkpt>
      <trkpt lat="49.17635" lon="0.96364">
        <ele>208.4</ele>
        <time>2011-04-17T06:50:10Z</time>
      </trkpt>
      <trkpt lat="49.17651" lon="0.96398">
        <ele>208.5</ele>
        <time>2011-04-17T06:50:14Z</time>
      </trkpt>
      <trkpt lat="49.17667" lon="0.96431">
        <ele>208.4</ele>
        <time>2011-04-17T06:50:18Z</time>
      </trkpt>
      <trkpt lat="49.17704" lon="0.96504">
        <ele>208.3</ele>
        <time>2011-04-17T06:50:27Z</time>
      </trkpt>
      <trkpt lat="49.17721" lon="0.96535">
        <ele>207.9</ele>
        <time>2011-04-17T06:50:31Z</time>
      </trkpt>
      <trkpt lat="49.17756" lon="0.96598">
        <ele>208.2</ele>
        <time>2011-04-17T06:50:39Z</time>
      </trkpt>
      <trkpt lat="49.17833" lon="0.967">
        <ele>208.8</ele>
        <time>2011-04-17T06:50:55Z</time>
      </trkpt>
      <trkpt lat="49.17872" lon="0.96741">
        <ele>208.8</ele>
        <time>2011-04-17T06:51:02Z</time>
      </trkpt>
      <trkpt lat="49.17962" lon="0.96846">
        <ele>209.3</ele>
        <time>2011-04-17T06:51:18Z</time>
      </trkpt>
      <trkpt lat="49.17982" lon="0.96871">
        <ele>209</ele>
        <time>2011-04-17T06:51:22Z</time>
      </trkpt>
      <trkpt lat="49.18042" lon="0.96947">
        <ele>210.1</ele>
        <time>2011-04-17T06:51:34Z</time>
      </trkpt>
      <trkpt lat="49.18081" lon="0.96998">
        <ele>210.3</ele>
        <time>2011-04-17T06:51:42Z</time>
      </trkpt>
      <trkpt lat="49.18121" lon="0.9705">
        <ele>209.9</ele>
        <time>2011-04-17T06:51:50Z</time>
      </trkpt>
      <trkpt lat="49.18146" lon="0.97084">
        <ele>210.4</ele>
        <time>2011-04-17T06:51:55Z</time>
      </trkpt>
      <trkpt lat="49.18156" lon="0.97098">
        <ele>210.3</ele>
        <time>2011-04-17T06:51:58Z</time>
      </trkpt>
      <trkpt lat="49.18204" lon="0.97152">
        <ele>209.9</ele>
        <time>2011-04-17T06:52:06Z</time>
      </trkpt>
      <trkpt lat="49.18226" lon="0.97173">
        <ele>209.4</ele>
        <time>2011-04-17T06:52:10Z</time>
      </trkpt>
      <trkpt lat="49.18268" lon="0.97212">
        <ele>208.8</ele>
        <time>2011-04-17T06:52:18Z</time>
      </trkpt>
      <trkpt lat="49.18378" lon="0.97283">
        <ele>208.8</ele>
        <time>2011-04-17T06:52:41Z</time>
      </trkpt>
      <trkpt lat="49.18435" lon="0.97305">
        <ele>207.4</ele>
        <time>2011-04-17T06:52:50Z</time>
      </trkpt>
      <trkpt lat="49.18464" lon="0.97323">
        <ele>206.9</ele>
        <time>2011-04-17T06:52:55Z</time>
      </trkpt>
      <trkpt lat="49.18486" lon="0.97342">
        <ele>207.2</ele>
        <time>2011-04-17T06:52:59Z</time>
      </trkpt>
      <trkpt lat="49.18503" lon="0.97356">
        <ele>207.3</ele>
        <time>2011-04-17T06:53:02Z</time>
      </trkpt>
      <trkpt lat="49.18543" lon="0.97392">
        <ele>205.3</ele>
        <time>2011-04-17T06:53:09Z</time>
      </trkpt>
      <trkpt lat="49.18566" lon="0.97408">
        <ele>205.1</ele>
        <time>2011-04-17T06:53:13Z</time>
      </trkpt>
      <trkpt lat="49.18638" lon="0.97483">
        <ele>208.6</ele>
        <time>2011-04-17T06:53:26Z</time>
      </trkpt>
      <trkpt lat="49.1872" lon="0.97593">
        <ele>208.8</ele>
        <time>2011-04-17T06:53:42Z</time>
      </trkpt>
      <trkpt lat="49.18768" lon="0.97627">
        <ele>210</ele>
        <time>2011-04-17T06:53:50Z</time>
      </trkpt>
      <trkpt lat="49.18818" lon="0.97664">
        <ele>210.6</ele>
        <time>2011-04-17T06:53:58Z</time>
      </trkpt>
      <trkpt lat="49.18848" lon="0.97687">
        <ele>210.6</ele>
        <time>2011-04-17T06:54:03Z</time>
      </trkpt>
      <trkpt lat="49.18865" lon="0.97703">
        <ele>211</ele>
        <time>2011-04-17T06:54:07Z</time>
      </trkpt>
      <trkpt lat="49.18926" lon="0.9777">
        <ele>211.9</ele>
        <time>2011-04-17T06:54:17Z</time>
      </trkpt>
      <trkpt lat="49.18979" lon="0.97815">
        <ele>211.4</ele>
        <time>2011-04-17T06:54:26Z</time>
      </trkpt>
      <trkpt lat="49.19046" lon="0.97906">
        <ele>210</ele>
        <time>2011-04-17T06:54:39Z</time>
      </trkpt>
      <trkpt lat="49.19064" lon="0.97937">
        <ele>210.4</ele>
        <time>2011-04-17T06:54:43Z</time>
      </trkpt>
      <trkpt lat="49.19077" lon="0.97961">
        <ele>210.3</ele>
        <time>2011-04-17T06:54:46Z</time>
      </trkpt>
      <trkpt lat="49.19118" lon="0.9805">
        <ele>211.7</ele>
        <time>2011-04-17T06:54:58Z</time>
      </trkpt>
      <trkpt lat="49.19149" lon="0.98123">
        <ele>213.6</ele>
        <time>2011-04-17T06:55:06Z</time>
      </trkpt>
      <trkpt lat="49.19181" lon="0.98197">
        <ele>213.1</ele>
        <time>2011-04-17T06:55:14Z</time>
      </trkpt>
      <trkpt lat="49.19209" lon="0.98266">
        <ele>213.6</ele>
        <time>2011-04-17T06:55:22Z</time>
      </trkpt>
      <trkpt lat="49.19226" lon="0.98309">
        <ele>213.8</ele>
        <time>2011-04-17T06:55:27Z</time>
      </trkpt>
      <trkpt lat="49.19241" lon="0.98343">
        <ele>213.9</ele>
        <time>2011-04-17T06:55:31Z</time>
      </trkpt>
      <trkpt lat="49.19289" lon="0.98428">
        <ele>214.3</ele>
        <time>2011-04-17T06:55:42Z</time>
      </trkpt>
      <trkpt lat="49.19328" lon="0.98469">
        <ele>215</ele>
        <time>2011-04-17T06:55:50Z</time>
      </trkpt>
      <trkpt lat="49.19428" lon="0.9857">
        <ele>215.7</ele>
        <time>2011-04-17T06:56:07Z</time>
      </trkpt>
      <trkpt lat="49.19444" lon="0.98587">
        <ele>216</ele>
        <time>2011-04-17T06:56:10Z</time>
      </trkpt>
      <trkpt lat="49.19466" lon="0.98609">
        <ele>216.2</ele>
        <time>2011-04-17T06:56:15Z</time>
      </trkpt>
      <trkpt lat="49.19487" lon="0.98633">
        <ele>216</ele>
        <time>2011-04-17T06:56:18Z</time>
      </trkpt>
      <trkpt lat="49.19509" lon="0.98657">
        <ele>215.8</ele>
        <time>2011-04-17T06:56:22Z</time>
      </trkpt>
      <trkpt lat="49.19531" lon="0.98683">
        <ele>215.3</ele>
        <time>2011-04-17T06:56:27Z</time>
      </trkpt>
      <trkpt lat="49.19598" lon="0.98773">
        <ele>213.2</ele>
        <time>2011-04-17T06:56:39Z</time>
      </trkpt>
      <trkpt lat="49.19706" lon="0.98921">
        <ele>212</ele>
        <time>2011-04-17T06:56:58Z</time>
      </trkpt>
      <trkpt lat="49.19751" lon="0.98976">
        <ele>211.2</ele>
        <time>2011-04-17T06:57:06Z</time>
      </trkpt>
      <trkpt lat="49.19774" lon="0.99002">
        <ele>210.5</ele>
        <time>2011-04-17T06:57:10Z</time>
      </trkpt>
      <trkpt lat="49.19797" lon="0.99027">
        <ele>210.1</ele>
        <time>2011-04-17T06:57:15Z</time>
      </trkpt>
      <trkpt lat="49.1982" lon="0.99052">
        <ele>210.2</ele>
        <time>2011-04-17T06:57:19Z</time>
      </trkpt>
      <trkpt lat="49.19865" lon="0.99101">
        <ele>210</ele>
        <time>2011-04-17T06:57:27Z</time>
      </trkpt>
      <trkpt lat="49.19887" lon="0.99127">
        <ele>209.5</ele>
        <time>2011-04-17T06:57:30Z</time>
      </trkpt>
      <trkpt lat="49.19938" lon="0.99239">
        <ele>209.8</ele>
        <time>2011-04-17T06:57:43Z</time>
      </trkpt>
      <trkpt lat="49.19978" lon="0.99349">
        <ele>209.8</ele>
        <time>2011-04-17T06:57:55Z</time>
      </trkpt>
      <trkpt lat="49.19987" lon="0.99375">
        <ele>210</ele>
        <time>2011-04-17T06:57:58Z</time>
      </trkpt>
      <trkpt lat="49.19999" lon="0.99412">
        <ele>209.7</ele>
        <time>2011-04-17T06:58:02Z</time>
      </trkpt>
      <trkpt lat="49.20148" lon="1.00874">
        <ele>207.1</ele>
        <time>2011-04-17T07:00:35Z</time>
      </trkpt>
      <trkpt lat="49.20142" lon="1.00916">
        <ele>206.9</ele>
        <time>2011-04-17T07:00:39Z</time>
      </trkpt>
      <trkpt lat="49.20138" lon="1.0096">
        <ele>206.8</ele>
        <time>2011-04-17T07:00:43Z</time>
      </trkpt>
      <trkpt lat="49.20137" lon="1.01004">
        <ele>207.2</ele>
        <time>2011-04-17T07:00:47Z</time>
      </trkpt>
      <trkpt lat="49.20136" lon="1.01047">
        <ele>206.6</ele>
        <time>2011-04-17T07:00:51Z</time>
      </trkpt>
      <trkpt lat="49.20137" lon="1.0109">
        <ele>206.5</ele>
        <time>2011-04-17T07:00:55Z</time>
      </trkpt>
      <trkpt lat="49.20146" lon="1.0113">
        <ele>206.6</ele>
        <time>2011-04-17T07:00:59Z</time>
      </trkpt>
      <trkpt lat="49.20164" lon="1.01158">
        <ele>208.2</ele>
        <time>2011-04-17T07:01:03Z</time>
      </trkpt>
      <trkpt lat="49.2018" lon="1.01175">
        <ele>209.7</ele>
        <time>2011-04-17T07:01:06Z</time>
      </trkpt>
      <trkpt lat="49.20207" lon="1.01204">
        <ele>210.6</ele>
        <time>2011-04-17T07:01:11Z</time>
      </trkpt>
      <trkpt lat="49.20229" lon="1.01227">
        <ele>210.8</ele>
        <time>2011-04-17T07:01:15Z</time>
      </trkpt>
      <trkpt lat="49.2024" lon="1.01238">
        <ele>210.9</ele>
        <time>2011-04-17T07:01:17Z</time>
      </trkpt>
      <trkpt lat="49.20271" lon="1.01278">
        <ele>211</ele>
        <time>2011-04-17T07:01:23Z</time>
      </trkpt>
      <trkpt lat="49.20285" lon="1.01303">
        <ele>211.3</ele>
        <time>2011-04-17T07:01:26Z</time>
      </trkpt>
      <trkpt lat="49.20305" lon="1.01343">
        <ele>211.6</ele>
        <time>2011-04-17T07:01:31Z</time>
      </trkpt>
      <trkpt lat="49.20319" lon="1.01379">
        <ele>211.8</ele>
        <time>2011-04-17T07:01:35Z</time>
      </trkpt>
      <trkpt lat="49.20328" lon="1.01416">
        <ele>212.1</ele>
        <time>2011-04-17T07:01:39Z</time>
      </trkpt>
      <trkpt lat="49.20335" lon="1.01455">
        <ele>212</ele>
        <time>2011-04-17T07:01:43Z</time>
      </trkpt>
      <trkpt lat="49.20339" lon="1.01494">
        <ele>212.4</ele>
        <time>2011-04-17T07:01:47Z</time>
      </trkpt>
      <trkpt lat="49.20347" lon="1.01562">
        <ele>213.6</ele>
        <time>2011-04-17T07:01:54Z</time>
      </trkpt>
      <trkpt lat="49.20355" lon="1.01624">
        <ele>212.2</ele>
        <time>2011-04-17T07:02:00Z</time>
      </trkpt>
      <trkpt lat="49.20366" lon="1.01723">
        <ele>212.4</ele>
        <time>2011-04-17T07:02:10Z</time>
      </trkpt>
      <trkpt lat="49.20372" lon="1.01773">
        <ele>212</ele>
        <time>2011-04-17T07:02:15Z</time>
      </trkpt>
      <trkpt lat="49.20376" lon="1.01814">
        <ele>212.4</ele>
        <time>2011-04-17T07:02:19Z</time>
      </trkpt>
      <trkpt lat="49.20383" lon="1.01879">
        <ele>213.2</ele>
        <time>2011-04-17T07:02:26Z</time>
      </trkpt>
      <trkpt lat="49.20398" lon="1.0201">
        <ele>212.5</ele>
        <time>2011-04-17T07:02:41Z</time>
      </trkpt>
      <trkpt lat="49.20406" lon="1.02083">
        <ele>212.9</ele>
        <time>2011-04-17T07:02:49Z</time>
      </trkpt>
      <trkpt lat="49.20415" lon="1.02156">
        <ele>213.7</ele>
        <time>2011-04-17T07:02:57Z</time>
      </trkpt>
      <trkpt lat="49.20419" lon="1.02193">
        <ele>214</ele>
        <time>2011-04-17T07:03:01Z</time>
      </trkpt>
      <trkpt lat="49.20431" lon="1.02304">
        <ele>214.1</ele>
        <time>2011-04-17T07:03:14Z</time>
      </trkpt>
      <trkpt lat="49.20435" lon="1.02341">
        <ele>214.1</ele>
        <time>2011-04-17T07:03:18Z</time>
      </trkpt>
      <trkpt lat="49.20447" lon="1.02463">
        <ele>215.3</ele>
        <time>2011-04-17T07:03:31Z</time>
      </trkpt>
      <trkpt lat="49.20451" lon="1.02492">
        <ele>215.5</ele>
        <time>2011-04-17T07:03:34Z</time>
      </trkpt>
      <trkpt lat="49.20462" lon="1.02607">
        <ele>215.9</ele>
        <time>2011-04-17T07:03:46Z</time>
      </trkpt>
      <trkpt lat="49.20463" lon="1.02647">
        <ele>216.5</ele>
        <time>2011-04-17T07:03:50Z</time>
      </trkpt>
      <trkpt lat="49.20457" lon="1.02727">
        <ele>216.9</ele>
        <time>2011-04-17T07:03:58Z</time>
      </trkpt>
      <trkpt lat="49.20446" lon="1.02795">
        <ele>218</ele>
        <time>2011-04-17T07:04:05Z</time>
      </trkpt>
      <trkpt lat="49.20428" lon="1.02882">
        <ele>219.1</ele>
        <time>2011-04-17T07:04:14Z</time>
      </trkpt>
      <trkpt lat="49.20419" lon="1.02931">
        <ele>219.5</ele>
        <time>2011-04-17T07:04:19Z</time>
      </trkpt>
      <trkpt lat="49.20407" lon="1.03001">
        <ele>218.7</ele>
        <time>2011-04-17T07:04:26Z</time>
      </trkpt>
      <trkpt lat="49.20395" lon="1.03078">
        <ele>219.1</ele>
        <time>2011-04-17T07:04:34Z</time>
      </trkpt>
      <trkpt lat="49.2039" lon="1.03128">
        <ele>219.5</ele>
        <time>2011-04-17T07:04:39Z</time>
      </trkpt>
      <trkpt lat="49.20387" lon="1.03169">
        <ele>219.2</ele>
        <time>2011-04-17T07:04:43Z</time>
      </trkpt>
      <trkpt lat="49.20386" lon="1.03189">
        <ele>219.4</ele>
        <time>2011-04-17T07:04:45Z</time>
      </trkpt>
      <trkpt lat="49.20388" lon="1.0332">
        <ele>219.6</ele>
        <time>2011-04-17T07:04:58Z</time>
      </trkpt>
      <trkpt lat="49.20393" lon="1.03398">
        <ele>219.8</ele>
        <time>2011-04-17T07:05:06Z</time>
      </trkpt>
      <trkpt lat="49.20399" lon="1.0348">
        <ele>220.4</ele>
        <time>2011-04-17T07:05:14Z</time>
      </trkpt>
      <trkpt lat="49.20406" lon="1.03561">
        <ele>220.6</ele>
        <time>2011-04-17T07:05:22Z</time>
      </trkpt>
      <trkpt lat="49.20421" lon="1.03643">
        <ele>220.4</ele>
        <time>2011-04-17T07:05:30Z</time>
      </trkpt>
      <trkpt lat="49.20429" lon="1.03671">
        <ele>219.7</ele>
        <time>2011-04-17T07:05:33Z</time>
      </trkpt>
      <trkpt lat="49.20491" lon="1.03866">
        <ele>219.7</ele>
        <time>2011-04-17T07:05:54Z</time>
      </trkpt>
      <trkpt lat="49.20513" lon="1.03931">
        <ele>219.8</ele>
        <time>2011-04-17T07:06:01Z</time>
      </trkpt>
      <trkpt lat="49.20557" lon="1.04093">
        <ele>219.1</ele>
        <time>2011-04-17T07:06:18Z</time>
      </trkpt>
      <trkpt lat="49.20569" lon="1.04133">
        <ele>218.4</ele>
        <time>2011-04-17T07:06:22Z</time>
      </trkpt>
      <trkpt lat="49.20578" lon="1.04172">
        <ele>218.6</ele>
        <time>2011-04-17T07:06:26Z</time>
      </trkpt>
      <trkpt lat="49.20586" lon="1.04212">
        <ele>219.4</ele>
        <time>2011-04-17T07:06:30Z</time>
      </trkpt>
      <trkpt lat="49.20597" lon="1.04303">
        <ele>220.4</ele>
        <time>2011-04-17T07:06:39Z</time>
      </trkpt>
      <trkpt lat="49.20599" lon="1.04334">
        <ele>221</ele>
        <time>2011-04-17T07:06:43Z</time>
      </trkpt>
      <trkpt lat="49.20597" lon="1.04458">
        <ele>220.8</ele>
        <time>2011-04-17T07:06:54Z</time>
      </trkpt>
      <trkpt lat="49.20588" lon="1.04552">
        <ele>220.7</ele>
        <time>2011-04-17T07:07:03Z</time>
      </trkpt>
      <trkpt lat="49.20585" lon="1.04628">
        <ele>219.8</ele>
        <time>2011-04-17T07:07:10Z</time>
      </trkpt>
      <trkpt lat="49.20585" lon="1.04671">
        <ele>219.8</ele>
        <time>2011-04-17T07:07:14Z</time>
      </trkpt>
      <trkpt lat="49.20587" lon="1.04757">
        <ele>219.6</ele>
        <time>2011-04-17T07:07:22Z</time>
      </trkpt>
      <trkpt lat="49.20588" lon="1.0481">
        <ele>220.1</ele>
        <time>2011-04-17T07:07:27Z</time>
      </trkpt>
      <trkpt lat="49.20589" lon="1.04875">
        <ele>221.4</ele>
        <time>2011-04-17T07:07:34Z</time>
      </trkpt>
      <trkpt lat="49.20591" lon="1.0489">
        <ele>220.9</ele>
        <time>2011-04-17T07:07:36Z</time>
      </trkpt>
      <trkpt lat="49.20589" lon="1.0491">
        <ele>222.6</ele>
        <time>2011-04-17T07:07:45Z</time>
      </trkpt>
      <trkpt lat="49.20594" lon="1.0493">
        <ele>218.1</ele>
        <time>2011-04-17T07:07:56Z</time>
      </trkpt>
      <trkpt lat="49.206" lon="1.04956">
        <ele>217.2</ele>
        <time>2011-04-17T07:08:02Z</time>
      </trkpt>
      <trkpt lat="49.20606" lon="1.05011">
        <ele>216.5</ele>
        <time>2011-04-17T07:08:10Z</time>
      </trkpt>
      <trkpt lat="49.20613" lon="1.05098">
        <ele>217.8</ele>
        <time>2011-04-17T07:08:20Z</time>
      </trkpt>
      <trkpt lat="49.20656" lon="1.05284">
        <ele>218.7</ele>
        <time>2011-04-17T07:08:41Z</time>
      </trkpt>
      <trkpt lat="49.20654" lon="1.05376">
        <ele>217.1</ele>
        <time>2011-04-17T07:08:50Z</time>
      </trkpt>
      <trkpt lat="49.2065" lon="1.05409">
        <ele>216.7</ele>
        <time>2011-04-17T07:08:54Z</time>
      </trkpt>
      <trkpt lat="49.20639" lon="1.05453">
        <ele>214.8</ele>
        <time>2011-04-17T07:09:01Z</time>
      </trkpt>
      <trkpt lat="49.20632" lon="1.05488">
        <ele>213.8</ele>
        <time>2011-04-17T07:09:05Z</time>
      </trkpt>
      <trkpt lat="49.20614" lon="1.05611">
        <ele>215.6</ele>
        <time>2011-04-17T07:09:17Z</time>
      </trkpt>
      <trkpt lat="49.20618" lon="1.05739">
        <ele>213.6</ele>
        <time>2011-04-17T07:09:30Z</time>
      </trkpt>
      <trkpt lat="49.20624" lon="1.05818">
        <ele>216.7</ele>
        <time>2011-04-17T07:09:38Z</time>
      </trkpt>
      <trkpt lat="49.20626" lon="1.05847">
        <ele>217.5</ele>
        <time>2011-04-17T07:09:41Z</time>
      </trkpt>
      <trkpt lat="49.2063" lon="1.05895">
        <ele>218</ele>
        <time>2011-04-17T07:09:46Z</time>
      </trkpt>
      <trkpt lat="49.20634" lon="1.05975">
        <ele>217.8</ele>
        <time>2011-04-17T07:09:54Z</time>
      </trkpt>
      <trkpt lat="49.20638" lon="1.06052">
        <ele>218.5</ele>
        <time>2011-04-17T07:10:02Z</time>
      </trkpt>
      <trkpt lat="49.20639" lon="1.06101">
        <ele>219.8</ele>
        <time>2011-04-17T07:10:07Z</time>
      </trkpt>
      <trkpt lat="49.20641" lon="1.0614">
        <ele>219.5</ele>
        <time>2011-04-17T07:10:11Z</time>
      </trkpt>
      <trkpt lat="49.20643" lon="1.06216">
        <ele>221.1</ele>
        <time>2011-04-17T07:10:19Z</time>
      </trkpt>
      <trkpt lat="49.20661" lon="1.06323">
        <ele>222.7</ele>
        <time>2011-04-17T07:10:30Z</time>
      </trkpt>
      <trkpt lat="49.2067" lon="1.06359">
        <ele>222.9</ele>
        <time>2011-04-17T07:10:34Z</time>
      </trkpt>
      <trkpt lat="49.2068" lon="1.06404">
        <ele>222.5</ele>
        <time>2011-04-17T07:10:39Z</time>
      </trkpt>
      <trkpt lat="49.20686" lon="1.06432">
        <ele>223</ele>
        <time>2011-04-17T07:10:42Z</time>
      </trkpt>
      <trkpt lat="49.20701" lon="1.06518">
        <ele>225.5</ele>
        <time>2011-04-17T07:10:51Z</time>
      </trkpt>
      <trkpt lat="49.20703" lon="1.06527">
        <ele>225.7</ele>
        <time>2011-04-17T07:10:53Z</time>
      </trkpt>
      <trkpt lat="49.20752" lon="1.06785">
        <ele>226</ele>
        <time>2011-04-17T07:11:18Z</time>
      </trkpt>
      <trkpt lat="49.2076" lon="1.06825">
        <ele>226.1</ele>
        <time>2011-04-17T07:11:22Z</time>
      </trkpt>
      <trkpt lat="49.20771" lon="1.06904">
        <ele>226.9</ele>
        <time>2011-04-17T07:11:31Z</time>
      </trkpt>
      <trkpt lat="49.20779" lon="1.06994">
        <ele>227.2</ele>
        <time>2011-04-17T07:11:39Z</time>
      </trkpt>
      <trkpt lat="49.20782" lon="1.07098">
        <ele>227.3</ele>
        <time>2011-04-17T07:11:50Z</time>
      </trkpt>
      <trkpt lat="49.20786" lon="1.07205">
        <ele>225.2</ele>
        <time>2011-04-17T07:11:59Z</time>
      </trkpt>
      <trkpt lat="49.20782" lon="1.07267">
        <ele>225.6</ele>
        <time>2011-04-17T07:12:05Z</time>
      </trkpt>
      <trkpt lat="49.20778" lon="1.07308">
        <ele>226.2</ele>
        <time>2011-04-17T07:12:09Z</time>
      </trkpt>
      <trkpt lat="49.20774" lon="1.07347">
        <ele>227.6</ele>
        <time>2011-04-17T07:12:13Z</time>
      </trkpt>
      <trkpt lat="49.2078" lon="1.07615">
        <ele>229</ele>
        <time>2011-04-17T07:12:39Z</time>
      </trkpt>
      <trkpt lat="49.20779" lon="1.07693">
        <ele>228.1</ele>
        <time>2011-04-17T07:12:49Z</time>
      </trkpt>
      <trkpt lat="49.20782" lon="1.07757">
        <ele>224.3</ele>
        <time>2011-04-17T07:12:56Z</time>
      </trkpt>
      <trkpt lat="49.20787" lon="1.07808">
        <ele>222.8</ele>
        <time>2011-04-17T07:13:02Z</time>
      </trkpt>
      <trkpt lat="49.20805" lon="1.07868">
        <ele>222.8</ele>
        <time>2011-04-17T07:13:09Z</time>
      </trkpt>
      <trkpt lat="49.20827" lon="1.07911">
        <ele>223.3</ele>
        <time>2011-04-17T07:13:15Z</time>
      </trkpt>
      <trkpt lat="49.20862" lon="1.08002">
        <ele>223.4</ele>
        <time>2011-04-17T07:13:26Z</time>
      </trkpt>
      <trkpt lat="49.20869" lon="1.08041">
        <ele>223.1</ele>
        <time>2011-04-17T07:13:30Z</time>
      </trkpt>
      <trkpt lat="49.20878" lon="1.0809">
        <ele>221</ele>
        <time>2011-04-17T07:13:35Z</time>
      </trkpt>
      <trkpt lat="49.20884" lon="1.08204">
        <ele>221.8</ele>
        <time>2011-04-17T07:13:46Z</time>
      </trkpt>
      <trkpt lat="49.20868" lon="1.08252">
        <ele>223.1</ele>
        <time>2011-04-17T07:13:51Z</time>
      </trkpt>
      <trkpt lat="49.2082" lon="1.08353">
        <ele>226.2</ele>
        <time>2011-04-17T07:14:02Z</time>
      </trkpt>
      <trkpt lat="49.20784" lon="1.08423">
        <ele>226.7</ele>
        <time>2011-04-17T07:14:10Z</time>
      </trkpt>
      <trkpt lat="49.2075" lon="1.08496">
        <ele>228.5</ele>
        <time>2011-04-17T07:14:18Z</time>
      </trkpt>
      <trkpt lat="49.20712" lon="1.08608">
        <ele>229</ele>
        <time>2011-04-17T07:14:29Z</time>
      </trkpt>
      <trkpt lat="49.2071" lon="1.08713">
        <ele>228.4</ele>
        <time>2011-04-17T07:14:38Z</time>
      </trkpt>
      <trkpt lat="49.20716" lon="1.08761">
        <ele>226.6</ele>
        <time>2011-04-17T07:14:42Z</time>
      </trkpt>
      <trkpt lat="49.20724" lon="1.08819">
        <ele>225.5</ele>
        <time>2011-04-17T07:14:47Z</time>
      </trkpt>
      <trkpt lat="49.20743" lon="1.08949">
        <ele>221.6</ele>
        <time>2011-04-17T07:14:59Z</time>
      </trkpt>
      <trkpt lat="49.20771" lon="1.09139">
        <ele>217.1</ele>
        <time>2011-04-17T07:15:15Z</time>
      </trkpt>
      <trkpt lat="49.20791" lon="1.09281">
        <ele>215.5</ele>
        <time>2011-04-17T07:15:27Z</time>
      </trkpt>
      <trkpt lat="49.20798" lon="1.09328">
        <ele>214</ele>
        <time>2011-04-17T07:15:30Z</time>
      </trkpt>
      <trkpt lat="49.20832" lon="1.09697">
        <ele>197.5</ele>
        <time>2011-04-17T07:16:02Z</time>
      </trkpt>
      <trkpt lat="49.20834" lon="1.09792">
        <ele>195.7</ele>
        <time>2011-04-17T07:16:10Z</time>
      </trkpt>
      <trkpt lat="49.20835" lon="1.09826">
        <ele>194.9</ele>
        <time>2011-04-17T07:16:13Z</time>
      </trkpt>
      <trkpt lat="49.20836" lon="1.09884">
        <ele>193.7</ele>
        <time>2011-04-17T07:16:19Z</time>
      </trkpt>
      <trkpt lat="49.20836" lon="1.09931">
        <ele>193.2</ele>
        <time>2011-04-17T07:16:23Z</time>
      </trkpt>
      <trkpt lat="49.20838" lon="1.10067">
        <ele>188.8</ele>
        <time>2011-04-17T07:16:34Z</time>
      </trkpt>
      <trkpt lat="49.2084" lon="1.10217">
        <ele>187.3</ele>
        <time>2011-04-17T07:16:46Z</time>
      </trkpt>
      <trkpt lat="49.20842" lon="1.10348">
        <ele>187.9</ele>
        <time>2011-04-17T07:16:59Z</time>
      </trkpt>
      <trkpt lat="49.20844" lon="1.10409">
        <ele>187.4</ele>
        <time>2011-04-17T07:17:05Z</time>
      </trkpt>
      <trkpt lat="49.20846" lon="1.10439">
        <ele>187.8</ele>
        <time>2011-04-17T07:17:08Z</time>
      </trkpt>
      <trkpt lat="49.20855" lon="1.10676">
        <ele>189.1</ele>
        <time>2011-04-17T07:17:31Z</time>
      </trkpt>
      <trkpt lat="49.20875" lon="1.10787">
        <ele>186.4</ele>
        <time>2011-04-17T07:17:42Z</time>
      </trkpt>
      <trkpt lat="49.20883" lon="1.10837">
        <ele>186.6</ele>
        <time>2011-04-17T07:17:47Z</time>
      </trkpt>
      <trkpt lat="49.20901" lon="1.10907">
        <ele>187.3</ele>
        <time>2011-04-17T07:17:54Z</time>
      </trkpt>
      <trkpt lat="49.20909" lon="1.10947">
        <ele>187.2</ele>
        <time>2011-04-17T07:17:58Z</time>
      </trkpt>
      <trkpt lat="49.20916" lon="1.1099">
        <ele>185.5</ele>
        <time>2011-04-17T07:18:02Z</time>
      </trkpt>
      <trkpt lat="49.20921" lon="1.11023">
        <ele>186.1</ele>
        <time>2011-04-17T07:18:05Z</time>
      </trkpt>
      <trkpt lat="49.20933" lon="1.11089">
        <ele>185.4</ele>
        <time>2011-04-17T07:18:11Z</time>
      </trkpt>
      <trkpt lat="49.20954" lon="1.11197">
        <ele>186</ele>
        <time>2011-04-17T07:18:22Z</time>
      </trkpt>
      <trkpt lat="49.20944" lon="1.1131">
        <ele>185.4</ele>
        <time>2011-04-17T07:18:31Z</time>
      </trkpt>
      <trkpt lat="49.2093" lon="1.11395">
        <ele>180.8</ele>
        <time>2011-04-17T07:18:39Z</time>
      </trkpt>
      <trkpt lat="49.20918" lon="1.11517">
        <ele>175.1</ele>
        <time>2011-04-17T07:18:47Z</time>
      </trkpt>
      <trkpt lat="49.20916" lon="1.11559">
        <ele>173.7</ele>
        <time>2011-04-17T07:18:50Z</time>
      </trkpt>
      <trkpt lat="49.20919" lon="1.11679">
        <ele>173.6</ele>
        <time>2011-04-17T07:18:58Z</time>
      </trkpt>
      <trkpt lat="49.20937" lon="1.11969">
        <ele>170.5</ele>
        <time>2011-04-17T07:19:18Z</time>
      </trkpt>
      <trkpt lat="49.20958" lon="1.12136">
        <ele>171.7</ele>
        <time>2011-04-17T07:19:27Z</time>
      </trkpt>
      <trkpt lat="49.20991" lon="1.12266">
        <ele>168.1</ele>
        <time>2011-04-17T07:19:35Z</time>
      </trkpt>
      <trkpt lat="49.21" lon="1.12336">
        <ele>164.6</ele>
        <time>2011-04-17T07:19:39Z</time>
      </trkpt>
      <trkpt lat="49.2099" lon="1.12525">
        <ele>162.4</ele>
        <time>2011-04-17T07:19:51Z</time>
      </trkpt>
      <trkpt lat="49.20992" lon="1.12742">
        <ele>156.1</ele>
        <time>2011-04-17T07:20:01Z</time>
      </trkpt>
      <trkpt lat="49.21003" lon="1.12831">
        <ele>153.5</ele>
        <time>2011-04-17T07:20:07Z</time>
      </trkpt>
      <trkpt lat="49.20954" lon="1.12958">
        <ele>147.3</ele>
        <time>2011-04-17T07:20:15Z</time>
      </trkpt>
      <trkpt lat="49.2091" lon="1.13064">
        <ele>139.1</ele>
        <time>2011-04-17T07:20:22Z</time>
      </trkpt>
      <trkpt lat="49.2088" lon="1.13122">
        <ele>137.5</ele>
        <time>2011-04-17T07:20:26Z</time>
      </trkpt>
      <trkpt lat="49.20841" lon="1.13328">
        <ele>129.5</ele>
        <time>2011-04-17T07:20:39Z</time>
      </trkpt>
      <trkpt lat="49.20812" lon="1.13443">
        <ele>124.9</ele>
        <time>2011-04-17T07:20:46Z</time>
      </trkpt>
      <trkpt lat="49.20749" lon="1.1379">
        <ele>115.6</ele>
        <time>2011-04-17T07:21:06Z</time>
      </trkpt>
      <trkpt lat="49.20732" lon="1.1385">
        <ele>114</ele>
        <time>2011-04-17T07:21:10Z</time>
      </trkpt>
      <trkpt lat="49.20715" lon="1.13904">
        <ele>112.5</ele>
        <time>2011-04-17T07:21:14Z</time>
      </trkpt>
      <trkpt lat="49.20687" lon="1.13992">
        <ele>110.8</ele>
        <time>2011-04-17T07:21:22Z</time>
      </trkpt>
      <trkpt lat="49.20679" lon="1.14149">
        <ele>109.2</ele>
        <time>2011-04-17T07:21:34Z</time>
      </trkpt>
      <trkpt lat="49.20685" lon="1.14251">
        <ele>104.3</ele>
        <time>2011-04-17T07:21:42Z</time>
      </trkpt>
      <trkpt lat="49.20684" lon="1.14459">
        <ele>103.3</ele>
        <time>2011-04-17T07:21:59Z</time>
      </trkpt>
      <trkpt lat="49.20681" lon="1.14551">
        <ele>98.4</ele>
        <time>2011-04-17T07:22:07Z</time>
      </trkpt>
      <trkpt lat="49.20663" lon="1.14599">
        <ele>97.1</ele>
        <time>2011-04-17T07:22:15Z</time>
      </trkpt>
      <trkpt lat="49.20667" lon="1.14665">
        <ele>88.2</ele>
        <time>2011-04-17T07:22:25Z</time>
      </trkpt>
      <trkpt lat="49.20686" lon="1.14762">
        <ele>83</ele>
        <time>2011-04-17T07:22:37Z</time>
      </trkpt>
      <trkpt lat="49.20699" lon="1.14832">
        <ele>80.8</ele>
        <time>2011-04-17T07:22:45Z</time>
      </trkpt>
      <trkpt lat="49.20712" lon="1.14893">
        <ele>80.3</ele>
        <time>2011-04-17T07:22:54Z</time>
      </trkpt>
      <trkpt lat="49.20715" lon="1.14973">
        <ele>79.1</ele>
        <time>2011-04-17T07:23:05Z</time>
      </trkpt>
      <trkpt lat="49.20539" lon="1.15057">
        <ele>76.7</ele>
        <time>2011-04-17T07:23:33Z</time>
      </trkpt>
      <trkpt lat="49.20516" lon="1.15162">
        <ele>73.1</ele>
        <time>2011-04-17T07:23:47Z</time>
      </trkpt>
      <trkpt lat="49.2052" lon="1.15205">
        <ele>72.6</ele>
        <time>2011-04-17T07:23:50Z</time>
      </trkpt>
      <trkpt lat="49.20526" lon="1.15328">
        <ele>74.4</ele>
        <time>2011-04-17T07:24:02Z</time>
      </trkpt>
      <trkpt lat="49.20529" lon="1.15418">
        <ele>75.3</ele>
        <time>2011-04-17T07:24:15Z</time>
      </trkpt>
      <trkpt lat="49.2053" lon="1.15448">
        <ele>75.3</ele>
        <time>2011-04-17T07:24:18Z</time>
      </trkpt>
      <trkpt lat="49.20534" lon="1.15477">
        <ele>75.9</ele>
        <time>2011-04-17T07:24:22Z</time>
      </trkpt>
      <trkpt lat="49.20543" lon="1.15505">
        <ele>76</ele>
        <time>2011-04-17T07:24:26Z</time>
      </trkpt>
      <trkpt lat="49.20588" lon="1.15569">
        <ele>73.9</ele>
        <time>2011-04-17T07:24:39Z</time>
      </trkpt>
      <trkpt lat="49.20619" lon="1.1561">
        <ele>73.1</ele>
        <time>2011-04-17T07:24:45Z</time>
      </trkpt>
      <trkpt lat="49.20692" lon="1.15739">
        <ele>70.7</ele>
        <time>2011-04-17T07:25:02Z</time>
      </trkpt>
      <trkpt lat="49.2072" lon="1.15793">
        <ele>70.7</ele>
        <time>2011-04-17T07:25:09Z</time>
      </trkpt>
      <trkpt lat="49.20741" lon="1.15847">
        <ele>69.7</ele>
        <time>2011-04-17T07:25:15Z</time>
      </trkpt>
      <trkpt lat="49.20763" lon="1.15927">
        <ele>69.9</ele>
        <time>2011-04-17T07:25:24Z</time>
      </trkpt>
      <trkpt lat="49.20818" lon="1.16018">
        <ele>69.5</ele>
        <time>2011-04-17T07:25:38Z</time>
      </trkpt>
      <trkpt lat="49.20846" lon="1.16064">
        <ele>71.7</ele>
        <time>2011-04-17T07:25:46Z</time>
      </trkpt>
      <trkpt lat="49.20868" lon="1.16101">
        <ele>75.5</ele>
        <time>2011-04-17T07:25:53Z</time>
      </trkpt>
      <trkpt lat="49.20873" lon="1.16114">
        <ele>76.6</ele>
        <time>2011-04-17T07:25:55Z</time>
      </trkpt>
      <trkpt lat="49.20908" lon="1.16168">
        <ele>75.9</ele>
        <time>2011-04-17T07:26:07Z</time>
      </trkpt>
      <trkpt lat="49.20934" lon="1.1622">
        <ele>76.1</ele>
        <time>2011-04-17T07:26:15Z</time>
      </trkpt>
      <trkpt lat="49.20978" lon="1.16349">
        <ele>78.2</ele>
        <time>2011-04-17T07:26:32Z</time>
      </trkpt>
      <trkpt lat="49.20992" lon="1.16401">
        <ele>80.9</ele>
        <time>2011-04-17T07:26:41Z</time>
      </trkpt>
      <trkpt lat="49.21008" lon="1.16452">
        <ele>81.5</ele>
        <time>2011-04-17T07:26:49Z</time>
      </trkpt>
      <trkpt lat="49.21019" lon="1.16512">
        <ele>79.6</ele>
        <time>2011-04-17T07:26:58Z</time>
      </trkpt>
      <trkpt lat="49.21003" lon="1.16605">
        <ele>73</ele>
        <time>2011-04-17T07:27:10Z</time>
      </trkpt>
      <trkpt lat="49.20997" lon="1.16724">
        <ele>68.7</ele>
        <time>2011-04-17T07:27:22Z</time>
      </trkpt>
      <trkpt lat="49.21" lon="1.16793">
        <ele>71</ele>
        <time>2011-04-17T07:27:29Z</time>
      </trkpt>
      <trkpt lat="49.21001" lon="1.16832">
        <ele>70.5</ele>
        <time>2011-04-17T07:27:33Z</time>
      </trkpt>
      <trkpt lat="49.21009" lon="1.17035">
        <ele>65.5</ele>
        <time>2011-04-17T07:27:54Z</time>
      </trkpt>
      <trkpt lat="49.21027" lon="1.17174">
        <ele>67</ele>
        <time>2011-04-17T07:28:06Z</time>
      </trkpt>
      <trkpt lat="49.21048" lon="1.1734">
        <ele>66.2</ele>
        <time>2011-04-17T07:28:22Z</time>
      </trkpt>
      <trkpt lat="49.21048" lon="1.17382">
        <ele>65.5</ele>
        <time>2011-04-17T07:28:26Z</time>
      </trkpt>
      <trkpt lat="49.21033" lon="1.17474">
        <ele>63.4</ele>
        <time>2011-04-17T07:28:35Z</time>
      </trkpt>
      <trkpt lat="49.2102" lon="1.17552">
        <ele>62.7</ele>
        <time>2011-04-17T07:28:43Z</time>
      </trkpt>
      <trkpt lat="49.20999" lon="1.1765">
        <ele>60.9</ele>
        <time>2011-04-17T07:28:53Z</time>
      </trkpt>
      <trkpt lat="49.20984" lon="1.17734">
        <ele>58.7</ele>
        <time>2011-04-17T07:29:02Z</time>
      </trkpt>
      <trkpt lat="49.20977" lon="1.17773">
        <ele>58.9</ele>
        <time>2011-04-17T07:29:06Z</time>
      </trkpt>
      <trkpt lat="49.20967" lon="1.17812">
        <ele>58.8</ele>
        <time>2011-04-17T07:29:10Z</time>
      </trkpt>
      <trkpt lat="49.20958" lon="1.1785">
        <ele>59.3</ele>
        <time>2011-04-17T07:29:14Z</time>
      </trkpt>
      <trkpt lat="49.20939" lon="1.17969">
        <ele>59</ele>
        <time>2011-04-17T07:29:27Z</time>
      </trkpt>
      <trkpt lat="49.20911" lon="1.18015">
        <ele>59.5</ele>
        <time>2011-04-17T07:29:34Z</time>
      </trkpt>
      <trkpt lat="49.20927" lon="1.18063">
        <ele>59.8</ele>
        <time>2011-04-17T07:29:42Z</time>
      </trkpt>
      <trkpt lat="49.21007" lon="1.1808">
        <ele>58.7</ele>
        <time>2011-04-17T07:29:54Z</time>
      </trkpt>
      <trkpt lat="49.21092" lon="1.18082">
        <ele>58.6</ele>
        <time>2011-04-17T07:30:06Z</time>
      </trkpt>
      <trkpt lat="49.21179" lon="1.1807">
        <ele>57.3</ele>
        <time>2011-04-17T07:30:18Z</time>
      </trkpt>
      <trkpt lat="49.21269" lon="1.18058">
        <ele>56.3</ele>
        <time>2011-04-17T07:30:30Z</time>
      </trkpt>
      <trkpt lat="49.21337" lon="1.18048">
        <ele>56.3</ele>
        <time>2011-04-17T07:30:39Z</time>
      </trkpt>
      <trkpt lat="49.21359" lon="1.18045">
        <ele>56.9</ele>
        <time>2011-04-17T07:30:42Z</time>
      </trkpt>
      <trkpt lat="49.21388" lon="1.18041">
        <ele>56.5</ele>
        <time>2011-04-17T07:30:46Z</time>
      </trkpt>
      <trkpt lat="49.21504" lon="1.18024">
        <ele>55.1</ele>
        <time>2011-04-17T07:31:02Z</time>
      </trkpt>
      <trkpt lat="49.2157" lon="1.18015">
        <ele>55.7</ele>
        <time>2011-04-17T07:31:11Z</time>
      </trkpt>
      <trkpt lat="49.2167" lon="1.18001">
        <ele>56.2</ele>
        <time>2011-04-17T07:31:26Z</time>
      </trkpt>
      <trkpt lat="49.21706" lon="1.17996">
        <ele>55.6</ele>
        <time>2011-04-17T07:31:30Z</time>
      </trkpt>
      <trkpt lat="49.21728" lon="1.17993">
        <ele>55.6</ele>
        <time>2011-04-17T07:31:33Z</time>
      </trkpt>
      <trkpt lat="49.21763" lon="1.17988">
        <ele>55.8</ele>
        <time>2011-04-17T07:31:38Z</time>
      </trkpt>
      <trkpt lat="49.21849" lon="1.17976">
        <ele>56.9</ele>
        <time>2011-04-17T07:31:50Z</time>
      </trkpt>
      <trkpt lat="49.21932" lon="1.17958">
        <ele>57</ele>
        <time>2011-04-17T07:32:02Z</time>
      </trkpt>
      <trkpt lat="49.21993" lon="1.17944">
        <ele>58.3</ele>
        <time>2011-04-17T07:32:13Z</time>
      </trkpt>
      <trkpt lat="49.22021" lon="1.17907">
        <ele>57.6</ele>
        <time>2011-04-17T07:32:19Z</time>
      </trkpt>
      <trkpt lat="49.2204" lon="1.17902">
        <ele>57.7</ele>
        <time>2011-04-17T07:32:22Z</time>
      </trkpt>
      <trkpt lat="49.22072" lon="1.17895">
        <ele>57.8</ele>
        <time>2011-04-17T07:32:28Z</time>
      </trkpt>
      <trkpt lat="49.22122" lon="1.17893">
        <ele>57.6</ele>
        <time>2011-04-17T07:32:34Z</time>
      </trkpt>
      <trkpt lat="49.2215" lon="1.17895">
        <ele>57.6</ele>
        <time>2011-04-17T07:32:38Z</time>
      </trkpt>
      <trkpt lat="49.22179" lon="1.17894">
        <ele>58</ele>
        <time>2011-04-17T07:32:42Z</time>
      </trkpt>
      <trkpt lat="49.22231" lon="1.17883">
        <ele>60.3</ele>
        <time>2011-04-17T07:32:50Z</time>
      </trkpt>
      <trkpt lat="49.22255" lon="1.17875">
        <ele>61.1</ele>
        <time>2011-04-17T07:32:54Z</time>
      </trkpt>
      <trkpt lat="49.22302" lon="1.17874">
        <ele>63.6</ele>
        <time>2011-04-17T07:33:02Z</time>
      </trkpt>
      <trkpt lat="49.22323" lon="1.17891">
        <ele>64</ele>
        <time>2011-04-17T07:33:06Z</time>
      </trkpt>
      <trkpt lat="49.22338" lon="1.1792">
        <ele>64</ele>
        <time>2011-04-17T07:33:10Z</time>
      </trkpt>
      <trkpt lat="49.22375" lon="1.18076">
        <ele>57.9</ele>
        <time>2011-04-17T07:33:26Z</time>
      </trkpt>
      <trkpt lat="49.22434" lon="1.1817">
        <ele>56.1</ele>
        <time>2011-04-17T07:33:46Z</time>
      </trkpt>
      <trkpt lat="49.22469" lon="1.18181">
        <ele>56.2</ele>
        <time>2011-04-17T07:33:50Z</time>
      </trkpt>
      <trkpt lat="49.22496" lon="1.18189">
        <ele>56.1</ele>
        <time>2011-04-17T07:33:54Z</time>
      </trkpt>
      <trkpt lat="49.22522" lon="1.18198">
        <ele>56.6</ele>
        <time>2011-04-17T07:33:58Z</time>
      </trkpt>
      <trkpt lat="49.22599" lon="1.18232">
        <ele>57.4</ele>
        <time>2011-04-17T07:34:10Z</time>
      </trkpt>
      <trkpt lat="49.22729" lon="1.1829">
        <ele>58.9</ele>
        <time>2011-04-17T07:34:30Z</time>
      </trkpt>
      <trkpt lat="49.22812" lon="1.18333">
        <ele>58.8</ele>
        <time>2011-04-17T07:34:42Z</time>
      </trkpt>
      <trkpt lat="49.22909" lon="1.18384">
        <ele>60.7</ele>
        <time>2011-04-17T07:34:58Z</time>
      </trkpt>
      <trkpt lat="49.22975" lon="1.18417">
        <ele>61.9</ele>
        <time>2011-04-17T07:35:07Z</time>
      </trkpt>
      <trkpt lat="49.23127" lon="1.18483">
        <ele>63</ele>
        <time>2011-04-17T07:35:27Z</time>
      </trkpt>
      <trkpt lat="49.23157" lon="1.18499">
        <ele>66.1</ele>
        <time>2011-04-17T07:35:31Z</time>
      </trkpt>
      <trkpt lat="49.23313" lon="1.18613">
        <ele>63.8</ele>
        <time>2011-04-17T07:35:54Z</time>
      </trkpt>
      <trkpt lat="49.23347" lon="1.18637">
        <ele>62.1</ele>
        <time>2011-04-17T07:35:59Z</time>
      </trkpt>
      <trkpt lat="49.2336" lon="1.18648">
        <ele>63</ele>
        <time>2011-04-17T07:36:02Z</time>
      </trkpt>
      <trkpt lat="49.23382" lon="1.18662">
        <ele>62.2</ele>
        <time>2011-04-17T07:36:05Z</time>
      </trkpt>
      <trkpt lat="49.23452" lon="1.18727">
        <ele>68.3</ele>
        <time>2011-04-17T07:36:15Z</time>
      </trkpt>
      <trkpt lat="49.2347" lon="1.18749">
        <ele>69.4</ele>
        <time>2011-04-17T07:36:18Z</time>
      </trkpt>
      <trkpt lat="49.2352" lon="1.18792">
        <ele>75.6</ele>
        <time>2011-04-17T07:36:26Z</time>
      </trkpt>
      <trkpt lat="49.2357" lon="1.18843">
        <ele>77.4</ele>
        <time>2011-04-17T07:36:34Z</time>
      </trkpt>
      <trkpt lat="49.23604" lon="1.18862">
        <ele>75.5</ele>
        <time>2011-04-17T07:36:39Z</time>
      </trkpt>
      <trkpt lat="49.23644" lon="1.18899">
        <ele>75.4</ele>
        <time>2011-04-17T07:36:46Z</time>
      </trkpt>
      <trkpt lat="49.23717" lon="1.1896">
        <ele>75.2</ele>
        <time>2011-04-17T07:36:57Z</time>
      </trkpt>
      <trkpt lat="49.23724" lon="1.18964">
        <ele>75.5</ele>
        <time>2011-04-17T07:36:59Z</time>
      </trkpt>
      <trkpt lat="49.23768" lon="1.19001">
        <ele>75.4</ele>
        <time>2011-04-17T07:37:06Z</time>
      </trkpt>
      <trkpt lat="49.23817" lon="1.19053">
        <ele>75.6</ele>
        <time>2011-04-17T07:37:13Z</time>
      </trkpt>
      <trkpt lat="49.23873" lon="1.19112">
        <ele>72.6</ele>
        <time>2011-04-17T07:37:22Z</time>
      </trkpt>
      <trkpt lat="49.23913" lon="1.19169">
        <ele>72.6</ele>
        <time>2011-04-17T07:37:30Z</time>
      </trkpt>
      <trkpt lat="49.23943" lon="1.19204">
        <ele>71.2</ele>
        <time>2011-04-17T07:37:34Z</time>
      </trkpt>
      <trkpt lat="49.24006" lon="1.1929">
        <ele>67.7</ele>
        <time>2011-04-17T07:37:45Z</time>
      </trkpt>
      <trkpt lat="49.24035" lon="1.19332">
        <ele>66.2</ele>
        <time>2011-04-17T07:37:50Z</time>
      </trkpt>
      <trkpt lat="49.24056" lon="1.19367">
        <ele>66.1</ele>
        <time>2011-04-17T07:37:54Z</time>
      </trkpt>
      <trkpt lat="49.24094" lon="1.19427">
        <ele>66.7</ele>
        <time>2011-04-17T07:38:01Z</time>
      </trkpt>
      <trkpt lat="49.24159" lon="1.19547">
        <ele>68.1</ele>
        <time>2011-04-17T07:38:14Z</time>
      </trkpt>
      <trkpt lat="49.24219" lon="1.19673">
        <ele>68.6</ele>
        <time>2011-04-17T07:38:27Z</time>
      </trkpt>
      <trkpt lat="49.2425" lon="1.19738">
        <ele>62</ele>
        <time>2011-04-17T07:38:35Z</time>
      </trkpt>
      <trkpt lat="49.24285" lon="1.19815">
        <ele>58.6</ele>
        <time>2011-04-17T07:38:42Z</time>
      </trkpt>
      <trkpt lat="49.24315" lon="1.19882">
        <ele>59.5</ele>
        <time>2011-04-17T07:38:50Z</time>
      </trkpt>
      <trkpt lat="49.24356" lon="1.19975">
        <ele>60.9</ele>
        <time>2011-04-17T07:38:59Z</time>
      </trkpt>
      <trkpt lat="49.24385" lon="1.20038">
        <ele>61.5</ele>
        <time>2011-04-17T07:39:06Z</time>
      </trkpt>
      <trkpt lat="49.24413" lon="1.20104">
        <ele>62.8</ele>
        <time>2011-04-17T07:39:14Z</time>
      </trkpt>
      <trkpt lat="49.24431" lon="1.20153">
        <ele>61.7</ele>
        <time>2011-04-17T07:39:18Z</time>
      </trkpt>
      <trkpt lat="49.24458" lon="1.20234">
        <ele>62.3</ele>
        <time>2011-04-17T07:39:26Z</time>
      </trkpt>
      <trkpt lat="49.24473" lon="1.20274">
        <ele>62.8</ele>
        <time>2011-04-17T07:39:30Z</time>
      </trkpt>
      <trkpt lat="49.24503" lon="1.20365">
        <ele>64.5</ele>
        <time>2011-04-17T07:39:39Z</time>
      </trkpt>
      <trkpt lat="49.24564" lon="1.2055">
        <ele>71.4</ele>
        <time>2011-04-17T07:39:57Z</time>
      </trkpt>
      <trkpt lat="49.24611" lon="1.20674">
        <ele>71</ele>
        <time>2011-04-17T07:40:09Z</time>
      </trkpt>
      <trkpt lat="49.2465" lon="1.20808">
        <ele>69.1</ele>
        <time>2011-04-17T07:40:22Z</time>
      </trkpt>
      <trkpt lat="49.24663" lon="1.20847">
        <ele>68.4</ele>
        <time>2011-04-17T07:40:26Z</time>
      </trkpt>
      <trkpt lat="49.24709" lon="1.21017">
        <ele>62.5</ele>
        <time>2011-04-17T07:40:46Z</time>
      </trkpt>
      <trkpt lat="49.24728" lon="1.21097">
        <ele>58.4</ele>
        <time>2011-04-17T07:40:54Z</time>
      </trkpt>
      <trkpt lat="49.24738" lon="1.21194">
        <ele>56.4</ele>
        <time>2011-04-17T07:41:03Z</time>
      </trkpt>
      <trkpt lat="49.24741" lon="1.21235">
        <ele>55.6</ele>
        <time>2011-04-17T07:41:07Z</time>
      </trkpt>
      <trkpt lat="49.24746" lon="1.21336">
        <ele>55</ele>
        <time>2011-04-17T07:41:17Z</time>
      </trkpt>
      <trkpt lat="49.24732" lon="1.21451">
        <ele>53.5</ele>
        <time>2011-04-17T07:41:29Z</time>
      </trkpt>
      <trkpt lat="49.24712" lon="1.21551">
        <ele>54.7</ele>
        <time>2011-04-17T07:41:41Z</time>
      </trkpt>
      <trkpt lat="49.2471" lon="1.21627">
        <ele>54.9</ele>
        <time>2011-04-17T07:41:51Z</time>
      </trkpt>
      <trkpt lat="49.24631" lon="1.21873">
        <ele>52.6</ele>
        <time>2011-04-17T07:42:19Z</time>
      </trkpt>
      <trkpt lat="49.24568" lon="1.21927">
        <ele>54.1</ele>
        <time>2011-04-17T07:42:30Z</time>
      </trkpt>
      <trkpt lat="49.24519" lon="1.21966">
        <ele>56.2</ele>
        <time>2011-04-17T07:42:38Z</time>
      </trkpt>
      <trkpt lat="49.24494" lon="1.21983">
        <ele>56.4</ele>
        <time>2011-04-17T07:42:42Z</time>
      </trkpt>
      <trkpt lat="49.24442" lon="1.21998">
        <ele>55.1</ele>
        <time>2011-04-17T07:42:51Z</time>
      </trkpt>
      <trkpt lat="49.24396" lon="1.22007">
        <ele>56</ele>
        <time>2011-04-17T07:42:57Z</time>
      </trkpt>
      <trkpt lat="49.24288" lon="1.22013">
        <ele>56.5</ele>
        <time>2011-04-17T07:43:14Z</time>
      </trkpt>
      <trkpt lat="49.24215" lon="1.22015">
        <ele>57</ele>
        <time>2011-04-17T07:43:26Z</time>
      </trkpt>
      <trkpt lat="49.24189" lon="1.22009">
        <ele>57.8</ele>
        <time>2011-04-17T07:43:30Z</time>
      </trkpt>
      <trkpt lat="49.24111" lon="1.2201">
        <ele>59</ele>
        <time>2011-04-17T07:43:43Z</time>
      </trkpt>
      <trkpt lat="49.24085" lon="1.22013">
        <ele>59</ele>
        <time>2011-04-17T07:43:46Z</time>
      </trkpt>
      <trkpt lat="49.24058" lon="1.22013">
        <ele>58.3</ele>
        <time>2011-04-17T07:43:50Z</time>
      </trkpt>
      <trkpt lat="49.24006" lon="1.22002">
        <ele>59.6</ele>
        <time>2011-04-17T07:43:58Z</time>
      </trkpt>
      <trkpt lat="49.23931" lon="1.22002">
        <ele>58.9</ele>
        <time>2011-04-17T07:44:10Z</time>
      </trkpt>
      <trkpt lat="49.23907" lon="1.22">
        <ele>58.1</ele>
        <time>2011-04-17T07:44:14Z</time>
      </trkpt>
      <trkpt lat="49.23837" lon="1.21982">
        <ele>54.6</ele>
        <time>2011-04-17T07:44:26Z</time>
      </trkpt>
      <trkpt lat="49.23779" lon="1.21994">
        <ele>55</ele>
        <time>2011-04-17T07:44:34Z</time>
      </trkpt>
      <trkpt lat="49.23724" lon="1.22008">
        <ele>53.8</ele>
        <time>2011-04-17T07:44:42Z</time>
      </trkpt>
      <trkpt lat="49.2368" lon="1.22022">
        <ele>54.5</ele>
        <time>2011-04-17T07:44:49Z</time>
      </trkpt>
      <trkpt lat="49.23668" lon="1.22027">
        <ele>54.7</ele>
        <time>2011-04-17T07:44:52Z</time>
      </trkpt>
      <trkpt lat="49.23616" lon="1.22039">
        <ele>55.3</ele>
        <time>2011-04-17T07:44:59Z</time>
      </trkpt>
      <trkpt lat="49.2361" lon="1.22041">
        <ele>55.2</ele>
        <time>2011-04-17T07:45:00Z</time>
      </trkpt>
      <trkpt lat="49.23496" lon="1.22075">
        <ele>57.1</ele>
        <time>2011-04-17T07:45:19Z</time>
      </trkpt>
      <trkpt lat="49.23452" lon="1.22089">
        <ele>58.9</ele>
        <time>2011-04-17T07:45:26Z</time>
      </trkpt>
      <trkpt lat="49.23409" lon="1.22104">
        <ele>57.1</ele>
        <time>2011-04-17T07:45:33Z</time>
      </trkpt>
      <trkpt lat="49.23366" lon="1.22118">
        <ele>58.3</ele>
        <time>2011-04-17T07:45:40Z</time>
      </trkpt>
      <trkpt lat="49.23316" lon="1.22127">
        <ele>59.2</ele>
        <time>2011-04-17T07:45:46Z</time>
      </trkpt>
      <trkpt lat="49.23297" lon="1.22129">
        <ele>59.4</ele>
        <time>2011-04-17T07:45:49Z</time>
      </trkpt>
      <trkpt lat="49.23236" lon="1.22113">
        <ele>58.6</ele>
        <time>2011-04-17T07:46:02Z</time>
      </trkpt>
      <trkpt lat="49.23227" lon="1.22109">
        <ele>58.9</ele>
        <time>2011-04-17T07:46:04Z</time>
      </trkpt>
      <trkpt lat="49.23204" lon="1.2211">
        <ele>57</ele>
        <time>2011-04-17T07:46:11Z</time>
      </trkpt>
      <trkpt lat="49.23154" lon="1.22154">
        <ele>61.3</ele>
        <time>2011-04-17T07:46:21Z</time>
      </trkpt>
      <trkpt lat="49.23133" lon="1.22204">
        <ele>59.4</ele>
        <time>2011-04-17T07:46:31Z</time>
      </trkpt>
      <trkpt lat="49.23138" lon="1.2225">
        <ele>60</ele>
        <time>2011-04-17T07:46:37Z</time>
      </trkpt>
      <trkpt lat="49.23112" lon="1.22323">
        <ele>55.4</ele>
        <time>2011-04-17T07:46:50Z</time>
      </trkpt>
      <trkpt lat="49.23101" lon="1.22401">
        <ele>53.3</ele>
        <time>2011-04-17T07:46:58Z</time>
      </trkpt>
      <trkpt lat="49.231" lon="1.22441">
        <ele>53.1</ele>
        <time>2011-04-17T07:47:02Z</time>
      </trkpt>
      <trkpt lat="49.23111" lon="1.225">
        <ele>57.3</ele>
        <time>2011-04-17T07:47:10Z</time>
      </trkpt>
      <trkpt lat="49.23094" lon="1.2257">
        <ele>58.6</ele>
        <time>2011-04-17T07:47:22Z</time>
      </trkpt>
      <trkpt lat="49.23085" lon="1.22598">
        <ele>58.8</ele>
        <time>2011-04-17T07:47:26Z</time>
      </trkpt>
      <trkpt lat="49.23081" lon="1.22612">
        <ele>58.9</ele>
        <time>2011-04-17T07:47:28Z</time>
      </trkpt>
      <trkpt lat="49.23055" lon="1.22718">
        <ele>60.8</ele>
        <time>2011-04-17T07:47:42Z</time>
      </trkpt>
      <trkpt lat="49.23036" lon="1.22783">
        <ele>59.8</ele>
        <time>2011-04-17T07:47:50Z</time>
      </trkpt>
      <trkpt lat="49.22987" lon="1.22978">
        <ele>55.1</ele>
        <time>2011-04-17T07:48:10Z</time>
      </trkpt>
      <trkpt lat="49.22974" lon="1.23027">
        <ele>55.4</ele>
        <time>2011-04-17T07:48:15Z</time>
      </trkpt>
      <trkpt lat="49.22967" lon="1.23042">
        <ele>54.9</ele>
        <time>2011-04-17T07:48:17Z</time>
      </trkpt>
      <trkpt lat="49.22949" lon="1.23116">
        <ele>54.2</ele>
        <time>2011-04-17T07:48:27Z</time>
      </trkpt>
      <trkpt lat="49.22937" lon="1.23171">
        <ele>54.8</ele>
        <time>2011-04-17T07:48:35Z</time>
      </trkpt>
      <trkpt lat="49.22914" lon="1.23304">
        <ele>55.4</ele>
        <time>2011-04-17T07:48:50Z</time>
      </trkpt>
      <trkpt lat="49.22934" lon="1.23381">
        <ele>53.1</ele>
        <time>2011-04-17T07:48:58Z</time>
      </trkpt>
      <trkpt lat="49.22951" lon="1.23431">
        <ele>52.9</ele>
        <time>2011-04-17T07:49:03Z</time>
      </trkpt>
      <trkpt lat="49.22962" lon="1.23457">
        <ele>53.9</ele>
        <time>2011-04-17T07:49:06Z</time>
      </trkpt>
      <trkpt lat="49.22972" lon="1.23482">
        <ele>54.1</ele>
        <time>2011-04-17T07:49:09Z</time>
      </trkpt>
      <trkpt lat="49.22995" lon="1.23546">
        <ele>54.3</ele>
        <time>2011-04-17T07:49:17Z</time>
      </trkpt>
      <trkpt lat="49.2305" lon="1.23708">
        <ele>62.6</ele>
        <time>2011-04-17T07:49:38Z</time>
      </trkpt>
      <trkpt lat="49.23068" lon="1.23754">
        <ele>63.2</ele>
        <time>2011-04-17T07:49:44Z</time>
      </trkpt>
      <trkpt lat="49.23083" lon="1.23799">
        <ele>63.4</ele>
        <time>2011-04-17T07:49:50Z</time>
      </trkpt>
      <trkpt lat="49.2313" lon="1.23928">
        <ele>67.4</ele>
        <time>2011-04-17T07:50:08Z</time>
      </trkpt>
      <trkpt lat="49.23155" lon="1.23997">
        <ele>67.2</ele>
        <time>2011-04-17T07:50:19Z</time>
      </trkpt>
      <trkpt lat="49.23178" lon="1.24063">
        <ele>67.4</ele>
        <time>2011-04-17T07:50:27Z</time>
      </trkpt>
      <trkpt lat="49.23214" lon="1.24152">
        <ele>68.4</ele>
        <time>2011-04-17T07:50:39Z</time>
      </trkpt>
      <trkpt lat="49.2322" lon="1.24166">
        <ele>69</ele>
        <time>2011-04-17T07:50:41Z</time>
      </trkpt>
      <trkpt lat="49.23248" lon="1.24241">
        <ele>71.1</ele>
        <time>2011-04-17T07:50:51Z</time>
      </trkpt>
      <trkpt lat="49.23252" lon="1.24256">
        <ele>71.1</ele>
        <time>2011-04-17T07:50:53Z</time>
      </trkpt>
      <trkpt lat="49.23265" lon="1.24291">
        <ele>71.3</ele>
        <time>2011-04-17T07:50:58Z</time>
      </trkpt>
      <trkpt lat="49.23275" lon="1.24319">
        <ele>72.6</ele>
        <time>2011-04-17T07:51:03Z</time>
      </trkpt>
      <trkpt lat="49.23316" lon="1.24438">
        <ele>73</ele>
        <time>2011-04-17T07:51:18Z</time>
      </trkpt>
      <trkpt lat="49.23333" lon="1.24502">
        <ele>73.6</ele>
        <time>2011-04-17T07:51:26Z</time>
      </trkpt>
      <trkpt lat="49.23342" lon="1.24533">
        <ele>73.6</ele>
        <time>2011-04-17T07:51:30Z</time>
      </trkpt>
      <trkpt lat="49.23351" lon="1.24565">
        <ele>74.3</ele>
        <time>2011-04-17T07:51:35Z</time>
      </trkpt>
      <trkpt lat="49.23383" lon="1.2466">
        <ele>73.8</ele>
        <time>2011-04-17T07:51:47Z</time>
      </trkpt>
      <trkpt lat="49.23413" lon="1.24748">
        <ele>76</ele>
        <time>2011-04-17T07:51:58Z</time>
      </trkpt>
      <trkpt lat="49.23451" lon="1.24824">
        <ele>78.6</ele>
        <time>2011-04-17T07:52:10Z</time>
      </trkpt>
      <trkpt lat="49.23493" lon="1.24886">
        <ele>82.9</ele>
        <time>2011-04-17T07:52:22Z</time>
      </trkpt>
      <trkpt lat="49.23534" lon="1.2494">
        <ele>85.1</ele>
        <time>2011-04-17T07:52:34Z</time>
      </trkpt>
      <trkpt lat="49.23574" lon="1.24999">
        <ele>85.8</ele>
        <time>2011-04-17T07:52:46Z</time>
      </trkpt>
      <trkpt lat="49.23609" lon="1.25054">
        <ele>85.9</ele>
        <time>2011-04-17T07:52:57Z</time>
      </trkpt>
      <trkpt lat="49.23622" lon="1.25075">
        <ele>85.8</ele>
        <time>2011-04-17T07:53:01Z</time>
      </trkpt>
      <trkpt lat="49.23636" lon="1.25098">
        <ele>85.1</ele>
        <time>2011-04-17T07:53:05Z</time>
      </trkpt>
      <trkpt lat="49.23662" lon="1.2514">
        <ele>85</ele>
        <time>2011-04-17T07:53:13Z</time>
      </trkpt>
      <trkpt lat="49.23705" lon="1.25204">
        <ele>86</ele>
        <time>2011-04-17T07:53:25Z</time>
      </trkpt>
      <trkpt lat="49.23748" lon="1.25273">
        <ele>85.2</ele>
        <time>2011-04-17T07:53:37Z</time>
      </trkpt>
      <trkpt lat="49.23816" lon="1.25361">
        <ele>83.5</ele>
        <time>2011-04-17T07:53:53Z</time>
      </trkpt>
      <trkpt lat="49.23854" lon="1.25411">
        <ele>84.7</ele>
        <time>2011-04-17T07:54:03Z</time>
      </trkpt>
      <trkpt lat="49.23877" lon="1.25437">
        <ele>85.6</ele>
        <time>2011-04-17T07:54:09Z</time>
      </trkpt>
      <trkpt lat="49.23958" lon="1.25533">
        <ele>85.9</ele>
        <time>2011-04-17T07:54:30Z</time>
      </trkpt>
      <trkpt lat="49.23972" lon="1.25555">
        <ele>87.1</ele>
        <time>2011-04-17T07:54:34Z</time>
      </trkpt>
      <trkpt lat="49.23984" lon="1.25577">
        <ele>88</ele>
        <time>2011-04-17T07:54:38Z</time>
      </trkpt>
      <trkpt lat="49.23994" lon="1.25599">
        <ele>88.7</ele>
        <time>2011-04-17T07:54:42Z</time>
      </trkpt>
      <trkpt lat="49.24021" lon="1.25649">
        <ele>88.8</ele>
        <time>2011-04-17T07:54:50Z</time>
      </trkpt>
      <trkpt lat="49.2409" lon="1.25818">
        <ele>88.2</ele>
        <time>2011-04-17T07:55:13Z</time>
      </trkpt>
      <trkpt lat="49.2414" lon="1.25928">
        <ele>89.2</ele>
        <time>2011-04-17T07:55:29Z</time>
      </trkpt>
      <trkpt lat="49.24168" lon="1.25996">
        <ele>90.6</ele>
        <time>2011-04-17T07:55:38Z</time>
      </trkpt>
      <trkpt lat="49.24206" lon="1.2608">
        <ele>89.3</ele>
        <time>2011-04-17T07:55:49Z</time>
      </trkpt>
      <trkpt lat="49.24259" lon="1.262">
        <ele>87.9</ele>
        <time>2011-04-17T07:56:05Z</time>
      </trkpt>
      <trkpt lat="49.24277" lon="1.26241">
        <ele>88.7</ele>
        <time>2011-04-17T07:56:11Z</time>
      </trkpt>
      <trkpt lat="49.24283" lon="1.26255">
        <ele>88.3</ele>
        <time>2011-04-17T07:56:13Z</time>
      </trkpt>
      <trkpt lat="49.243" lon="1.26278">
        <ele>87</ele>
        <time>2011-04-17T07:56:17Z</time>
      </trkpt>
      <trkpt lat="49.24336" lon="1.26325">
        <ele>86</ele>
        <time>2011-04-17T07:56:25Z</time>
      </trkpt>
      <trkpt lat="49.24385" lon="1.26393">
        <ele>83.3</ele>
        <time>2011-04-17T07:56:35Z</time>
      </trkpt>
      <trkpt lat="49.24419" lon="1.26443">
        <ele>82.9</ele>
        <time>2011-04-17T07:56:42Z</time>
      </trkpt>
      <trkpt lat="49.24482" lon="1.26529">
        <ele>80.4</ele>
        <time>2011-04-17T07:56:55Z</time>
      </trkpt>
      <trkpt lat="49.24532" lon="1.26578">
        <ele>77.1</ele>
        <time>2011-04-17T07:57:01Z</time>
      </trkpt>
      <trkpt lat="49.24602" lon="1.26539">
        <ele>74.8</ele>
        <time>2011-04-17T07:57:09Z</time>
      </trkpt>
      <trkpt lat="49.2472" lon="1.2646">
        <ele>67.3</ele>
        <time>2011-04-17T07:57:22Z</time>
      </trkpt>
      <trkpt lat="49.24767" lon="1.26509">
        <ele>62.7</ele>
        <time>2011-04-17T07:57:27Z</time>
      </trkpt>
      <trkpt lat="49.24831" lon="1.26588">
        <ele>62.4</ele>
        <time>2011-04-17T07:57:35Z</time>
      </trkpt>
      <trkpt lat="49.24872" lon="1.26625">
        <ele>64.9</ele>
        <time>2011-04-17T07:57:41Z</time>
      </trkpt>
      <trkpt lat="49.24935" lon="1.2667">
        <ele>62.9</ele>
        <time>2011-04-17T07:57:50Z</time>
      </trkpt>
      <trkpt lat="49.24964" lon="1.26692">
        <ele>62.2</ele>
        <time>2011-04-17T07:57:54Z</time>
      </trkpt>
      <trkpt lat="49.25016" lon="1.26719">
        <ele>60.6</ele>
        <time>2011-04-17T07:58:01Z</time>
      </trkpt>
      <trkpt lat="49.25069" lon="1.26717">
        <ele>59.5</ele>
        <time>2011-04-17T07:58:06Z</time>
      </trkpt>
      <trkpt lat="49.25128" lon="1.26757">
        <ele>58</ele>
        <time>2011-04-17T07:58:14Z</time>
      </trkpt>
      <trkpt lat="49.25186" lon="1.26795">
        <ele>55.5</ele>
        <time>2011-04-17T07:58:22Z</time>
      </trkpt>
      <trkpt lat="49.25273" lon="1.26849">
        <ele>56.1</ele>
        <time>2011-04-17T07:58:34Z</time>
      </trkpt>
      <trkpt lat="49.25296" lon="1.26877">
        <ele>54.8</ele>
        <time>2011-04-17T07:58:38Z</time>
      </trkpt>
      <trkpt lat="49.25387" lon="1.26958">
        <ele>55.7</ele>
        <time>2011-04-17T07:58:54Z</time>
      </trkpt>
      <trkpt lat="49.25392" lon="1.26962">
        <ele>55.8</ele>
        <time>2011-04-17T07:58:55Z</time>
      </trkpt>
      <trkpt lat="49.2546" lon="1.27013">
        <ele>58</ele>
        <time>2011-04-17T07:59:07Z</time>
      </trkpt>
      <trkpt lat="49.25517" lon="1.27034">
        <ele>57.9</ele>
        <time>2011-04-17T07:59:15Z</time>
      </trkpt>
      <trkpt lat="49.25571" lon="1.27038">
        <ele>56.7</ele>
        <time>2011-04-17T07:59:23Z</time>
      </trkpt>
      <trkpt lat="49.25598" lon="1.27037">
        <ele>56.5</ele>
        <time>2011-04-17T07:59:27Z</time>
      </trkpt>
      <trkpt lat="49.25617" lon="1.27042">
        <ele>56.5</ele>
        <time>2011-04-17T07:59:30Z</time>
      </trkpt>
      <trkpt lat="49.25628" lon="1.27044">
        <ele>57.1</ele>
        <time>2011-04-17T07:59:32Z</time>
      </trkpt>
      <trkpt lat="49.25681" lon="1.27054">
        <ele>56.9</ele>
        <time>2011-04-17T07:59:40Z</time>
      </trkpt>
      <trkpt lat="49.25745" lon="1.27049">
        <ele>56.7</ele>
        <time>2011-04-17T07:59:50Z</time>
      </trkpt>
      <trkpt lat="49.25814" lon="1.27042">
        <ele>57.2</ele>
        <time>2011-04-17T08:00:01Z</time>
      </trkpt>
      <trkpt lat="49.25866" lon="1.27041">
        <ele>58.2</ele>
        <time>2011-04-17T08:00:09Z</time>
      </trkpt>
      <trkpt lat="49.25895" lon="1.27045">
        <ele>57.7</ele>
        <time>2011-04-17T08:00:14Z</time>
      </trkpt>
      <trkpt lat="49.26075" lon="1.27002">
        <ele>62.3</ele>
        <time>2011-04-17T08:00:42Z</time>
      </trkpt>
      <trkpt lat="49.26185" lon="1.26977">
        <ele>57.4</ele>
        <time>2011-04-17T08:00:57Z</time>
      </trkpt>
      <trkpt lat="49.26207" lon="1.26978">
        <ele>56.9</ele>
        <time>2011-04-17T08:01:00Z</time>
      </trkpt>
      <trkpt lat="49.26302" lon="1.26987">
        <ele>59.4</ele>
        <time>2011-04-17T08:01:14Z</time>
      </trkpt>
      <trkpt lat="49.26368" lon="1.26989">
        <ele>60.8</ele>
        <time>2011-04-17T08:01:23Z</time>
      </trkpt>
      <trkpt lat="49.26457" lon="1.26974">
        <ele>60.3</ele>
        <time>2011-04-17T08:01:34Z</time>
      </trkpt>
      <trkpt lat="49.26546" lon="1.26977">
        <ele>59.3</ele>
        <time>2011-04-17T08:01:46Z</time>
      </trkpt>
      <trkpt lat="49.26577" lon="1.26977">
        <ele>59.9</ele>
        <time>2011-04-17T08:01:50Z</time>
      </trkpt>
      <trkpt lat="49.26606" lon="1.26978">
        <ele>59.1</ele>
        <time>2011-04-17T08:01:54Z</time>
      </trkpt>
      <trkpt lat="49.26666" lon="1.26983">
        <ele>59.2</ele>
        <time>2011-04-17T08:02:02Z</time>
      </trkpt>
      <trkpt lat="49.26753" lon="1.26997">
        <ele>59</ele>
        <time>2011-04-17T08:02:14Z</time>
      </trkpt>
      <trkpt lat="49.26813" lon="1.27011">
        <ele>59.2</ele>
        <time>2011-04-17T08:02:22Z</time>
      </trkpt>
      <trkpt lat="49.26891" lon="1.27034">
        <ele>57.6</ele>
        <time>2011-04-17T08:02:33Z</time>
      </trkpt>
      <trkpt lat="49.26926" lon="1.27041">
        <ele>58.5</ele>
        <time>2011-04-17T08:02:38Z</time>
      </trkpt>
      <trkpt lat="49.26983" lon="1.27059">
        <ele>57.6</ele>
        <time>2011-04-17T08:02:46Z</time>
      </trkpt>
      <trkpt lat="49.27038" lon="1.27073">
        <ele>57.2</ele>
        <time>2011-04-17T08:02:54Z</time>
      </trkpt>
      <trkpt lat="49.27112" lon="1.27096">
        <ele>57.4</ele>
        <time>2011-04-17T08:03:05Z</time>
      </trkpt>
      <trkpt lat="49.27245" lon="1.27107">
        <ele>57.7</ele>
        <time>2011-04-17T08:03:23Z</time>
      </trkpt>
      <trkpt lat="49.27275" lon="1.2711">
        <ele>57</ele>
        <time>2011-04-17T08:03:27Z</time>
      </trkpt>
      <trkpt lat="49.27319" lon="1.27115">
        <ele>56.6</ele>
        <time>2011-04-17T08:03:34Z</time>
      </trkpt>
      <trkpt lat="49.27407" lon="1.27125">
        <ele>56.5</ele>
        <time>2011-04-17T08:03:45Z</time>
      </trkpt>
      <trkpt lat="49.27474" lon="1.27134">
        <ele>56.6</ele>
        <time>2011-04-17T08:03:54Z</time>
      </trkpt>
      <trkpt lat="49.27532" lon="1.2714">
        <ele>56.6</ele>
        <time>2011-04-17T08:04:03Z</time>
      </trkpt>
      <trkpt lat="49.27592" lon="1.27129">
        <ele>56.5</ele>
        <time>2011-04-17T08:04:10Z</time>
      </trkpt>
      <trkpt lat="49.27622" lon="1.27121">
        <ele>56.3</ele>
        <time>2011-04-17T08:04:14Z</time>
      </trkpt>
      <trkpt lat="49.27652" lon="1.27113">
        <ele>55.9</ele>
        <time>2011-04-17T08:04:19Z</time>
      </trkpt>
      <trkpt lat="49.27703" lon="1.27107">
        <ele>55.2</ele>
        <time>2011-04-17T08:04:26Z</time>
      </trkpt>
      <trkpt lat="49.27776" lon="1.27112">
        <ele>56</ele>
        <time>2011-04-17T08:04:35Z</time>
      </trkpt>
      <trkpt lat="49.27954" lon="1.27101">
        <ele>56.8</ele>
        <time>2011-04-17T08:04:58Z</time>
      </trkpt>
      <trkpt lat="49.27976" lon="1.27099">
        <ele>57.1</ele>
        <time>2011-04-17T08:05:02Z</time>
      </trkpt>
      <trkpt lat="49.28004" lon="1.27095">
        <ele>57.4</ele>
        <time>2011-04-17T08:05:06Z</time>
      </trkpt>
      <trkpt lat="49.28068" lon="1.27089">
        <ele>57.6</ele>
        <time>2011-04-17T08:05:15Z</time>
      </trkpt>
      <trkpt lat="49.28083" lon="1.27087">
        <ele>57.5</ele>
        <time>2011-04-17T08:05:18Z</time>
      </trkpt>
      <trkpt lat="49.28119" lon="1.27081">
        <ele>57.8</ele>
        <time>2011-04-17T08:05:23Z</time>
      </trkpt>
      <trkpt lat="49.28175" lon="1.27066">
        <ele>58.7</ele>
        <time>2011-04-17T08:05:30Z</time>
      </trkpt>
      <trkpt lat="49.28204" lon="1.27058">
        <ele>58.1</ele>
        <time>2011-04-17T08:05:34Z</time>
      </trkpt>
      <trkpt lat="49.2826" lon="1.27043">
        <ele>59</ele>
        <time>2011-04-17T08:05:42Z</time>
      </trkpt>
      <trkpt lat="49.28289" lon="1.27037">
        <ele>59.3</ele>
        <time>2011-04-17T08:05:46Z</time>
      </trkpt>
      <trkpt lat="49.28317" lon="1.27033">
        <ele>59.1</ele>
        <time>2011-04-17T08:05:50Z</time>
      </trkpt>
      <trkpt lat="49.28345" lon="1.27031">
        <ele>58.6</ele>
        <time>2011-04-17T08:05:54Z</time>
      </trkpt>
      <trkpt lat="49.28386" lon="1.27028">
        <ele>58.3</ele>
        <time>2011-04-17T08:06:01Z</time>
      </trkpt>
      <trkpt lat="49.2848" lon="1.27027">
        <ele>58.5</ele>
        <time>2011-04-17T08:06:14Z</time>
      </trkpt>
      <trkpt lat="49.28507" lon="1.27027">
        <ele>58.7</ele>
        <time>2011-04-17T08:06:18Z</time>
      </trkpt>
      <trkpt lat="49.28575" lon="1.27022">
        <ele>59.1</ele>
        <time>2011-04-17T08:06:28Z</time>
      </trkpt>
      <trkpt lat="49.28601" lon="1.27012">
        <ele>60.7</ele>
        <time>2011-04-17T08:06:32Z</time>
      </trkpt>
      <trkpt lat="49.28694" lon="1.26934">
        <ele>61.4</ele>
        <time>2011-04-17T08:06:47Z</time>
      </trkpt>
      <trkpt lat="49.28747" lon="1.26895">
        <ele>59.2</ele>
        <time>2011-04-17T08:06:55Z</time>
      </trkpt>
      <trkpt lat="49.28794" lon="1.26871">
        <ele>58.6</ele>
        <time>2011-04-17T08:07:02Z</time>
      </trkpt>
      <trkpt lat="49.28845" lon="1.26853">
        <ele>56.4</ele>
        <time>2011-04-17T08:07:10Z</time>
      </trkpt>
      <trkpt lat="49.28871" lon="1.26848">
        <ele>56.9</ele>
        <time>2011-04-17T08:07:13Z</time>
      </trkpt>
      <trkpt lat="49.289" lon="1.26845">
        <ele>58.4</ele>
        <time>2011-04-17T08:07:18Z</time>
      </trkpt>
      <trkpt lat="49.2894" lon="1.26835">
        <ele>57.9</ele>
        <time>2011-04-17T08:07:23Z</time>
      </trkpt>
      <trkpt lat="49.28979" lon="1.26818">
        <ele>57.9</ele>
        <time>2011-04-17T08:07:30Z</time>
      </trkpt>
      <trkpt lat="49.29043" lon="1.26787">
        <ele>57.9</ele>
        <time>2011-04-17T08:07:38Z</time>
      </trkpt>
      <trkpt lat="49.2913" lon="1.26734">
        <ele>59.7</ele>
        <time>2011-04-17T08:07:51Z</time>
      </trkpt>
      <trkpt lat="49.29209" lon="1.26721">
        <ele>60.8</ele>
        <time>2011-04-17T08:08:02Z</time>
      </trkpt>
      <trkpt lat="49.2927" lon="1.26706">
        <ele>59.4</ele>
        <time>2011-04-17T08:08:10Z</time>
      </trkpt>
      <trkpt lat="49.29292" lon="1.26701">
        <ele>59.8</ele>
        <time>2011-04-17T08:08:14Z</time>
      </trkpt>
      <trkpt lat="49.29374" lon="1.26681">
        <ele>61.4</ele>
        <time>2011-04-17T08:08:25Z</time>
      </trkpt>
      <trkpt lat="49.29458" lon="1.26638">
        <ele>64</ele>
        <time>2011-04-17T08:08:38Z</time>
      </trkpt>
      <trkpt lat="49.29513" lon="1.26592">
        <ele>61.7</ele>
        <time>2011-04-17T08:08:46Z</time>
      </trkpt>
      <trkpt lat="49.29545" lon="1.26571">
        <ele>60.4</ele>
        <time>2011-04-17T08:08:50Z</time>
      </trkpt>
      <trkpt lat="49.2958" lon="1.26554">
        <ele>59</ele>
        <time>2011-04-17T08:08:55Z</time>
      </trkpt>
      <trkpt lat="49.29604" lon="1.26548">
        <ele>58.4</ele>
        <time>2011-04-17T08:08:58Z</time>
      </trkpt>
      <trkpt lat="49.29626" lon="1.26542">
        <ele>58.8</ele>
        <time>2011-04-17T08:09:01Z</time>
      </trkpt>
      <trkpt lat="49.29683" lon="1.26529">
        <ele>57.6</ele>
        <time>2011-04-17T08:09:10Z</time>
      </trkpt>
      <trkpt lat="49.29714" lon="1.26519">
        <ele>56.7</ele>
        <time>2011-04-17T08:09:14Z</time>
      </trkpt>
      <trkpt lat="49.2978" lon="1.26499">
        <ele>56.3</ele>
        <time>2011-04-17T08:09:23Z</time>
      </trkpt>
      <trkpt lat="49.29803" lon="1.26493">
        <ele>56.5</ele>
        <time>2011-04-17T08:09:26Z</time>
      </trkpt>
      <trkpt lat="49.29862" lon="1.26456">
        <ele>57.9</ele>
        <time>2011-04-17T08:09:35Z</time>
      </trkpt>
      <trkpt lat="49.29916" lon="1.26399">
        <ele>57.5</ele>
        <time>2011-04-17T08:09:45Z</time>
      </trkpt>
      <trkpt lat="49.29934" lon="1.26377">
        <ele>57.3</ele>
        <time>2011-04-17T08:09:49Z</time>
      </trkpt>
      <trkpt lat="49.29982" lon="1.26333">
        <ele>58.5</ele>
        <time>2011-04-17T08:09:59Z</time>
      </trkpt>
      <trkpt lat="49.30026" lon="1.26295">
        <ele>57.4</ele>
        <time>2011-04-17T08:10:07Z</time>
      </trkpt>
      <trkpt lat="49.30146" lon="1.26178">
        <ele>56.3</ele>
        <time>2011-04-17T08:10:25Z</time>
      </trkpt>
      <trkpt lat="49.30202" lon="1.26142">
        <ele>56.2</ele>
        <time>2011-04-17T08:10:34Z</time>
      </trkpt>
      <trkpt lat="49.30227" lon="1.26125">
        <ele>56.9</ele>
        <time>2011-04-17T08:10:38Z</time>
      </trkpt>
      <trkpt lat="49.30271" lon="1.26098">
        <ele>58.2</ele>
        <time>2011-04-17T08:10:46Z</time>
      </trkpt>
      <trkpt lat="49.30321" lon="1.26075">
        <ele>59.2</ele>
        <time>2011-04-17T08:10:53Z</time>
      </trkpt>
      <trkpt lat="49.30355" lon="1.2606">
        <ele>59.9</ele>
        <time>2011-04-17T08:10:58Z</time>
      </trkpt>
      <trkpt lat="49.30369" lon="1.26054">
        <ele>60.1</ele>
        <time>2011-04-17T08:11:00Z</time>
      </trkpt>
      <trkpt lat="49.30449" lon="1.25994">
        <ele>60.5</ele>
        <time>2011-04-17T08:11:13Z</time>
      </trkpt>
      <trkpt lat="49.30521" lon="1.25931">
        <ele>60.8</ele>
        <time>2011-04-17T08:11:26Z</time>
      </trkpt>
      <trkpt lat="49.3058" lon="1.25861">
        <ele>61</ele>
        <time>2011-04-17T08:11:42Z</time>
      </trkpt>
      <trkpt lat="49.30624" lon="1.25805">
        <ele>61.6</ele>
        <time>2011-04-17T08:11:50Z</time>
      </trkpt>
      <trkpt lat="49.30651" lon="1.25752">
        <ele>62.2</ele>
        <time>2011-04-17T08:11:56Z</time>
      </trkpt>
      <trkpt lat="49.307" lon="1.25685">
        <ele>63.1</ele>
        <time>2011-04-17T08:12:06Z</time>
      </trkpt>
      <trkpt lat="49.30723" lon="1.25655">
        <ele>62.7</ele>
        <time>2011-04-17T08:12:10Z</time>
      </trkpt>
      <trkpt lat="49.30744" lon="1.25624">
        <ele>62.3</ele>
        <time>2011-04-17T08:12:14Z</time>
      </trkpt>
      <trkpt lat="49.30766" lon="1.25595">
        <ele>61.5</ele>
        <time>2011-04-17T08:12:18Z</time>
      </trkpt>
      <trkpt lat="49.3081" lon="1.25529">
        <ele>61.5</ele>
        <time>2011-04-17T08:12:27Z</time>
      </trkpt>
      <trkpt lat="49.30871" lon="1.2544">
        <ele>61.1</ele>
        <time>2011-04-17T08:12:38Z</time>
      </trkpt>
      <trkpt lat="49.30919" lon="1.25361">
        <ele>60.6</ele>
        <time>2011-04-17T08:12:46Z</time>
      </trkpt>
      <trkpt lat="49.30965" lon="1.25289">
        <ele>58.7</ele>
        <time>2011-04-17T08:12:55Z</time>
      </trkpt>
      <trkpt lat="49.30983" lon="1.25264">
        <ele>58.8</ele>
        <time>2011-04-17T08:12:58Z</time>
      </trkpt>
      <trkpt lat="49.31002" lon="1.25232">
        <ele>59.7</ele>
        <time>2011-04-17T08:13:02Z</time>
      </trkpt>
      <trkpt lat="49.31084" lon="1.25089">
        <ele>60.1</ele>
        <time>2011-04-17T08:13:18Z</time>
      </trkpt>
      <trkpt lat="49.31103" lon="1.25045">
        <ele>59.9</ele>
        <time>2011-04-17T08:13:22Z</time>
      </trkpt>
      <trkpt lat="49.31109" lon="1.25022">
        <ele>59.9</ele>
        <time>2011-04-17T08:13:25Z</time>
      </trkpt>
      <trkpt lat="49.31122" lon="1.2495">
        <ele>58.3</ele>
        <time>2011-04-17T08:13:31Z</time>
      </trkpt>
      <trkpt lat="49.31176" lon="1.24787">
        <ele>55.5</ele>
        <time>2011-04-17T08:13:46Z</time>
      </trkpt>
      <trkpt lat="49.31188" lon="1.24758">
        <ele>56</ele>
        <time>2011-04-17T08:13:49Z</time>
      </trkpt>
      <trkpt lat="49.3135" lon="1.24449">
        <ele>58.7</ele>
        <time>2011-04-17T08:14:26Z</time>
      </trkpt>
      <trkpt lat="49.31415" lon="1.24356">
        <ele>58.1</ele>
        <time>2011-04-17T08:14:38Z</time>
      </trkpt>
      <trkpt lat="49.31459" lon="1.243">
        <ele>58.2</ele>
        <time>2011-04-17T08:14:46Z</time>
      </trkpt>
      <trkpt lat="49.31486" lon="1.24258">
        <ele>59.3</ele>
        <time>2011-04-17T08:14:51Z</time>
      </trkpt>
      <trkpt lat="49.31511" lon="1.24233">
        <ele>60.3</ele>
        <time>2011-04-17T08:14:55Z</time>
      </trkpt>
      <trkpt lat="49.31524" lon="1.24222">
        <ele>60</ele>
        <time>2011-04-17T08:14:57Z</time>
      </trkpt>
      <trkpt lat="49.31619" lon="1.24166">
        <ele>60.8</ele>
        <time>2011-04-17T08:15:10Z</time>
      </trkpt>
      <trkpt lat="49.31719" lon="1.24166">
        <ele>59.4</ele>
        <time>2011-04-17T08:15:22Z</time>
      </trkpt>
      <trkpt lat="49.31804" lon="1.24209">
        <ele>58.7</ele>
        <time>2011-04-17T08:15:33Z</time>
      </trkpt>
      <trkpt lat="49.31858" lon="1.24254">
        <ele>58.5</ele>
        <time>2011-04-17T08:15:42Z</time>
      </trkpt>
      <trkpt lat="49.31917" lon="1.24329">
        <ele>59</ele>
        <time>2011-04-17T08:15:51Z</time>
      </trkpt>
      <trkpt lat="49.31995" lon="1.24435">
        <ele>60.1</ele>
        <time>2011-04-17T08:16:06Z</time>
      </trkpt>
      <trkpt lat="49.32018" lon="1.24465">
        <ele>58.8</ele>
        <time>2011-04-17T08:16:10Z</time>
      </trkpt>
      <trkpt lat="49.32034" lon="1.24492">
        <ele>58.8</ele>
        <time>2011-04-17T08:16:12Z</time>
      </trkpt>
      <trkpt lat="49.32071" lon="1.24594">
        <ele>58.8</ele>
        <time>2011-04-17T08:16:22Z</time>
      </trkpt>
      <trkpt lat="49.32107" lon="1.24728">
        <ele>59</ele>
        <time>2011-04-17T08:16:34Z</time>
      </trkpt>
      <trkpt lat="49.32132" lon="1.24821">
        <ele>59.1</ele>
        <time>2011-04-17T08:16:43Z</time>
      </trkpt>
      <trkpt lat="49.32168" lon="1.24976">
        <ele>61.2</ele>
        <time>2011-04-17T08:16:57Z</time>
      </trkpt>
      <trkpt lat="49.32193" lon="1.2514">
        <ele>57.1</ele>
        <time>2011-04-17T08:17:11Z</time>
      </trkpt>
      <trkpt lat="49.32219" lon="1.25242">
        <ele>54.2</ele>
        <time>2011-04-17T08:17:21Z</time>
      </trkpt>
      <trkpt lat="49.32249" lon="1.25313">
        <ele>52.6</ele>
        <time>2011-04-17T08:17:30Z</time>
      </trkpt>
      <trkpt lat="49.32287" lon="1.25357">
        <ele>51.2</ele>
        <time>2011-04-17T08:17:44Z</time>
      </trkpt>
      <trkpt lat="49.32292" lon="1.25381">
        <ele>51.1</ele>
        <time>2011-04-17T08:17:47Z</time>
      </trkpt>
      <trkpt lat="49.32321" lon="1.25492">
        <ele>50.5</ele>
        <time>2011-04-17T08:17:59Z</time>
      </trkpt>
      <trkpt lat="49.32344" lon="1.25589">
        <ele>50.9</ele>
        <time>2011-04-17T08:18:09Z</time>
      </trkpt>
      <trkpt lat="49.32369" lon="1.25687">
        <ele>53</ele>
        <time>2011-04-17T08:18:19Z</time>
      </trkpt>
      <trkpt lat="49.32396" lon="1.25788">
        <ele>53.3</ele>
        <time>2011-04-17T08:18:30Z</time>
      </trkpt>
      <trkpt lat="49.32406" lon="1.25822">
        <ele>53.7</ele>
        <time>2011-04-17T08:18:34Z</time>
      </trkpt>
      <trkpt lat="49.32427" lon="1.25884">
        <ele>54.3</ele>
        <time>2011-04-17T08:18:42Z</time>
      </trkpt>
      <trkpt lat="49.32483" lon="1.2604">
        <ele>55.4</ele>
        <time>2011-04-17T08:18:58Z</time>
      </trkpt>
      <trkpt lat="49.32519" lon="1.26153">
        <ele>57.6</ele>
        <time>2011-04-17T08:19:10Z</time>
      </trkpt>
      <trkpt lat="49.32545" lon="1.26224">
        <ele>58</ele>
        <time>2011-04-17T08:19:18Z</time>
      </trkpt>
      <trkpt lat="49.32568" lon="1.26273">
        <ele>57.7</ele>
        <time>2011-04-17T08:19:22Z</time>
      </trkpt>
      <trkpt lat="49.32581" lon="1.26306">
        <ele>57.7</ele>
        <time>2011-04-17T08:19:25Z</time>
      </trkpt>
      <trkpt lat="49.326" lon="1.26354">
        <ele>58.1</ele>
        <time>2011-04-17T08:19:30Z</time>
      </trkpt>
      <trkpt lat="49.32628" lon="1.26428">
        <ele>58.9</ele>
        <time>2011-04-17T08:19:38Z</time>
      </trkpt>
      <trkpt lat="49.32647" lon="1.26497">
        <ele>58.7</ele>
        <time>2011-04-17T08:19:46Z</time>
      </trkpt>
      <trkpt lat="49.32676" lon="1.26593">
        <ele>58.2</ele>
        <time>2011-04-17T08:19:54Z</time>
      </trkpt>
      <trkpt lat="49.32714" lon="1.26709">
        <ele>59.2</ele>
        <time>2011-04-17T08:20:06Z</time>
      </trkpt>
      <trkpt lat="49.32723" lon="1.26741">
        <ele>58.4</ele>
        <time>2011-04-17T08:20:09Z</time>
      </trkpt>
      <trkpt lat="49.32733" lon="1.268">
        <ele>57.1</ele>
        <time>2011-04-17T08:20:14Z</time>
      </trkpt>
      <trkpt lat="49.32734" lon="1.26845">
        <ele>56.8</ele>
        <time>2011-04-17T08:20:18Z</time>
      </trkpt>
      <trkpt lat="49.32735" lon="1.26886">
        <ele>58.5</ele>
        <time>2011-04-17T08:20:22Z</time>
      </trkpt>
      <trkpt lat="49.32752" lon="1.2705">
        <ele>56.1</ele>
        <time>2011-04-17T08:20:38Z</time>
      </trkpt>
      <trkpt lat="49.32761" lon="1.27142">
        <ele>55.2</ele>
        <time>2011-04-17T08:20:50Z</time>
      </trkpt>
      <trkpt lat="49.3277" lon="1.27174">
        <ele>55.2</ele>
        <time>2011-04-17T08:20:54Z</time>
      </trkpt>
      <trkpt lat="49.32783" lon="1.27219">
        <ele>55.4</ele>
        <time>2011-04-17T08:20:58Z</time>
      </trkpt>
      <trkpt lat="49.32802" lon="1.27327">
        <ele>54.9</ele>
        <time>2011-04-17T08:21:10Z</time>
      </trkpt>
      <trkpt lat="49.32821" lon="1.27409">
        <ele>57.3</ele>
        <time>2011-04-17T08:21:18Z</time>
      </trkpt>
      <trkpt lat="49.32835" lon="1.27449">
        <ele>57.4</ele>
        <time>2011-04-17T08:21:22Z</time>
      </trkpt>
      <trkpt lat="49.32859" lon="1.27522">
        <ele>57.4</ele>
        <time>2011-04-17T08:21:30Z</time>
      </trkpt>
      <trkpt lat="49.32898" lon="1.27651">
        <ele>58.4</ele>
        <time>2011-04-17T08:21:42Z</time>
      </trkpt>
      <trkpt lat="49.32901" lon="1.27663">
        <ele>58.4</ele>
        <time>2011-04-17T08:21:43Z</time>
      </trkpt>
      <trkpt lat="49.32921" lon="1.27741">
        <ele>57.4</ele>
        <time>2011-04-17T08:21:50Z</time>
      </trkpt>
      <trkpt lat="49.32946" lon="1.27821">
        <ele>58.2</ele>
        <time>2011-04-17T08:21:58Z</time>
      </trkpt>
      <trkpt lat="49.32978" lon="1.27938">
        <ele>57.4</ele>
        <time>2011-04-17T08:22:11Z</time>
      </trkpt>
      <trkpt lat="49.33011" lon="1.27981">
        <ele>60.1</ele>
        <time>2011-04-17T08:22:19Z</time>
      </trkpt>
      <trkpt lat="49.33065" lon="1.28034">
        <ele>64.5</ele>
        <time>2011-04-17T08:22:36Z</time>
      </trkpt>
      <trkpt lat="49.33087" lon="1.28054">
        <ele>62.7</ele>
        <time>2011-04-17T08:22:42Z</time>
      </trkpt>
      <trkpt lat="49.33117" lon="1.28025">
        <ele>63.3</ele>
        <time>2011-04-17T08:22:50Z</time>
      </trkpt>
      <trkpt lat="49.33176" lon="1.27966">
        <ele>59.9</ele>
        <time>2011-04-17T08:23:02Z</time>
      </trkpt>
      <trkpt lat="49.33216" lon="1.27919">
        <ele>61.2</ele>
        <time>2011-04-17T08:23:12Z</time>
      </trkpt>
      <trkpt lat="49.33271" lon="1.27803">
        <ele>58.2</ele>
        <time>2011-04-17T08:23:27Z</time>
      </trkpt>
      <trkpt lat="49.33279" lon="1.27775">
        <ele>58.6</ele>
        <time>2011-04-17T08:23:30Z</time>
      </trkpt>
      <trkpt lat="49.33306" lon="1.27703">
        <ele>59.3</ele>
        <time>2011-04-17T08:23:39Z</time>
      </trkpt>
      <trkpt lat="49.33329" lon="1.27626">
        <ele>59.3</ele>
        <time>2011-04-17T08:23:47Z</time>
      </trkpt>
      <trkpt lat="49.33365" lon="1.2752">
        <ele>58.6</ele>
        <time>2011-04-17T08:23:58Z</time>
      </trkpt>
      <trkpt lat="49.33392" lon="1.27445">
        <ele>58.3</ele>
        <time>2011-04-17T08:24:06Z</time>
      </trkpt>
      <trkpt lat="49.33419" lon="1.27375">
        <ele>58.2</ele>
        <time>2011-04-17T08:24:13Z</time>
      </trkpt>
      <trkpt lat="49.33437" lon="1.27329">
        <ele>57.1</ele>
        <time>2011-04-17T08:24:18Z</time>
      </trkpt>
      <trkpt lat="49.33445" lon="1.27307">
        <ele>56.1</ele>
        <time>2011-04-17T08:24:20Z</time>
      </trkpt>
      <trkpt lat="49.33485" lon="1.27196">
        <ele>54.3</ele>
        <time>2011-04-17T08:24:31Z</time>
      </trkpt>
      <trkpt lat="49.33523" lon="1.27095">
        <ele>55</ele>
        <time>2011-04-17T08:24:42Z</time>
      </trkpt>
      <trkpt lat="49.33537" lon="1.27062">
        <ele>55.6</ele>
        <time>2011-04-17T08:24:46Z</time>
      </trkpt>
      <trkpt lat="49.33543" lon="1.27045">
        <ele>55.8</ele>
        <time>2011-04-17T08:24:49Z</time>
      </trkpt>
      <trkpt lat="49.33577" lon="1.26954">
        <ele>54.7</ele>
        <time>2011-04-17T08:24:59Z</time>
      </trkpt>
      <trkpt lat="49.33589" lon="1.26926">
        <ele>53.7</ele>
        <time>2011-04-17T08:25:01Z</time>
      </trkpt>
      <trkpt lat="49.33607" lon="1.26875">
        <ele>54.3</ele>
        <time>2011-04-17T08:25:06Z</time>
      </trkpt>
      <trkpt lat="49.33623" lon="1.26829">
        <ele>55.4</ele>
        <time>2011-04-17T08:25:11Z</time>
      </trkpt>
      <trkpt lat="49.33627" lon="1.26808">
        <ele>55.3</ele>
        <time>2011-04-17T08:25:13Z</time>
      </trkpt>
      <trkpt lat="49.33647" lon="1.2672">
        <ele>56.1</ele>
        <time>2011-04-17T08:25:22Z</time>
      </trkpt>
      <trkpt lat="49.33662" lon="1.26553">
        <ele>54.6</ele>
        <time>2011-04-17T08:25:40Z</time>
      </trkpt>
      <trkpt lat="49.3368" lon="1.26449">
        <ele>56.1</ele>
        <time>2011-04-17T08:25:52Z</time>
      </trkpt>
      <trkpt lat="49.33686" lon="1.26409">
        <ele>55.5</ele>
        <time>2011-04-17T08:25:56Z</time>
      </trkpt>
      <trkpt lat="49.33688" lon="1.2635">
        <ele>56.7</ele>
        <time>2011-04-17T08:26:02Z</time>
      </trkpt>
      <trkpt lat="49.33681" lon="1.26283">
        <ele>57.8</ele>
        <time>2011-04-17T08:26:09Z</time>
      </trkpt>
      <trkpt lat="49.33663" lon="1.2619">
        <ele>58.4</ele>
        <time>2011-04-17T08:26:19Z</time>
      </trkpt>
      <trkpt lat="49.33642" lon="1.26115">
        <ele>58.5</ele>
        <time>2011-04-17T08:26:26Z</time>
      </trkpt>
      <trkpt lat="49.33618" lon="1.26036">
        <ele>58.7</ele>
        <time>2011-04-17T08:26:34Z</time>
      </trkpt>
      <trkpt lat="49.33565" lon="1.25998">
        <ele>56.6</ele>
        <time>2011-04-17T08:26:43Z</time>
      </trkpt>
      <trkpt lat="49.33518" lon="1.26002">
        <ele>57.9</ele>
        <time>2011-04-17T08:26:50Z</time>
      </trkpt>
      <trkpt lat="49.33495" lon="1.25965">
        <ele>55.3</ele>
        <time>2011-04-17T08:26:55Z</time>
      </trkpt>
      <trkpt lat="49.33466" lon="1.25691">
        <ele>53.2</ele>
        <time>2011-04-17T08:27:19Z</time>
      </trkpt>
      <trkpt lat="49.33449" lon="1.25559">
        <ele>52.8</ele>
        <time>2011-04-17T08:27:31Z</time>
      </trkpt>
      <trkpt lat="49.3343" lon="1.2548">
        <ele>53.1</ele>
        <time>2011-04-17T08:27:38Z</time>
      </trkpt>
      <trkpt lat="49.33419" lon="1.25441">
        <ele>53</ele>
        <time>2011-04-17T08:27:42Z</time>
      </trkpt>
      <trkpt lat="49.33408" lon="1.25415">
        <ele>52.9</ele>
        <time>2011-04-17T08:27:45Z</time>
      </trkpt>
      <trkpt lat="49.33378" lon="1.25333">
        <ele>51.6</ele>
        <time>2011-04-17T08:27:54Z</time>
      </trkpt>
      <trkpt lat="49.33348" lon="1.25253">
        <ele>51.5</ele>
        <time>2011-04-17T08:28:03Z</time>
      </trkpt>
      <trkpt lat="49.3331" lon="1.25152">
        <ele>52.7</ele>
        <time>2011-04-17T08:28:15Z</time>
      </trkpt>
      <trkpt lat="49.33283" lon="1.25078">
        <ele>53</ele>
        <time>2011-04-17T08:28:22Z</time>
      </trkpt>
      <trkpt lat="49.33257" lon="1.25006">
        <ele>52.9</ele>
        <time>2011-04-17T08:28:30Z</time>
      </trkpt>
      <trkpt lat="49.33243" lon="1.24971">
        <ele>52.9</ele>
        <time>2011-04-17T08:28:34Z</time>
      </trkpt>
      <trkpt lat="49.33214" lon="1.24901">
        <ele>53.1</ele>
        <time>2011-04-17T08:28:43Z</time>
      </trkpt>
      <trkpt lat="49.33168" lon="1.24793">
        <ele>52.5</ele>
        <time>2011-04-17T08:28:54Z</time>
      </trkpt>
      <trkpt lat="49.33143" lon="1.24744">
        <ele>53</ele>
        <time>2011-04-17T08:29:00Z</time>
      </trkpt>
      <trkpt lat="49.33087" lon="1.24595">
        <ele>53.5</ele>
        <time>2011-04-17T08:29:17Z</time>
      </trkpt>
      <trkpt lat="49.33082" lon="1.24557">
        <ele>55.3</ele>
        <time>2011-04-17T08:29:21Z</time>
      </trkpt>
      <trkpt lat="49.3307" lon="1.24487">
        <ele>55.3</ele>
        <time>2011-04-17T08:29:29Z</time>
      </trkpt>
      <trkpt lat="49.33055" lon="1.24392">
        <ele>56.8</ele>
        <time>2011-04-17T08:29:38Z</time>
      </trkpt>
      <trkpt lat="49.33041" lon="1.24301">
        <ele>58.1</ele>
        <time>2011-04-17T08:29:46Z</time>
      </trkpt>
      <trkpt lat="49.33023" lon="1.24199">
        <ele>59.4</ele>
        <time>2011-04-17T08:29:58Z</time>
      </trkpt>
      <trkpt lat="49.33011" lon="1.24115">
        <ele>60.1</ele>
        <time>2011-04-17T08:30:06Z</time>
      </trkpt>
      <trkpt lat="49.33007" lon="1.24076">
        <ele>60.7</ele>
        <time>2011-04-17T08:30:10Z</time>
      </trkpt>
      <trkpt lat="49.32998" lon="1.24029">
        <ele>60.9</ele>
        <time>2011-04-17T08:30:15Z</time>
      </trkpt>
      <trkpt lat="49.32987" lon="1.23943">
        <ele>63.6</ele>
        <time>2011-04-17T08:30:23Z</time>
      </trkpt>
      <trkpt lat="49.32973" lon="1.23852">
        <ele>64.6</ele>
        <time>2011-04-17T08:30:31Z</time>
      </trkpt>
      <trkpt lat="49.32962" lon="1.23785">
        <ele>64.8</ele>
        <time>2011-04-17T08:30:37Z</time>
      </trkpt>
      <trkpt lat="49.32948" lon="1.2367">
        <ele>64.7</ele>
        <time>2011-04-17T08:30:47Z</time>
      </trkpt>
      <trkpt lat="49.32933" lon="1.23586">
        <ele>65.9</ele>
        <time>2011-04-17T08:30:54Z</time>
      </trkpt>
      <trkpt lat="49.32926" lon="1.23537">
        <ele>65.4</ele>
        <time>2011-04-17T08:30:58Z</time>
      </trkpt>
      <trkpt lat="49.32917" lon="1.23489">
        <ele>64</ele>
        <time>2011-04-17T08:31:02Z</time>
      </trkpt>
      <trkpt lat="49.32903" lon="1.2339">
        <ele>62.7</ele>
        <time>2011-04-17T08:31:10Z</time>
      </trkpt>
      <trkpt lat="49.32897" lon="1.23355">
        <ele>61.8</ele>
        <time>2011-04-17T08:31:13Z</time>
      </trkpt>
      <trkpt lat="49.32883" lon="1.23259">
        <ele>62.1</ele>
        <time>2011-04-17T08:31:21Z</time>
      </trkpt>
      <trkpt lat="49.32866" lon="1.2315">
        <ele>61.3</ele>
        <time>2011-04-17T08:31:31Z</time>
      </trkpt>
      <trkpt lat="49.32843" lon="1.23025">
        <ele>60.8</ele>
        <time>2011-04-17T08:31:43Z</time>
      </trkpt>
      <trkpt lat="49.32834" lon="1.22956">
        <ele>61</ele>
        <time>2011-04-17T08:31:50Z</time>
      </trkpt>
      <trkpt lat="49.32826" lon="1.22915">
        <ele>61</ele>
        <time>2011-04-17T08:31:54Z</time>
      </trkpt>
      <trkpt lat="49.32803" lon="1.22752">
        <ele>63.3</ele>
        <time>2011-04-17T08:32:10Z</time>
      </trkpt>
      <trkpt lat="49.32792" lon="1.22681">
        <ele>63.2</ele>
        <time>2011-04-17T08:32:17Z</time>
      </trkpt>
      <trkpt lat="49.32777" lon="1.22589">
        <ele>64.6</ele>
        <time>2011-04-17T08:32:26Z</time>
      </trkpt>
      <trkpt lat="49.32763" lon="1.22474">
        <ele>65.7</ele>
        <time>2011-04-17T08:32:37Z</time>
      </trkpt>
      <trkpt lat="49.32757" lon="1.22426">
        <ele>66.5</ele>
        <time>2011-04-17T08:32:42Z</time>
      </trkpt>
      <trkpt lat="49.32735" lon="1.22292">
        <ele>70.1</ele>
        <time>2011-04-17T08:32:58Z</time>
      </trkpt>
      <trkpt lat="49.32708" lon="1.22136">
        <ele>70.7</ele>
        <time>2011-04-17T08:33:14Z</time>
      </trkpt>
      <trkpt lat="49.32698" lon="1.22064">
        <ele>70.5</ele>
        <time>2011-04-17T08:33:22Z</time>
      </trkpt>
      <trkpt lat="49.32694" lon="1.22036">
        <ele>70.9</ele>
        <time>2011-04-17T08:33:25Z</time>
      </trkpt>
      <trkpt lat="49.32688" lon="1.21998">
        <ele>71</ele>
        <time>2011-04-17T08:33:29Z</time>
      </trkpt>
      <trkpt lat="49.32685" lon="1.21976">
        <ele>71.1</ele>
        <time>2011-04-17T08:33:31Z</time>
      </trkpt>
      <trkpt lat="49.32674" lon="1.21919">
        <ele>70.3</ele>
        <time>2011-04-17T08:33:38Z</time>
      </trkpt>
      <trkpt lat="49.32672" lon="1.21793">
        <ele>74.1</ele>
        <time>2011-04-17T08:33:50Z</time>
      </trkpt>
      <trkpt lat="49.32652" lon="1.21735">
        <ele>75.7</ele>
        <time>2011-04-17T08:33:57Z</time>
      </trkpt>
      <trkpt lat="49.32633" lon="1.21623">
        <ele>76.4</ele>
        <time>2011-04-17T08:34:07Z</time>
      </trkpt>
      <trkpt lat="49.3262" lon="1.21538">
        <ele>76.7</ele>
        <time>2011-04-17T08:34:15Z</time>
      </trkpt>
      <trkpt lat="49.32613" lon="1.21497">
        <ele>77.3</ele>
        <time>2011-04-17T08:34:19Z</time>
      </trkpt>
      <trkpt lat="49.32609" lon="1.21465">
        <ele>77.3</ele>
        <time>2011-04-17T08:34:22Z</time>
      </trkpt>
      <trkpt lat="49.32602" lon="1.2141">
        <ele>77.3</ele>
        <time>2011-04-17T08:34:27Z</time>
      </trkpt>
      <trkpt lat="49.32588" lon="1.21334">
        <ele>77.3</ele>
        <time>2011-04-17T08:34:34Z</time>
      </trkpt>
      <trkpt lat="49.32568" lon="1.21201">
        <ele>76.5</ele>
        <time>2011-04-17T08:34:46Z</time>
      </trkpt>
      <trkpt lat="49.32554" lon="1.21114">
        <ele>76.9</ele>
        <time>2011-04-17T08:34:54Z</time>
      </trkpt>
      <trkpt lat="49.3254" lon="1.21024">
        <ele>76.7</ele>
        <time>2011-04-17T08:35:03Z</time>
      </trkpt>
      <trkpt lat="49.32528" lon="1.20935">
        <ele>76.6</ele>
        <time>2011-04-17T08:35:10Z</time>
      </trkpt>
      <trkpt lat="49.3252" lon="1.20879">
        <ele>75.9</ele>
        <time>2011-04-17T08:35:15Z</time>
      </trkpt>
      <trkpt lat="49.32507" lon="1.20797">
        <ele>75.6</ele>
        <time>2011-04-17T08:35:22Z</time>
      </trkpt>
      <trkpt lat="49.32488" lon="1.20658">
        <ele>75</ele>
        <time>2011-04-17T08:35:34Z</time>
      </trkpt>
      <trkpt lat="49.32479" lon="1.20609">
        <ele>74.5</ele>
        <time>2011-04-17T08:35:38Z</time>
      </trkpt>
      <trkpt lat="49.32435" lon="1.20345">
        <ele>72.5</ele>
        <time>2011-04-17T08:36:01Z</time>
      </trkpt>
      <trkpt lat="49.32422" lon="1.20231">
        <ele>72.4</ele>
        <time>2011-04-17T08:36:10Z</time>
      </trkpt>
      <trkpt lat="49.32402" lon="1.201">
        <ele>71.7</ele>
        <time>2011-04-17T08:36:23Z</time>
      </trkpt>
      <trkpt lat="49.32385" lon="1.19993">
        <ele>70.5</ele>
        <time>2011-04-17T08:36:30Z</time>
      </trkpt>
      <trkpt lat="49.32336" lon="1.19794">
        <ele>69.2</ele>
        <time>2011-04-17T08:36:47Z</time>
      </trkpt>
      <trkpt lat="49.32322" lon="1.19751">
        <ele>69.5</ele>
        <time>2011-04-17T08:36:51Z</time>
      </trkpt>
      <trkpt lat="49.32305" lon="1.19707">
        <ele>70.3</ele>
        <time>2011-04-17T08:36:55Z</time>
      </trkpt>
      <trkpt lat="49.32282" lon="1.19643">
        <ele>70.3</ele>
        <time>2011-04-17T08:37:01Z</time>
      </trkpt>
      <trkpt lat="49.32219" lon="1.19492">
        <ele>70.6</ele>
        <time>2011-04-17T08:37:15Z</time>
      </trkpt>
      <trkpt lat="49.32182" lon="1.19388">
        <ele>69.5</ele>
        <time>2011-04-17T08:37:23Z</time>
      </trkpt>
      <trkpt lat="49.32137" lon="1.19236">
        <ele>68.9</ele>
        <time>2011-04-17T08:37:34Z</time>
      </trkpt>
      <trkpt lat="49.3213" lon="1.19194">
        <ele>67.8</ele>
        <time>2011-04-17T08:37:38Z</time>
      </trkpt>
      <trkpt lat="49.32121" lon="1.19141">
        <ele>68.4</ele>
        <time>2011-04-17T08:37:41Z</time>
      </trkpt>
      <trkpt lat="49.32104" lon="1.19054">
        <ele>65.5</ele>
        <time>2011-04-17T08:37:47Z</time>
      </trkpt>
      <trkpt lat="49.32087" lon="1.18938">
        <ele>62.1</ele>
        <time>2011-04-17T08:37:55Z</time>
      </trkpt>
      <trkpt lat="49.32082" lon="1.18895">
        <ele>61.8</ele>
        <time>2011-04-17T08:37:59Z</time>
      </trkpt>
      <trkpt lat="49.32055" lon="1.18715">
        <ele>57.6</ele>
        <time>2011-04-17T08:38:13Z</time>
      </trkpt>
      <trkpt lat="49.32038" lon="1.1859">
        <ele>58.6</ele>
        <time>2011-04-17T08:38:22Z</time>
      </trkpt>
      <trkpt lat="49.32013" lon="1.18476">
        <ele>58.6</ele>
        <time>2011-04-17T08:38:30Z</time>
      </trkpt>
      <trkpt lat="49.31998" lon="1.18422">
        <ele>59.1</ele>
        <time>2011-04-17T08:38:34Z</time>
      </trkpt>
      <trkpt lat="49.31981" lon="1.18368">
        <ele>59.8</ele>
        <time>2011-04-17T08:38:38Z</time>
      </trkpt>
      <trkpt lat="49.31962" lon="1.18309">
        <ele>59.5</ele>
        <time>2011-04-17T08:38:43Z</time>
      </trkpt>
      <trkpt lat="49.31913" lon="1.18196">
        <ele>59.7</ele>
        <time>2011-04-17T08:38:54Z</time>
      </trkpt>
      <trkpt lat="49.31814" lon="1.18012">
        <ele>61.3</ele>
        <time>2011-04-17T08:39:14Z</time>
      </trkpt>
      <trkpt lat="49.31775" lon="1.17936">
        <ele>61.7</ele>
        <time>2011-04-17T08:39:22Z</time>
      </trkpt>
      <trkpt lat="49.31735" lon="1.17866">
        <ele>61.3</ele>
        <time>2011-04-17T08:39:30Z</time>
      </trkpt>
      <trkpt lat="49.31698" lon="1.17785">
        <ele>61.4</ele>
        <time>2011-04-17T08:39:38Z</time>
      </trkpt>
      <trkpt lat="49.31682" lon="1.17743">
        <ele>60.9</ele>
        <time>2011-04-17T08:39:42Z</time>
      </trkpt>
      <trkpt lat="49.31653" lon="1.17664">
        <ele>58.1</ele>
        <time>2011-04-17T08:39:50Z</time>
      </trkpt>
      <trkpt lat="49.31604" lon="1.17529">
        <ele>58.4</ele>
        <time>2011-04-17T08:40:02Z</time>
      </trkpt>
      <trkpt lat="49.31593" lon="1.17497">
        <ele>58.3</ele>
        <time>2011-04-17T08:40:06Z</time>
      </trkpt>
      <trkpt lat="49.31583" lon="1.17479">
        <ele>58.6</ele>
        <time>2011-04-17T08:40:09Z</time>
      </trkpt>
      <trkpt lat="49.31572" lon="1.17457">
        <ele>58.7</ele>
        <time>2011-04-17T08:40:13Z</time>
      </trkpt>
      <trkpt lat="49.31558" lon="1.17423">
        <ele>57.1</ele>
        <time>2011-04-17T08:40:19Z</time>
      </trkpt>
      <trkpt lat="49.31539" lon="1.17371">
        <ele>53.2</ele>
        <time>2011-04-17T08:40:30Z</time>
      </trkpt>
      <trkpt lat="49.31475" lon="1.17185">
        <ele>52.1</ele>
        <time>2011-04-17T08:40:58Z</time>
      </trkpt>
      <trkpt lat="49.31464" lon="1.17125">
        <ele>50.9</ele>
        <time>2011-04-17T08:41:03Z</time>
      </trkpt>
      <trkpt lat="49.31458" lon="1.17042">
        <ele>51.1</ele>
        <time>2011-04-17T08:41:10Z</time>
      </trkpt>
      <trkpt lat="49.31457" lon="1.16952">
        <ele>50.9</ele>
        <time>2011-04-17T08:41:18Z</time>
      </trkpt>
      <trkpt lat="49.31463" lon="1.16732">
        <ele>51</ele>
        <time>2011-04-17T08:41:37Z</time>
      </trkpt>
      <trkpt lat="49.31482" lon="1.16689">
        <ele>50.8</ele>
        <time>2011-04-17T08:41:44Z</time>
      </trkpt>
      <trkpt lat="49.31487" lon="1.16684">
        <ele>51.4</ele>
        <time>2011-04-17T08:41:50Z</time>
      </trkpt>
      <trkpt lat="49.3148" lon="1.16688">
        <ele>51.1</ele>
        <time>2011-04-17T08:42:35Z</time>
      </trkpt>
      <trkpt lat="49.31466" lon="1.16682">
        <ele>51.8</ele>
        <time>2011-04-17T08:42:41Z</time>
      </trkpt>
      <trkpt lat="49.31466" lon="1.1665">
        <ele>53.9</ele>
        <time>2011-04-17T08:43:17Z</time>
      </trkpt>
      <trkpt lat="49.31474" lon="1.16514">
        <ele>52</ele>
        <time>2011-04-17T08:43:30Z</time>
      </trkpt>
      <trkpt lat="49.31475" lon="1.16476">
        <ele>52.4</ele>
        <time>2011-04-17T08:43:34Z</time>
      </trkpt>
      <trkpt lat="49.31488" lon="1.16339">
        <ele>52.2</ele>
        <time>2011-04-17T08:43:46Z</time>
      </trkpt>
      <trkpt lat="49.31497" lon="1.1624">
        <ele>52.2</ele>
        <time>2011-04-17T08:43:55Z</time>
      </trkpt>
      <trkpt lat="49.31505" lon="1.16142">
        <ele>51.9</ele>
        <time>2011-04-17T08:44:03Z</time>
      </trkpt>
      <trkpt lat="49.31511" lon="1.16065">
        <ele>51.5</ele>
        <time>2011-04-17T08:44:11Z</time>
      </trkpt>
      <trkpt lat="49.31514" lon="1.16031">
        <ele>51.4</ele>
        <time>2011-04-17T08:44:14Z</time>
      </trkpt>
      <trkpt lat="49.3152" lon="1.15979">
        <ele>53.5</ele>
        <time>2011-04-17T08:44:25Z</time>
      </trkpt>
      <trkpt lat="49.31525" lon="1.15952">
        <ele>54.5</ele>
        <time>2011-04-17T08:44:30Z</time>
      </trkpt>
      <trkpt lat="49.3156" lon="1.15878">
        <ele>56.7</ele>
        <time>2011-04-17T08:44:41Z</time>
      </trkpt>
      <trkpt lat="49.3138" lon="1.15828">
        <ele>55.5</ele>
        <time>2011-04-17T08:45:02Z</time>
      </trkpt>
      <trkpt lat="49.31306" lon="1.15816">
        <ele>54.7</ele>
        <time>2011-04-17T08:45:10Z</time>
      </trkpt>
      <trkpt lat="49.31273" lon="1.15808">
        <ele>54.4</ele>
        <time>2011-04-17T08:45:14Z</time>
      </trkpt>
      <trkpt lat="49.31123" lon="1.15782">
        <ele>56.3</ele>
        <time>2011-04-17T08:45:38Z</time>
      </trkpt>
      <trkpt lat="49.31097" lon="1.15784">
        <ele>56.4</ele>
        <time>2011-04-17T08:45:42Z</time>
      </trkpt>
      <trkpt lat="49.31083" lon="1.15784">
        <ele>56.1</ele>
        <time>2011-04-17T08:45:44Z</time>
      </trkpt>
      <trkpt lat="49.30987" lon="1.15799">
        <ele>55.2</ele>
        <time>2011-04-17T08:45:58Z</time>
      </trkpt>
      <trkpt lat="49.30961" lon="1.15806">
        <ele>55</ele>
        <time>2011-04-17T08:46:02Z</time>
      </trkpt>
      <trkpt lat="49.30939" lon="1.1581">
        <ele>56.4</ele>
        <time>2011-04-17T08:46:06Z</time>
      </trkpt>
      <trkpt lat="49.30891" lon="1.15819">
        <ele>58.4</ele>
        <time>2011-04-17T08:46:15Z</time>
      </trkpt>
      <trkpt lat="49.30846" lon="1.15826">
        <ele>61.6</ele>
        <time>2011-04-17T08:46:22Z</time>
      </trkpt>
      <trkpt lat="49.30798" lon="1.15837">
        <ele>62</ele>
        <time>2011-04-17T08:46:30Z</time>
      </trkpt>
      <trkpt lat="49.30747" lon="1.15849">
        <ele>64.2</ele>
        <time>2011-04-17T08:46:38Z</time>
      </trkpt>
      <trkpt lat="49.30722" lon="1.15853">
        <ele>64.4</ele>
        <time>2011-04-17T08:46:42Z</time>
      </trkpt>
      <trkpt lat="49.30651" lon="1.15866">
        <ele>64.6</ele>
        <time>2011-04-17T08:46:53Z</time>
      </trkpt>
      <trkpt lat="49.30617" lon="1.15873">
        <ele>65.2</ele>
        <time>2011-04-17T08:46:59Z</time>
      </trkpt>
      <trkpt lat="49.30545" lon="1.15887">
        <ele>64.1</ele>
        <time>2011-04-17T08:47:13Z</time>
      </trkpt>
      <trkpt lat="49.3051" lon="1.15894">
        <ele>63</ele>
        <time>2011-04-17T08:47:22Z</time>
      </trkpt>
      <trkpt lat="49.30485" lon="1.15899">
        <ele>63.4</ele>
        <time>2011-04-17T08:47:28Z</time>
      </trkpt>
      <trkpt lat="49.30461" lon="1.15892">
        <ele>64.3</ele>
        <time>2011-04-17T08:47:37Z</time>
      </trkpt>
      <trkpt lat="49.30445" lon="1.15876">
        <ele>64.3</ele>
        <time>2011-04-17T08:47:40Z</time>
      </trkpt>
      <trkpt lat="49.30423" lon="1.15854">
        <ele>64.5</ele>
        <time>2011-04-17T08:47:44Z</time>
      </trkpt>
      <trkpt lat="49.30387" lon="1.15815">
        <ele>66.3</ele>
        <time>2011-04-17T08:47:54Z</time>
      </trkpt>
      <trkpt lat="49.30369" lon="1.15774">
        <ele>67.7</ele>
        <time>2011-04-17T08:48:02Z</time>
      </trkpt>
      <trkpt lat="49.30363" lon="1.15726">
        <ele>66.4</ele>
        <time>2011-04-17T08:48:10Z</time>
      </trkpt>
      <trkpt lat="49.30354" lon="1.1566">
        <ele>68</ele>
        <time>2011-04-17T08:48:23Z</time>
      </trkpt>
      <trkpt lat="49.30352" lon="1.15588">
        <ele>68.2</ele>
        <time>2011-04-17T08:48:33Z</time>
      </trkpt>
      <trkpt lat="49.30352" lon="1.15579">
        <ele>67.6</ele>
        <time>2011-04-17T08:48:35Z</time>
      </trkpt>
      <trkpt lat="49.30353" lon="1.15531">
        <ele>65.8</ele>
        <time>2011-04-17T08:48:44Z</time>
      </trkpt>
      <trkpt lat="49.3035" lon="1.15519">
        <ele>65</ele>
        <time>2011-04-17T08:48:48Z</time>
      </trkpt>
      <trkpt lat="49.30285" lon="1.15447">
        <ele>66.7</ele>
        <time>2011-04-17T08:49:11Z</time>
      </trkpt>
      <trkpt lat="49.30244" lon="1.15417">
        <ele>67.7</ele>
        <time>2011-04-17T08:49:18Z</time>
      </trkpt>
      <trkpt lat="49.30217" lon="1.15397">
        <ele>68.4</ele>
        <time>2011-04-17T08:49:23Z</time>
      </trkpt>
      <trkpt lat="49.30212" lon="1.15392">
        <ele>67.9</ele>
        <time>2011-04-17T08:49:24Z</time>
      </trkpt>
      <trkpt lat="49.30181" lon="1.15368">
        <ele>69.3</ele>
        <time>2011-04-17T08:49:30Z</time>
      </trkpt>
      <trkpt lat="49.30074" lon="1.15303">
        <ele>71.3</ele>
        <time>2011-04-17T08:49:50Z</time>
      </trkpt>
      <trkpt lat="49.30053" lon="1.15292">
        <ele>71.5</ele>
        <time>2011-04-17T08:49:54Z</time>
      </trkpt>
      <trkpt lat="49.30034" lon="1.15281">
        <ele>72.6</ele>
        <time>2011-04-17T08:49:58Z</time>
      </trkpt>
      <trkpt lat="49.29989" lon="1.1526">
        <ele>77.5</ele>
        <time>2011-04-17T08:50:09Z</time>
      </trkpt>
      <trkpt lat="49.29971" lon="1.15249">
        <ele>77.7</ele>
        <time>2011-04-17T08:50:13Z</time>
      </trkpt>
      <trkpt lat="49.29918" lon="1.15228">
        <ele>80.8</ele>
        <time>2011-04-17T08:50:25Z</time>
      </trkpt>
      <trkpt lat="49.29862" lon="1.15201">
        <ele>82.7</ele>
        <time>2011-04-17T08:50:39Z</time>
      </trkpt>
      <trkpt lat="49.29819" lon="1.15181">
        <ele>87.1</ele>
        <time>2011-04-17T08:50:49Z</time>
      </trkpt>
      <trkpt lat="49.29795" lon="1.15167">
        <ele>89.4</ele>
        <time>2011-04-17T08:50:55Z</time>
      </trkpt>
      <trkpt lat="49.29759" lon="1.15148">
        <ele>91.2</ele>
        <time>2011-04-17T08:51:03Z</time>
      </trkpt>
      <trkpt lat="49.29701" lon="1.15119">
        <ele>94.9</ele>
        <time>2011-04-17T08:51:17Z</time>
      </trkpt>
      <trkpt lat="49.29675" lon="1.15106">
        <ele>96.7</ele>
        <time>2011-04-17T08:51:23Z</time>
      </trkpt>
      <trkpt lat="49.29628" lon="1.15085">
        <ele>98.1</ele>
        <time>2011-04-17T08:51:33Z</time>
      </trkpt>
      <trkpt lat="49.29543" lon="1.15028">
        <ele>95.8</ele>
        <time>2011-04-17T08:51:46Z</time>
      </trkpt>
      <trkpt lat="49.29499" lon="1.14989">
        <ele>96.4</ele>
        <time>2011-04-17T08:51:53Z</time>
      </trkpt>
      <trkpt lat="49.29483" lon="1.14977">
        <ele>97.2</ele>
        <time>2011-04-17T08:51:56Z</time>
      </trkpt>
      <trkpt lat="49.29437" lon="1.14921">
        <ele>97.2</ele>
        <time>2011-04-17T08:52:05Z</time>
      </trkpt>
      <trkpt lat="49.29352" lon="1.14821">
        <ele>94.8</ele>
        <time>2011-04-17T08:52:18Z</time>
      </trkpt>
      <trkpt lat="49.29153" lon="1.146">
        <ele>90.1</ele>
        <time>2011-04-17T08:52:43Z</time>
      </trkpt>
      <trkpt lat="49.29123" lon="1.14566">
        <ele>89.9</ele>
        <time>2011-04-17T08:52:47Z</time>
      </trkpt>
      <trkpt lat="49.29051" lon="1.14484">
        <ele>87.6</ele>
        <time>2011-04-17T08:52:57Z</time>
      </trkpt>
      <trkpt lat="49.28995" lon="1.14418">
        <ele>87.7</ele>
        <time>2011-04-17T08:53:06Z</time>
      </trkpt>
      <trkpt lat="49.28951" lon="1.14377">
        <ele>87.4</ele>
        <time>2011-04-17T08:53:14Z</time>
      </trkpt>
      <trkpt lat="49.28922" lon="1.14336">
        <ele>88.6</ele>
        <time>2011-04-17T08:53:22Z</time>
      </trkpt>
      <trkpt lat="49.28906" lon="1.14319">
        <ele>90.1</ele>
        <time>2011-04-17T08:53:26Z</time>
      </trkpt>
      <trkpt lat="49.28869" lon="1.14287">
        <ele>90.5</ele>
        <time>2011-04-17T08:53:34Z</time>
      </trkpt>
      <trkpt lat="49.28855" lon="1.14272">
        <ele>91</ele>
        <time>2011-04-17T08:53:37Z</time>
      </trkpt>
      <trkpt lat="49.28788" lon="1.14183">
        <ele>92.2</ele>
        <time>2011-04-17T08:53:50Z</time>
      </trkpt>
      <trkpt lat="49.28741" lon="1.14138">
        <ele>91.6</ele>
        <time>2011-04-17T08:53:58Z</time>
      </trkpt>
      <trkpt lat="49.28705" lon="1.14093">
        <ele>93.8</ele>
        <time>2011-04-17T08:54:05Z</time>
      </trkpt>
      <trkpt lat="49.28646" lon="1.14022">
        <ele>93.4</ele>
        <time>2011-04-17T08:54:16Z</time>
      </trkpt>
      <trkpt lat="49.28617" lon="1.13995">
        <ele>92.4</ele>
        <time>2011-04-17T08:54:22Z</time>
      </trkpt>
      <trkpt lat="49.28589" lon="1.13965">
        <ele>92</ele>
        <time>2011-04-17T08:54:26Z</time>
      </trkpt>
      <trkpt lat="49.28551" lon="1.13927">
        <ele>93.2</ele>
        <time>2011-04-17T08:54:33Z</time>
      </trkpt>
      <trkpt lat="49.28488" lon="1.1385">
        <ele>94.2</ele>
        <time>2011-04-17T08:54:45Z</time>
      </trkpt>
      <trkpt lat="49.28429" lon="1.13782">
        <ele>97.7</ele>
        <time>2011-04-17T08:54:59Z</time>
      </trkpt>
      <trkpt lat="49.28369" lon="1.13711">
        <ele>100.6</ele>
        <time>2011-04-17T08:55:11Z</time>
      </trkpt>
      <trkpt lat="49.28348" lon="1.1369">
        <ele>101.1</ele>
        <time>2011-04-17T08:55:14Z</time>
      </trkpt>
      <trkpt lat="49.28328" lon="1.13664">
        <ele>100.9</ele>
        <time>2011-04-17T08:55:18Z</time>
      </trkpt>
      <trkpt lat="49.2829" lon="1.13622">
        <ele>103.3</ele>
        <time>2011-04-17T08:55:25Z</time>
      </trkpt>
      <trkpt lat="49.28249" lon="1.13576">
        <ele>105.5</ele>
        <time>2011-04-17T08:55:34Z</time>
      </trkpt>
      <trkpt lat="49.28207" lon="1.13532">
        <ele>105.8</ele>
        <time>2011-04-17T08:55:43Z</time>
      </trkpt>
      <trkpt lat="49.28166" lon="1.13484">
        <ele>108.1</ele>
        <time>2011-04-17T08:55:53Z</time>
      </trkpt>
      <trkpt lat="49.28133" lon="1.13444">
        <ele>107.6</ele>
        <time>2011-04-17T08:56:01Z</time>
      </trkpt>
      <trkpt lat="49.28116" lon="1.13425">
        <ele>109.2</ele>
        <time>2011-04-17T08:56:05Z</time>
      </trkpt>
      <trkpt lat="49.281" lon="1.13405">
        <ele>110.6</ele>
        <time>2011-04-17T08:56:09Z</time>
      </trkpt>
      <trkpt lat="49.28034" lon="1.13342">
        <ele>117.4</ele>
        <time>2011-04-17T08:56:26Z</time>
      </trkpt>
      <trkpt lat="49.2795" lon="1.13199">
        <ele>130.1</ele>
        <time>2011-04-17T08:56:54Z</time>
      </trkpt>
      <trkpt lat="49.27944" lon="1.13187">
        <ele>131.8</ele>
        <time>2011-04-17T08:56:56Z</time>
      </trkpt>
      <trkpt lat="49.27924" lon="1.13156">
        <ele>133.9</ele>
        <time>2011-04-17T08:57:02Z</time>
      </trkpt>
      <trkpt lat="49.27898" lon="1.13112">
        <ele>139.3</ele>
        <time>2011-04-17T08:57:11Z</time>
      </trkpt>
      <trkpt lat="49.27866" lon="1.13082">
        <ele>141.1</ele>
        <time>2011-04-17T08:57:18Z</time>
      </trkpt>
      <trkpt lat="49.27832" lon="1.13066">
        <ele>143.4</ele>
        <time>2011-04-17T08:57:26Z</time>
      </trkpt>
      <trkpt lat="49.27795" lon="1.13052">
        <ele>146.4</ele>
        <time>2011-04-17T08:57:34Z</time>
      </trkpt>
      <trkpt lat="49.27762" lon="1.13025">
        <ele>147.9</ele>
        <time>2011-04-17T08:57:42Z</time>
      </trkpt>
      <trkpt lat="49.27744" lon="1.13008">
        <ele>148.6</ele>
        <time>2011-04-17T08:57:46Z</time>
      </trkpt>
      <trkpt lat="49.2767" lon="1.12922">
        <ele>151.5</ele>
        <time>2011-04-17T08:58:03Z</time>
      </trkpt>
      <trkpt lat="49.27614" lon="1.12856">
        <ele>151.3</ele>
        <time>2011-04-17T08:58:16Z</time>
      </trkpt>
      <trkpt lat="49.2753" lon="1.12759">
        <ele>150.7</ele>
        <time>2011-04-17T08:58:35Z</time>
      </trkpt>
      <trkpt lat="49.2751" lon="1.12741">
        <ele>149.7</ele>
        <time>2011-04-17T08:58:39Z</time>
      </trkpt>
      <trkpt lat="49.27496" lon="1.12725">
        <ele>149.3</ele>
        <time>2011-04-17T08:58:42Z</time>
      </trkpt>
      <trkpt lat="49.27394" lon="1.12603">
        <ele>148.5</ele>
        <time>2011-04-17T08:59:03Z</time>
      </trkpt>
      <trkpt lat="49.27351" lon="1.12554">
        <ele>151.6</ele>
        <time>2011-04-17T08:59:13Z</time>
      </trkpt>
      <trkpt lat="49.27311" lon="1.12511">
        <ele>153</ele>
        <time>2011-04-17T08:59:22Z</time>
      </trkpt>
      <trkpt lat="49.27298" lon="1.12491">
        <ele>155</ele>
        <time>2011-04-17T08:59:26Z</time>
      </trkpt>
      <trkpt lat="49.27284" lon="1.12471">
        <ele>158.7</ele>
        <time>2011-04-17T08:59:30Z</time>
      </trkpt>
      <trkpt lat="49.27241" lon="1.12419">
        <ele>161</ele>
        <time>2011-04-17T08:59:40Z</time>
      </trkpt>
      <trkpt lat="49.27231" lon="1.12411">
        <ele>160.6</ele>
        <time>2011-04-17T08:59:43Z</time>
      </trkpt>
      <trkpt lat="49.27212" lon="1.12401">
        <ele>160.1</ele>
        <time>2011-04-17T09:00:02Z</time>
      </trkpt>
      <trkpt lat="49.27206" lon="1.12394">
        <ele>167.1</ele>
        <time>2011-04-17T09:01:51Z</time>
      </trkpt>
      <trkpt lat="49.27184" lon="1.12379">
        <ele>168</ele>
        <time>2011-04-17T09:01:57Z</time>
      </trkpt>
      <trkpt lat="49.27118" lon="1.12359">
        <ele>168.9</ele>
        <time>2011-04-17T09:02:07Z</time>
      </trkpt>
      <trkpt lat="49.27062" lon="1.12343">
        <ele>170.8</ele>
        <time>2011-04-17T09:02:18Z</time>
      </trkpt>
      <trkpt lat="49.26973" lon="1.12272">
        <ele>170.7</ele>
        <time>2011-04-17T09:02:34Z</time>
      </trkpt>
      <trkpt lat="49.26953" lon="1.12248">
        <ele>170.4</ele>
        <time>2011-04-17T09:02:38Z</time>
      </trkpt>
      <trkpt lat="49.2693" lon="1.1222">
        <ele>169.9</ele>
        <time>2011-04-17T09:02:43Z</time>
      </trkpt>
      <trkpt lat="49.26908" lon="1.12189">
        <ele>172.4</ele>
        <time>2011-04-17T09:02:49Z</time>
      </trkpt>
      <trkpt lat="49.26859" lon="1.12135">
        <ele>174</ele>
        <time>2011-04-17T09:02:58Z</time>
      </trkpt>
      <trkpt lat="49.26768" lon="1.12016">
        <ele>176.7</ele>
        <time>2011-04-17T09:03:17Z</time>
      </trkpt>
      <trkpt lat="49.2671" lon="1.11938">
        <ele>178.2</ele>
        <time>2011-04-17T09:03:30Z</time>
      </trkpt>
      <trkpt lat="49.26684" lon="1.119">
        <ele>177.4</ele>
        <time>2011-04-17T09:03:37Z</time>
      </trkpt>
      <trkpt lat="49.26549" lon="1.11706">
        <ele>175.4</ele>
        <time>2011-04-17T09:04:01Z</time>
      </trkpt>
      <trkpt lat="49.26464" lon="1.11627">
        <ele>174.7</ele>
        <time>2011-04-17T09:04:13Z</time>
      </trkpt>
      <trkpt lat="49.26433" lon="1.11604">
        <ele>173.6</ele>
        <time>2011-04-17T09:04:17Z</time>
      </trkpt>
      <trkpt lat="49.26361" lon="1.1156">
        <ele>171.4</ele>
        <time>2011-04-17T09:04:26Z</time>
      </trkpt>
      <trkpt lat="49.26242" lon="1.11489">
        <ele>172.4</ele>
        <time>2011-04-17T09:04:42Z</time>
      </trkpt>
      <trkpt lat="49.26095" lon="1.11398">
        <ele>170.3</ele>
        <time>2011-04-17T09:05:02Z</time>
      </trkpt>
      <trkpt lat="49.26074" lon="1.11387">
        <ele>169.6</ele>
        <time>2011-04-17T09:05:05Z</time>
      </trkpt>
      <trkpt lat="49.25954" lon="1.11326">
        <ele>168.7</ele>
        <time>2011-04-17T09:05:22Z</time>
      </trkpt>
      <trkpt lat="49.25924" lon="1.11312">
        <ele>167.1</ele>
        <time>2011-04-17T09:05:26Z</time>
      </trkpt>
      <trkpt lat="49.25897" lon="1.11297">
        <ele>165.8</ele>
        <time>2011-04-17T09:05:30Z</time>
      </trkpt>
      <trkpt lat="49.25862" lon="1.11277">
        <ele>165.8</ele>
        <time>2011-04-17T09:05:36Z</time>
      </trkpt>
      <trkpt lat="49.25795" lon="1.11184">
        <ele>164.2</ele>
        <time>2011-04-17T09:05:47Z</time>
      </trkpt>
      <trkpt lat="49.25771" lon="1.11136">
        <ele>163.5</ele>
        <time>2011-04-17T09:05:51Z</time>
      </trkpt>
      <trkpt lat="49.25732" lon="1.11066">
        <ele>163.1</ele>
        <time>2011-04-17T09:05:58Z</time>
      </trkpt>
      <trkpt lat="49.25689" lon="1.10994">
        <ele>161.6</ele>
        <time>2011-04-17T09:06:07Z</time>
      </trkpt>
      <trkpt lat="49.25631" lon="1.10956">
        <ele>160.1</ele>
        <time>2011-04-17T09:06:14Z</time>
      </trkpt>
      <trkpt lat="49.25606" lon="1.10938">
        <ele>161.7</ele>
        <time>2011-04-17T09:06:18Z</time>
      </trkpt>
      <trkpt lat="49.25549" lon="1.10884">
        <ele>163.1</ele>
        <time>2011-04-17T09:06:26Z</time>
      </trkpt>
      <trkpt lat="49.25506" lon="1.10828">
        <ele>163.3</ele>
        <time>2011-04-17T09:06:34Z</time>
      </trkpt>
      <trkpt lat="49.25482" lon="1.10802">
        <ele>163.4</ele>
        <time>2011-04-17T09:06:38Z</time>
      </trkpt>
      <trkpt lat="49.25459" lon="1.10775">
        <ele>163.7</ele>
        <time>2011-04-17T09:06:42Z</time>
      </trkpt>
      <trkpt lat="49.25414" lon="1.10721">
        <ele>164.9</ele>
        <time>2011-04-17T09:06:51Z</time>
      </trkpt>
      <trkpt lat="49.25351" lon="1.10643">
        <ele>168.2</ele>
        <time>2011-04-17T09:07:02Z</time>
      </trkpt>
      <trkpt lat="49.25311" lon="1.10588">
        <ele>169</ele>
        <time>2011-04-17T09:07:10Z</time>
      </trkpt>
      <trkpt lat="49.25225" lon="1.10453">
        <ele>171.1</ele>
        <time>2011-04-17T09:07:26Z</time>
      </trkpt>
      <trkpt lat="49.25132" lon="1.10311">
        <ele>173.3</ele>
        <time>2011-04-17T09:07:44Z</time>
      </trkpt>
      <trkpt lat="49.25068" lon="1.10266">
        <ele>176.2</ele>
        <time>2011-04-17T09:07:54Z</time>
      </trkpt>
      <trkpt lat="49.25016" lon="1.1022">
        <ele>179</ele>
        <time>2011-04-17T09:08:03Z</time>
      </trkpt>
      <trkpt lat="49.24963" lon="1.10143">
        <ele>177.9</ele>
        <time>2011-04-17T09:08:11Z</time>
      </trkpt>
      <trkpt lat="49.24941" lon="1.10111">
        <ele>177.9</ele>
        <time>2011-04-17T09:08:15Z</time>
      </trkpt>
      <trkpt lat="49.249" lon="1.10051">
        <ele>177.6</ele>
        <time>2011-04-17T09:08:22Z</time>
      </trkpt>
      <trkpt lat="49.24876" lon="1.10016">
        <ele>177.1</ele>
        <time>2011-04-17T09:08:26Z</time>
      </trkpt>
      <trkpt lat="49.24804" lon="1.09917">
        <ele>177.6</ele>
        <time>2011-04-17T09:08:38Z</time>
      </trkpt>
      <trkpt lat="49.2476" lon="1.09852">
        <ele>177.4</ele>
        <time>2011-04-17T09:08:46Z</time>
      </trkpt>
      <trkpt lat="49.24715" lon="1.09788">
        <ele>178.7</ele>
        <time>2011-04-17T09:08:54Z</time>
      </trkpt>
      <trkpt lat="49.24695" lon="1.09756">
        <ele>180.3</ele>
        <time>2011-04-17T09:08:58Z</time>
      </trkpt>
      <trkpt lat="49.24682" lon="1.09716">
        <ele>181.5</ele>
        <time>2011-04-17T09:09:02Z</time>
      </trkpt>
      <trkpt lat="49.24661" lon="1.09694">
        <ele>181.6</ele>
        <time>2011-04-17T09:09:06Z</time>
      </trkpt>
      <trkpt lat="49.24611" lon="1.09641">
        <ele>181.3</ele>
        <time>2011-04-17T09:09:14Z</time>
      </trkpt>
      <trkpt lat="49.24535" lon="1.09569">
        <ele>182</ele>
        <time>2011-04-17T09:09:26Z</time>
      </trkpt>
      <trkpt lat="49.24414" lon="1.09476">
        <ele>184.2</ele>
        <time>2011-04-17T09:09:42Z</time>
      </trkpt>
      <trkpt lat="49.24336" lon="1.09399">
        <ele>186.5</ele>
        <time>2011-04-17T09:09:54Z</time>
      </trkpt>
      <trkpt lat="49.24195" lon="1.09287">
        <ele>187.3</ele>
        <time>2011-04-17T09:10:14Z</time>
      </trkpt>
      <trkpt lat="49.24093" lon="1.09213">
        <ele>185.7</ele>
        <time>2011-04-17T09:10:26Z</time>
      </trkpt>
      <trkpt lat="49.2405" lon="1.09184">
        <ele>185.1</ele>
        <time>2011-04-17T09:10:31Z</time>
      </trkpt>
      <trkpt lat="49.24026" lon="1.09165">
        <ele>184.1</ele>
        <time>2011-04-17T09:10:34Z</time>
      </trkpt>
      <trkpt lat="49.23993" lon="1.09141">
        <ele>185</ele>
        <time>2011-04-17T09:10:38Z</time>
      </trkpt>
      <trkpt lat="49.23859" lon="1.09045">
        <ele>181.2</ele>
        <time>2011-04-17T09:10:54Z</time>
      </trkpt>
      <trkpt lat="49.23697" lon="1.08919">
        <ele>181.5</ele>
        <time>2011-04-17T09:11:14Z</time>
      </trkpt>
      <trkpt lat="49.23654" lon="1.08812">
        <ele>179</ele>
        <time>2011-04-17T09:11:23Z</time>
      </trkpt>
      <trkpt lat="49.23641" lon="1.08779">
        <ele>178.7</ele>
        <time>2011-04-17T09:11:26Z</time>
      </trkpt>
      <trkpt lat="49.23611" lon="1.08708">
        <ele>176.3</ele>
        <time>2011-04-17T09:11:33Z</time>
      </trkpt>
      <trkpt lat="49.23556" lon="1.08571">
        <ele>176.1</ele>
        <time>2011-04-17T09:11:46Z</time>
      </trkpt>
      <trkpt lat="49.23522" lon="1.08489">
        <ele>176.6</ele>
        <time>2011-04-17T09:11:54Z</time>
      </trkpt>
      <trkpt lat="49.23481" lon="1.08398">
        <ele>176.7</ele>
        <time>2011-04-17T09:12:03Z</time>
      </trkpt>
      <trkpt lat="49.23439" lon="1.08335">
        <ele>177.9</ele>
        <time>2011-04-17T09:12:10Z</time>
      </trkpt>
      <trkpt lat="49.23419" lon="1.08304">
        <ele>179.3</ele>
        <time>2011-04-17T09:12:14Z</time>
      </trkpt>
      <trkpt lat="49.23402" lon="1.08275">
        <ele>178.7</ele>
        <time>2011-04-17T09:12:17Z</time>
      </trkpt>
      <trkpt lat="49.23308" lon="1.08131">
        <ele>175.1</ele>
        <time>2011-04-17T09:12:34Z</time>
      </trkpt>
      <trkpt lat="49.23211" lon="1.07985">
        <ele>171.8</ele>
        <time>2011-04-17T09:12:50Z</time>
      </trkpt>
      <trkpt lat="49.2318" lon="1.07938">
        <ele>169.2</ele>
        <time>2011-04-17T09:12:54Z</time>
      </trkpt>
      <trkpt lat="49.23132" lon="1.07861">
        <ele>167.5</ele>
        <time>2011-04-17T09:13:02Z</time>
      </trkpt>
      <trkpt lat="49.23039" lon="1.07762">
        <ele>166.9</ele>
        <time>2011-04-17T09:13:16Z</time>
      </trkpt>
      <trkpt lat="49.22955" lon="1.07741">
        <ele>170.2</ele>
        <time>2011-04-17T09:13:25Z</time>
      </trkpt>
      <trkpt lat="49.22852" lon="1.07709">
        <ele>171.4</ele>
        <time>2011-04-17T09:13:38Z</time>
      </trkpt>
      <trkpt lat="49.228" lon="1.07642">
        <ele>170</ele>
        <time>2011-04-17T09:13:46Z</time>
      </trkpt>
      <trkpt lat="49.22778" lon="1.07601">
        <ele>169.9</ele>
        <time>2011-04-17T09:13:50Z</time>
      </trkpt>
      <trkpt lat="49.22741" lon="1.07561">
        <ele>168</ele>
        <time>2011-04-17T09:13:55Z</time>
      </trkpt>
      <trkpt lat="49.22718" lon="1.07552">
        <ele>167.9</ele>
        <time>2011-04-17T09:13:58Z</time>
      </trkpt>
      <trkpt lat="49.22652" lon="1.07552">
        <ele>168.5</ele>
        <time>2011-04-17T09:14:06Z</time>
      </trkpt>
      <trkpt lat="49.225" lon="1.07518">
        <ele>173.6</ele>
        <time>2011-04-17T09:14:26Z</time>
      </trkpt>
      <trkpt lat="49.22464" lon="1.07484">
        <ele>174.4</ele>
        <time>2011-04-17T09:14:33Z</time>
      </trkpt>
      <trkpt lat="49.22449" lon="1.07464">
        <ele>174.2</ele>
        <time>2011-04-17T09:14:38Z</time>
      </trkpt>
      <trkpt lat="49.22435" lon="1.07433">
        <ele>175.1</ele>
        <time>2011-04-17T09:14:41Z</time>
      </trkpt>
      <trkpt lat="49.22402" lon="1.07325">
        <ele>176.3</ele>
        <time>2011-04-17T09:14:55Z</time>
      </trkpt>
      <trkpt lat="49.22388" lon="1.0726">
        <ele>175.7</ele>
        <time>2011-04-17T09:15:01Z</time>
      </trkpt>
      <trkpt lat="49.22376" lon="1.07164">
        <ele>176.6</ele>
        <time>2011-04-17T09:15:13Z</time>
      </trkpt>
      <trkpt lat="49.22376" lon="1.07067">
        <ele>177.6</ele>
        <time>2011-04-17T09:15:22Z</time>
      </trkpt>
      <trkpt lat="49.22378" lon="1.07049">
        <ele>178</ele>
        <time>2011-04-17T09:15:24Z</time>
      </trkpt>
      <trkpt lat="49.22384" lon="1.06984">
        <ele>178.2</ele>
        <time>2011-04-17T09:15:31Z</time>
      </trkpt>
      <trkpt lat="49.22388" lon="1.06952">
        <ele>179.1</ele>
        <time>2011-04-17T09:15:35Z</time>
      </trkpt>
      <trkpt lat="49.22388" lon="1.06937">
        <ele>178.7</ele>
        <time>2011-04-17T09:15:37Z</time>
      </trkpt>
      <trkpt lat="49.22384" lon="1.06828">
        <ele>177.3</ele>
        <time>2011-04-17T09:15:55Z</time>
      </trkpt>
      <trkpt lat="49.22375" lon="1.06773">
        <ele>176.8</ele>
        <time>2011-04-17T09:16:06Z</time>
      </trkpt>
      <trkpt lat="49.22365" lon="1.06725">
        <ele>177.3</ele>
        <time>2011-04-17T09:16:14Z</time>
      </trkpt>
      <trkpt lat="49.22364" lon="1.06716">
        <ele>178</ele>
        <time>2011-04-17T09:16:17Z</time>
      </trkpt>
      <trkpt lat="49.22352" lon="1.06642">
        <ele>182</ele>
        <time>2011-04-17T09:16:46Z</time>
      </trkpt>
      <trkpt lat="49.22343" lon="1.06597">
        <ele>182.2</ele>
        <time>2011-04-17T09:16:52Z</time>
      </trkpt>
      <trkpt lat="49.22344" lon="1.06557">
        <ele>183.1</ele>
        <time>2011-04-17T09:16:58Z</time>
      </trkpt>
      <trkpt lat="49.22348" lon="1.06522">
        <ele>186</ele>
        <time>2011-04-17T09:17:06Z</time>
      </trkpt>
      <trkpt lat="49.2235" lon="1.06498">
        <ele>186.3</ele>
        <time>2011-04-17T09:17:09Z</time>
      </trkpt>
      <trkpt lat="49.22348" lon="1.06473">
        <ele>186.9</ele>
        <time>2011-04-17T09:17:13Z</time>
      </trkpt>
      <trkpt lat="49.22348" lon="1.0641">
        <ele>186.7</ele>
        <time>2011-04-17T09:17:24Z</time>
      </trkpt>
      <trkpt lat="49.22329" lon="1.06389">
        <ele>187</ele>
        <time>2011-04-17T09:17:34Z</time>
      </trkpt>
      <trkpt lat="49.22322" lon="1.06388">
        <ele>187.3</ele>
        <time>2011-04-17T09:17:39Z</time>
      </trkpt>
      <trkpt lat="49.22315" lon="1.06385">
        <ele>189.2</ele>
        <time>2011-04-17T09:18:54Z</time>
      </trkpt>
      <trkpt lat="49.22302" lon="1.06356">
        <ele>191.9</ele>
        <time>2011-04-17T09:19:04Z</time>
      </trkpt>
      <trkpt lat="49.22252" lon="1.06361">
        <ele>193.1</ele>
        <time>2011-04-17T09:19:16Z</time>
      </trkpt>
      <trkpt lat="49.22116" lon="1.06293">
        <ele>192.9</ele>
        <time>2011-04-17T09:19:42Z</time>
      </trkpt>
      <trkpt lat="49.22094" lon="1.0628">
        <ele>193.8</ele>
        <time>2011-04-17T09:19:46Z</time>
      </trkpt>
      <trkpt lat="49.22038" lon="1.06249">
        <ele>194.8</ele>
        <time>2011-04-17T09:19:55Z</time>
      </trkpt>
      <trkpt lat="49.21993" lon="1.06223">
        <ele>194.5</ele>
        <time>2011-04-17T09:20:02Z</time>
      </trkpt>
      <trkpt lat="49.21951" lon="1.06197">
        <ele>195.1</ele>
        <time>2011-04-17T09:20:09Z</time>
      </trkpt>
      <trkpt lat="49.21929" lon="1.06185">
        <ele>195.8</ele>
        <time>2011-04-17T09:20:13Z</time>
      </trkpt>
      <trkpt lat="49.21858" lon="1.06146">
        <ele>196.7</ele>
        <time>2011-04-17T09:20:27Z</time>
      </trkpt>
      <trkpt lat="49.21836" lon="1.06134">
        <ele>198.1</ele>
        <time>2011-04-17T09:20:30Z</time>
      </trkpt>
      <trkpt lat="49.21814" lon="1.06121">
        <ele>198.2</ele>
        <time>2011-04-17T09:20:34Z</time>
      </trkpt>
      <trkpt lat="49.21688" lon="1.06049">
        <ele>196.7</ele>
        <time>2011-04-17T09:20:54Z</time>
      </trkpt>
      <trkpt lat="49.21647" lon="1.0602">
        <ele>197</ele>
        <time>2011-04-17T09:21:02Z</time>
      </trkpt>
      <trkpt lat="49.21611" lon="1.05972">
        <ele>197.9</ele>
        <time>2011-04-17T09:21:09Z</time>
      </trkpt>
      <trkpt lat="49.21568" lon="1.05907">
        <ele>198.5</ele>
        <time>2011-04-17T09:21:18Z</time>
      </trkpt>
      <trkpt lat="49.21547" lon="1.05878">
        <ele>198.4</ele>
        <time>2011-04-17T09:21:22Z</time>
      </trkpt>
      <trkpt lat="49.21529" lon="1.05848">
        <ele>198.3</ele>
        <time>2011-04-17T09:21:26Z</time>
      </trkpt>
      <trkpt lat="49.21506" lon="1.05811">
        <ele>199.2</ele>
        <time>2011-04-17T09:21:31Z</time>
      </trkpt>
      <trkpt lat="49.21473" lon="1.05758">
        <ele>199.3</ele>
        <time>2011-04-17T09:21:38Z</time>
      </trkpt>
      <trkpt lat="49.21433" lon="1.05702">
        <ele>199</ele>
        <time>2011-04-17T09:21:46Z</time>
      </trkpt>
      <trkpt lat="49.21337" lon="1.05567">
        <ele>202.7</ele>
        <time>2011-04-17T09:22:06Z</time>
      </trkpt>
      <trkpt lat="49.21321" lon="1.05549">
        <ele>202.7</ele>
        <time>2011-04-17T09:22:09Z</time>
      </trkpt>
      <trkpt lat="49.21292" lon="1.05524">
        <ele>202.9</ele>
        <time>2011-04-17T09:22:14Z</time>
      </trkpt>
      <trkpt lat="49.21229" lon="1.05486">
        <ele>203.8</ele>
        <time>2011-04-17T09:22:24Z</time>
      </trkpt>
      <trkpt lat="49.21176" lon="1.05448">
        <ele>205.4</ele>
        <time>2011-04-17T09:22:34Z</time>
      </trkpt>
      <trkpt lat="49.21124" lon="1.05404">
        <ele>205.9</ele>
        <time>2011-04-17T09:22:43Z</time>
      </trkpt>
      <trkpt lat="49.21059" lon="1.05328">
        <ele>207.8</ele>
        <time>2011-04-17T09:22:54Z</time>
      </trkpt>
      <trkpt lat="49.21032" lon="1.05317">
        <ele>206.6</ele>
        <time>2011-04-17T09:22:59Z</time>
      </trkpt>
      <trkpt lat="49.20994" lon="1.05304">
        <ele>207.2</ele>
        <time>2011-04-17T09:23:03Z</time>
      </trkpt>
      <trkpt lat="49.20963" lon="1.05291">
        <ele>206.3</ele>
        <time>2011-04-17T09:23:07Z</time>
      </trkpt>
      <trkpt lat="49.20918" lon="1.0526">
        <ele>205</ele>
        <time>2011-04-17T09:23:13Z</time>
      </trkpt>
      <trkpt lat="49.20858" lon="1.05202">
        <ele>205.5</ele>
        <time>2011-04-17T09:23:22Z</time>
      </trkpt>
      <trkpt lat="49.20804" lon="1.0515">
        <ele>204.5</ele>
        <time>2011-04-17T09:23:30Z</time>
      </trkpt>
      <trkpt lat="49.20753" lon="1.05094">
        <ele>205.6</ele>
        <time>2011-04-17T09:23:38Z</time>
      </trkpt>
      <trkpt lat="49.20703" lon="1.05037">
        <ele>207.3</ele>
        <time>2011-04-17T09:23:47Z</time>
      </trkpt>
      <trkpt lat="49.20653" lon="1.04977">
        <ele>206.9</ele>
        <time>2011-04-17T09:23:54Z</time>
      </trkpt>
      <trkpt lat="49.20593" lon="1.04709">
        <ele>204.5</ele>
        <time>2011-04-17T09:24:22Z</time>
      </trkpt>
      <trkpt lat="49.20593" lon="1.04599">
        <ele>203.2</ele>
        <time>2011-04-17T09:24:31Z</time>
      </trkpt>
      <trkpt lat="49.20604" lon="1.04466">
        <ele>204.5</ele>
        <time>2011-04-17T09:24:42Z</time>
      </trkpt>
      <trkpt lat="49.20606" lon="1.04416">
        <ele>204.4</ele>
        <time>2011-04-17T09:24:46Z</time>
      </trkpt>
      <trkpt lat="49.20606" lon="1.04381">
        <ele>204.5</ele>
        <time>2011-04-17T09:24:49Z</time>
      </trkpt>
      <trkpt lat="49.20604" lon="1.04321">
        <ele>203.7</ele>
        <time>2011-04-17T09:24:55Z</time>
      </trkpt>
      <trkpt lat="49.20596" lon="1.04224">
        <ele>203.5</ele>
        <time>2011-04-17T09:25:02Z</time>
      </trkpt>
      <trkpt lat="49.20537" lon="1.03984">
        <ele>204.1</ele>
        <time>2011-04-17T09:25:22Z</time>
      </trkpt>
      <trkpt lat="49.20491" lon="1.03842">
        <ele>204.1</ele>
        <time>2011-04-17T09:25:34Z</time>
      </trkpt>
      <trkpt lat="49.20474" lon="1.03794">
        <ele>203.8</ele>
        <time>2011-04-17T09:25:38Z</time>
      </trkpt>
      <trkpt lat="49.20457" lon="1.03745">
        <ele>202.3</ele>
        <time>2011-04-17T09:25:42Z</time>
      </trkpt>
      <trkpt lat="49.20414" lon="1.03577">
        <ele>205.9</ele>
        <time>2011-04-17T09:25:54Z</time>
      </trkpt>
      <trkpt lat="49.204" lon="1.03436">
        <ele>205.2</ele>
        <time>2011-04-17T09:26:03Z</time>
      </trkpt>
      <trkpt lat="49.20393" lon="1.0316">
        <ele>206</ele>
        <time>2011-04-17T09:26:22Z</time>
      </trkpt>
      <trkpt lat="49.20399" lon="1.03106">
        <ele>206.7</ele>
        <time>2011-04-17T09:26:26Z</time>
      </trkpt>
      <trkpt lat="49.20449" lon="1.02807">
        <ele>207.5</ele>
        <time>2011-04-17T09:26:50Z</time>
      </trkpt>
      <trkpt lat="49.20469" lon="1.02681">
        <ele>206.9</ele>
        <time>2011-04-17T09:27:00Z</time>
      </trkpt>
      <trkpt lat="49.20455" lon="1.02472">
        <ele>206.6</ele>
        <time>2011-04-17T09:27:14Z</time>
      </trkpt>
      <trkpt lat="49.20448" lon="1.02416">
        <ele>206.2</ele>
        <time>2011-04-17T09:27:18Z</time>
      </trkpt>
      <trkpt lat="49.20443" lon="1.02375">
        <ele>204.9</ele>
        <time>2011-04-17T09:27:22Z</time>
      </trkpt>
      <trkpt lat="49.20431" lon="1.02252">
        <ele>204.7</ele>
        <time>2011-04-17T09:27:30Z</time>
      </trkpt>
      <trkpt lat="49.20425" lon="1.02199">
        <ele>204.1</ele>
        <time>2011-04-17T09:27:35Z</time>
      </trkpt>
      <trkpt lat="49.20415" lon="1.02096">
        <ele>203.1</ele>
        <time>2011-04-17T09:27:42Z</time>
      </trkpt>
      <trkpt lat="49.204" lon="1.01956">
        <ele>201</ele>
        <time>2011-04-17T09:27:53Z</time>
      </trkpt>
      <trkpt lat="49.20393" lon="1.01891">
        <ele>199.9</ele>
        <time>2011-04-17T09:28:01Z</time>
      </trkpt>
      <trkpt lat="49.2039" lon="1.01882">
        <ele>199.4</ele>
        <time>2011-04-17T09:28:14Z</time>
      </trkpt>
      <trkpt lat="49.2038" lon="1.01789">
        <ele>200.6</ele>
        <time>2011-04-17T09:28:25Z</time>
      </trkpt>
      <trkpt lat="49.20362" lon="1.01628">
        <ele>198.7</ele>
        <time>2011-04-17T09:28:34Z</time>
      </trkpt>
      <trkpt lat="49.20346" lon="1.01487">
        <ele>198.1</ele>
        <time>2011-04-17T09:28:42Z</time>
      </trkpt>
      <trkpt lat="49.20315" lon="1.01342">
        <ele>198.5</ele>
        <time>2011-04-17T09:28:51Z</time>
      </trkpt>
      <trkpt lat="49.20303" lon="1.01303">
        <ele>199.8</ele>
        <time>2011-04-17T09:28:53Z</time>
      </trkpt>
      <trkpt lat="49.20255" lon="1.01246">
        <ele>199.8</ele>
        <time>2011-04-17T09:28:58Z</time>
      </trkpt>
      <trkpt lat="49.20195" lon="1.0118">
        <ele>200.1</ele>
        <time>2011-04-17T09:29:06Z</time>
      </trkpt>
      <trkpt lat="49.2014" lon="1.00942">
        <ele>194.6</ele>
        <time>2011-04-17T09:29:26Z</time>
      </trkpt>
      <trkpt lat="49.20187" lon="1.00746">
        <ele>199.6</ele>
        <time>2011-04-17T09:29:42Z</time>
      </trkpt>
      <trkpt lat="49.20192" lon="1.00699">
        <ele>199.7</ele>
        <time>2011-04-17T09:29:46Z</time>
      </trkpt>
      <trkpt lat="49.20203" lon="1.00565">
        <ele>198.2</ele>
        <time>2011-04-17T09:29:58Z</time>
      </trkpt>
      <trkpt lat="49.20206" lon="1.00484">
        <ele>198.5</ele>
        <time>2011-04-17T09:30:05Z</time>
      </trkpt>
      <trkpt lat="49.20192" lon="1.00343">
        <ele>195.4</ele>
        <time>2011-04-17T09:30:18Z</time>
      </trkpt>
      <trkpt lat="49.20169" lon="1.00202">
        <ele>194.7</ele>
        <time>2011-04-17T09:30:31Z</time>
      </trkpt>
      <trkpt lat="49.20171" lon="1.00174">
        <ele>195.7</ele>
        <time>2011-04-17T09:30:34Z</time>
      </trkpt>
      <trkpt lat="49.20172" lon="1.00157">
        <ele>195</ele>
        <time>2011-04-17T09:30:36Z</time>
      </trkpt>
      <trkpt lat="49.20174" lon="1.00116">
        <ele>195.3</ele>
        <time>2011-04-17T09:30:42Z</time>
      </trkpt>
      <trkpt lat="49.20156" lon="1.00008">
        <ele>194</ele>
        <time>2011-04-17T09:30:54Z</time>
      </trkpt>
      <trkpt lat="49.20136" lon="0.99907">
        <ele>193.8</ele>
        <time>2011-04-17T09:31:05Z</time>
      </trkpt>
      <trkpt lat="49.20121" lon="0.99821">
        <ele>194.5</ele>
        <time>2011-04-17T09:31:14Z</time>
      </trkpt>
      <trkpt lat="49.20099" lon="0.99733">
        <ele>196.3</ele>
        <time>2011-04-17T09:31:22Z</time>
      </trkpt>
      <trkpt lat="49.20088" lon="0.99693">
        <ele>196</ele>
        <time>2011-04-17T09:31:26Z</time>
      </trkpt>
      <trkpt lat="49.20063" lon="0.99576">
        <ele>196.8</ele>
        <time>2011-04-17T09:31:39Z</time>
      </trkpt>
      <trkpt lat="49.2004" lon="0.99504">
        <ele>196.2</ele>
        <time>2011-04-17T09:31:46Z</time>
      </trkpt>
      <trkpt lat="49.20024" lon="0.99449">
        <ele>197.5</ele>
        <time>2011-04-17T09:31:54Z</time>
      </trkpt>
      <trkpt lat="49.1998" lon="0.99327">
        <ele>197.6</ele>
        <time>2011-04-17T09:32:11Z</time>
      </trkpt>
      <trkpt lat="49.19964" lon="0.99285">
        <ele>197.3</ele>
        <time>2011-04-17T09:32:14Z</time>
      </trkpt>
      <trkpt lat="49.19948" lon="0.99243">
        <ele>196.1</ele>
        <time>2011-04-17T09:32:18Z</time>
      </trkpt>
      <trkpt lat="49.19933" lon="0.992">
        <ele>196.3</ele>
        <time>2011-04-17T09:32:22Z</time>
      </trkpt>
      <trkpt lat="49.19868" lon="0.99097">
        <ele>196.2</ele>
        <time>2011-04-17T09:32:35Z</time>
      </trkpt>
      <trkpt lat="49.19764" lon="0.98988">
        <ele>194.1</ele>
        <time>2011-04-17T09:32:51Z</time>
      </trkpt>
      <trkpt lat="49.19712" lon="0.98929">
        <ele>193.8</ele>
        <time>2011-04-17T09:32:58Z</time>
      </trkpt>
      <trkpt lat="49.19685" lon="0.98887">
        <ele>195.1</ele>
        <time>2011-04-17T09:33:03Z</time>
      </trkpt>
      <trkpt lat="49.19662" lon="0.98855">
        <ele>195.5</ele>
        <time>2011-04-17T09:33:07Z</time>
      </trkpt>
      <trkpt lat="49.19646" lon="0.9883">
        <ele>196.3</ele>
        <time>2011-04-17T09:33:10Z</time>
      </trkpt>
      <trkpt lat="49.19598" lon="0.98764">
        <ele>197</ele>
        <time>2011-04-17T09:33:19Z</time>
      </trkpt>
      <trkpt lat="49.1955" lon="0.987">
        <ele>197.8</ele>
        <time>2011-04-17T09:33:26Z</time>
      </trkpt>
      <trkpt lat="49.19478" lon="0.98617">
        <ele>200.3</ele>
        <time>2011-04-17T09:33:38Z</time>
      </trkpt>
      <trkpt lat="49.19372" lon="0.98504">
        <ele>200.3</ele>
        <time>2011-04-17T09:33:54Z</time>
      </trkpt>
      <trkpt lat="49.1935" lon="0.98483">
        <ele>200.6</ele>
        <time>2011-04-17T09:33:57Z</time>
      </trkpt>
      <trkpt lat="49.19285" lon="0.98417">
        <ele>200.7</ele>
        <time>2011-04-17T09:34:06Z</time>
      </trkpt>
      <trkpt lat="49.19248" lon="0.98348">
        <ele>200.7</ele>
        <time>2011-04-17T09:34:13Z</time>
      </trkpt>
      <trkpt lat="49.19204" lon="0.98237">
        <ele>200.4</ele>
        <time>2011-04-17T09:34:23Z</time>
      </trkpt>
      <trkpt lat="49.19151" lon="0.98112">
        <ele>198.4</ele>
        <time>2011-04-17T09:34:35Z</time>
      </trkpt>
      <trkpt lat="49.19087" lon="0.97972">
        <ele>196.6</ele>
        <time>2011-04-17T09:34:46Z</time>
      </trkpt>
      <trkpt lat="49.19039" lon="0.97881">
        <ele>199.7</ele>
        <time>2011-04-17T09:34:55Z</time>
      </trkpt>
      <trkpt lat="49.18993" lon="0.97822">
        <ele>200.5</ele>
        <time>2011-04-17T09:35:02Z</time>
      </trkpt>
      <trkpt lat="49.18935" lon="0.97766">
        <ele>200.8</ele>
        <time>2011-04-17T09:35:11Z</time>
      </trkpt>
      <trkpt lat="49.18856" lon="0.97687">
        <ele>200.3</ele>
        <time>2011-04-17T09:35:21Z</time>
      </trkpt>
      <trkpt lat="49.18759" lon="0.97613">
        <ele>198.9</ele>
        <time>2011-04-17T09:35:34Z</time>
      </trkpt>
      <trkpt lat="49.1873" lon="0.97592">
        <ele>199.3</ele>
        <time>2011-04-17T09:35:38Z</time>
      </trkpt>
      <trkpt lat="49.18675" lon="0.97547">
        <ele>198.8</ele>
        <time>2011-04-17T09:35:46Z</time>
      </trkpt>
      <trkpt lat="49.18633" lon="0.97463">
        <ele>199.5</ele>
        <time>2011-04-17T09:35:55Z</time>
      </trkpt>
      <trkpt lat="49.18584" lon="0.9742">
        <ele>198.5</ele>
        <time>2011-04-17T09:36:02Z</time>
      </trkpt>
      <trkpt lat="49.18556" lon="0.97396">
        <ele>198.8</ele>
        <time>2011-04-17T09:36:06Z</time>
      </trkpt>
      <trkpt lat="49.18472" lon="0.97327">
        <ele>198.5</ele>
        <time>2011-04-17T09:36:18Z</time>
      </trkpt>
      <trkpt lat="49.18411" lon="0.97296">
        <ele>198.2</ele>
        <time>2011-04-17T09:36:26Z</time>
      </trkpt>
      <trkpt lat="49.18371" lon="0.97283">
        <ele>198.1</ele>
        <time>2011-04-17T09:36:31Z</time>
      </trkpt>
      <trkpt lat="49.18317" lon="0.97249">
        <ele>199</ele>
        <time>2011-04-17T09:36:43Z</time>
      </trkpt>
      <trkpt lat="49.18311" lon="0.97244">
        <ele>198.8</ele>
        <time>2011-04-17T09:36:48Z</time>
      </trkpt>
      <trkpt lat="49.18282" lon="0.9722">
        <ele>198.3</ele>
        <time>2011-04-17T09:36:57Z</time>
      </trkpt>
      <trkpt lat="49.18233" lon="0.97172">
        <ele>198.1</ele>
        <time>2011-04-17T09:37:06Z</time>
      </trkpt>
      <trkpt lat="49.18181" lon="0.97122">
        <ele>198.4</ele>
        <time>2011-04-17T09:37:14Z</time>
      </trkpt>
      <trkpt lat="49.1816" lon="0.97092">
        <ele>199.2</ele>
        <time>2011-04-17T09:37:18Z</time>
      </trkpt>
      <trkpt lat="49.18118" lon="0.9704">
        <ele>199.2</ele>
        <time>2011-04-17T09:37:25Z</time>
      </trkpt>
      <trkpt lat="49.18016" lon="0.96903">
        <ele>199.7</ele>
        <time>2011-04-17T09:37:43Z</time>
      </trkpt>
      <trkpt lat="49.17952" lon="0.96829">
        <ele>199</ele>
        <time>2011-04-17T09:37:55Z</time>
      </trkpt>
      <trkpt lat="49.17891" lon="0.96752">
        <ele>197.6</ele>
        <time>2011-04-17T09:38:06Z</time>
      </trkpt>
      <trkpt lat="49.17866" lon="0.96728">
        <ele>197.1</ele>
        <time>2011-04-17T09:38:10Z</time>
      </trkpt>
      <trkpt lat="49.17821" lon="0.96677">
        <ele>196.6</ele>
        <time>2011-04-17T09:38:18Z</time>
      </trkpt>
      <trkpt lat="49.17777" lon="0.96619">
        <ele>196.8</ele>
        <time>2011-04-17T09:38:26Z</time>
      </trkpt>
      <trkpt lat="49.17736" lon="0.9655">
        <ele>197.2</ele>
        <time>2011-04-17T09:38:34Z</time>
      </trkpt>
      <trkpt lat="49.17694" lon="0.9647">
        <ele>198.5</ele>
        <time>2011-04-17T09:38:43Z</time>
      </trkpt>
      <trkpt lat="49.1764" lon="0.96358">
        <ele>197.5</ele>
        <time>2011-04-17T09:38:55Z</time>
      </trkpt>
      <trkpt lat="49.17625" lon="0.96317">
        <ele>197.2</ele>
        <time>2011-04-17T09:38:59Z</time>
      </trkpt>
      <trkpt lat="49.1757" lon="0.96163">
        <ele>196.8</ele>
        <time>2011-04-17T09:39:14Z</time>
      </trkpt>
      <trkpt lat="49.17535" lon="0.96087">
        <ele>197.2</ele>
        <time>2011-04-17T09:39:23Z</time>
      </trkpt>
      <trkpt lat="49.17485" lon="0.95975">
        <ele>196.9</ele>
        <time>2011-04-17T09:39:34Z</time>
      </trkpt>
      <trkpt lat="49.17443" lon="0.95865">
        <ele>197.6</ele>
        <time>2011-04-17T09:39:43Z</time>
      </trkpt>
      <trkpt lat="49.17431" lon="0.9583">
        <ele>197.6</ele>
        <time>2011-04-17T09:39:46Z</time>
      </trkpt>
      <trkpt lat="49.17416" lon="0.95783">
        <ele>197.4</ele>
        <time>2011-04-17T09:39:50Z</time>
      </trkpt>
      <trkpt lat="49.17384" lon="0.95689">
        <ele>196.7</ele>
        <time>2011-04-17T09:39:58Z</time>
      </trkpt>
      <trkpt lat="49.17368" lon="0.9564">
        <ele>197.2</ele>
        <time>2011-04-17T09:40:02Z</time>
      </trkpt>
      <trkpt lat="49.17253" lon="0.95377">
        <ele>197.4</ele>
        <time>2011-04-17T09:40:26Z</time>
      </trkpt>
      <trkpt lat="49.17233" lon="0.95335">
        <ele>198.3</ele>
        <time>2011-04-17T09:40:30Z</time>
      </trkpt>
      <trkpt lat="49.17213" lon="0.95292">
        <ele>198.1</ele>
        <time>2011-04-17T09:40:34Z</time>
      </trkpt>
      <trkpt lat="49.17192" lon="0.95248">
        <ele>198</ele>
        <time>2011-04-17T09:40:38Z</time>
      </trkpt>
      <trkpt lat="49.17154" lon="0.95162">
        <ele>198.6</ele>
        <time>2011-04-17T09:40:46Z</time>
      </trkpt>
      <trkpt lat="49.17119" lon="0.95087">
        <ele>199</ele>
        <time>2011-04-17T09:40:54Z</time>
      </trkpt>
      <trkpt lat="49.17027" lon="0.94947">
        <ele>198.8</ele>
        <time>2011-04-17T09:41:09Z</time>
      </trkpt>
      <trkpt lat="49.16905" lon="0.94799">
        <ele>199.3</ele>
        <time>2011-04-17T09:41:26Z</time>
      </trkpt>
      <trkpt lat="49.16878" lon="0.94767">
        <ele>199.2</ele>
        <time>2011-04-17T09:41:30Z</time>
      </trkpt>
      <trkpt lat="49.16831" lon="0.94709">
        <ele>199.4</ele>
        <time>2011-04-17T09:41:38Z</time>
      </trkpt>
      <trkpt lat="49.16742" lon="0.94601">
        <ele>199.6</ele>
        <time>2011-04-17T09:41:50Z</time>
      </trkpt>
      <trkpt lat="49.16681" lon="0.94526">
        <ele>199.4</ele>
        <time>2011-04-17T09:41:59Z</time>
      </trkpt>
      <trkpt lat="49.1664" lon="0.94458">
        <ele>199.2</ele>
        <time>2011-04-17T09:42:06Z</time>
      </trkpt>
      <trkpt lat="49.1662" lon="0.94414">
        <ele>199.3</ele>
        <time>2011-04-17T09:42:11Z</time>
      </trkpt>
      <trkpt lat="49.166" lon="0.94368">
        <ele>199.8</ele>
        <time>2011-04-17T09:42:14Z</time>
      </trkpt>
      <trkpt lat="49.16582" lon="0.94321">
        <ele>199.5</ele>
        <time>2011-04-17T09:42:18Z</time>
      </trkpt>
      <trkpt lat="49.1656" lon="0.94263">
        <ele>200</ele>
        <time>2011-04-17T09:42:23Z</time>
      </trkpt>
      <trkpt lat="49.16529" lon="0.94167">
        <ele>200.3</ele>
        <time>2011-04-17T09:42:31Z</time>
      </trkpt>
      <trkpt lat="49.16501" lon="0.94083">
        <ele>200</ele>
        <time>2011-04-17T09:42:38Z</time>
      </trkpt>
      <trkpt lat="49.16471" lon="0.94001">
        <ele>200.3</ele>
        <time>2011-04-17T09:42:45Z</time>
      </trkpt>
      <trkpt lat="49.16426" lon="0.93903">
        <ele>200.3</ele>
        <time>2011-04-17T09:42:55Z</time>
      </trkpt>
      <trkpt lat="49.164" lon="0.93847">
        <ele>200.4</ele>
        <time>2011-04-17T09:42:58Z</time>
      </trkpt>
      <trkpt lat="49.16364" lon="0.93769">
        <ele>200.8</ele>
        <time>2011-04-17T09:43:06Z</time>
      </trkpt>
      <trkpt lat="49.16342" lon="0.93723">
        <ele>201</ele>
        <time>2011-04-17T09:43:10Z</time>
      </trkpt>
      <trkpt lat="49.16321" lon="0.93687">
        <ele>201</ele>
        <time>2011-04-17T09:43:13Z</time>
      </trkpt>
      <trkpt lat="49.16242" lon="0.936">
        <ele>200.7</ele>
        <time>2011-04-17T09:43:23Z</time>
      </trkpt>
      <trkpt lat="49.16202" lon="0.93541">
        <ele>200.7</ele>
        <time>2011-04-17T09:43:31Z</time>
      </trkpt>
      <trkpt lat="49.1617" lon="0.93445">
        <ele>199.3</ele>
        <time>2011-04-17T09:43:38Z</time>
      </trkpt>
      <trkpt lat="49.16085" lon="0.9319">
        <ele>197</ele>
        <time>2011-04-17T09:43:59Z</time>
      </trkpt>
      <trkpt lat="49.16079" lon="0.93148">
        <ele>196.3</ele>
        <time>2011-04-17T09:44:03Z</time>
      </trkpt>
      <trkpt lat="49.16062" lon="0.93027">
        <ele>196.9</ele>
        <time>2011-04-17T09:44:11Z</time>
      </trkpt>
      <trkpt lat="49.15993" lon="0.92764">
        <ele>199.8</ele>
        <time>2011-04-17T09:44:30Z</time>
      </trkpt>
      <trkpt lat="49.15932" lon="0.92617">
        <ele>198.2</ele>
        <time>2011-04-17T09:44:42Z</time>
      </trkpt>
      <trkpt lat="49.15926" lon="0.92561">
        <ele>198.4</ele>
        <time>2011-04-17T09:44:46Z</time>
      </trkpt>
      <trkpt lat="49.15924" lon="0.9251">
        <ele>199</ele>
        <time>2011-04-17T09:44:50Z</time>
      </trkpt>
      <trkpt lat="49.15904" lon="0.92414">
        <ele>199.1</ele>
        <time>2011-04-17T09:44:58Z</time>
      </trkpt>
      <trkpt lat="49.15873" lon="0.92329">
        <ele>198.3</ele>
        <time>2011-04-17T09:45:06Z</time>
      </trkpt>
      <trkpt lat="49.15811" lon="0.9218">
        <ele>196.8</ele>
        <time>2011-04-17T09:45:22Z</time>
      </trkpt>
      <trkpt lat="49.15778" lon="0.92107">
        <ele>197.1</ele>
        <time>2011-04-17T09:45:29Z</time>
      </trkpt>
      <trkpt lat="49.15739" lon="0.92033">
        <ele>196.2</ele>
        <time>2011-04-17T09:45:38Z</time>
      </trkpt>
      <trkpt lat="49.15703" lon="0.91963">
        <ele>194.7</ele>
        <time>2011-04-17T09:45:46Z</time>
      </trkpt>
      <trkpt lat="49.15659" lon="0.91892">
        <ele>193.6</ele>
        <time>2011-04-17T09:45:54Z</time>
      </trkpt>
      <trkpt lat="49.1561" lon="0.91828">
        <ele>192.3</ele>
        <time>2011-04-17T09:46:02Z</time>
      </trkpt>
      <trkpt lat="49.1558" lon="0.91774">
        <ele>191.2</ele>
        <time>2011-04-17T09:46:09Z</time>
      </trkpt>
      <trkpt lat="49.15554" lon="0.91712">
        <ele>190.9</ele>
        <time>2011-04-17T09:46:22Z</time>
      </trkpt>
      <trkpt lat="49.15523" lon="0.91673">
        <ele>189.7</ele>
        <time>2011-04-17T09:46:27Z</time>
      </trkpt>
      <trkpt lat="49.15509" lon="0.9164">
        <ele>189.2</ele>
        <time>2011-04-17T09:46:30Z</time>
      </trkpt>
      <trkpt lat="49.15496" lon="0.91605">
        <ele>189.2</ele>
        <time>2011-04-17T09:46:34Z</time>
      </trkpt>
      <trkpt lat="49.15464" lon="0.91505">
        <ele>188.9</ele>
        <time>2011-04-17T09:46:42Z</time>
      </trkpt>
      <trkpt lat="49.15429" lon="0.91391">
        <ele>188.7</ele>
        <time>2011-04-17T09:46:50Z</time>
      </trkpt>
      <trkpt lat="49.15395" lon="0.91254">
        <ele>187.6</ele>
        <time>2011-04-17T09:47:02Z</time>
      </trkpt>
      <trkpt lat="49.15378" lon="0.9116">
        <ele>187.3</ele>
        <time>2011-04-17T09:47:13Z</time>
      </trkpt>
      <trkpt lat="49.15363" lon="0.91033">
        <ele>185.4</ele>
        <time>2011-04-17T09:47:26Z</time>
      </trkpt>
      <trkpt lat="49.15345" lon="0.90921">
        <ele>185.3</ele>
        <time>2011-04-17T09:47:38Z</time>
      </trkpt>
      <trkpt lat="49.1534" lon="0.90885">
        <ele>185</ele>
        <time>2011-04-17T09:47:42Z</time>
      </trkpt>
      <trkpt lat="49.15339" lon="0.90812">
        <ele>184.8</ele>
        <time>2011-04-17T09:47:54Z</time>
      </trkpt>
      <trkpt lat="49.15322" lon="0.90802">
        <ele>185.8</ele>
        <time>2011-04-17T09:48:00Z</time>
      </trkpt>
      <trkpt lat="49.15306" lon="0.908">
        <ele>189</ele>
        <time>2011-04-17T09:48:06Z</time>
      </trkpt>
      <trkpt lat="49.15288" lon="0.9079">
        <ele>189.7</ele>
        <time>2011-04-17T09:48:10Z</time>
      </trkpt>
      <trkpt lat="49.15265" lon="0.90783">
        <ele>191.5</ele>
        <time>2011-04-17T09:48:14Z</time>
      </trkpt>
      <trkpt lat="49.1519" lon="0.90742">
        <ele>189.9</ele>
        <time>2011-04-17T09:48:27Z</time>
      </trkpt>
      <trkpt lat="49.15173" lon="0.9073">
        <ele>190.5</ele>
        <time>2011-04-17T09:48:30Z</time>
      </trkpt>
      <trkpt lat="49.15114" lon="0.90695">
        <ele>192.2</ele>
        <time>2011-04-17T09:48:41Z</time>
      </trkpt>
      <trkpt lat="49.15054" lon="0.90681">
        <ele>193.2</ele>
        <time>2011-04-17T09:48:54Z</time>
      </trkpt>
      <trkpt lat="49.15047" lon="0.90678">
        <ele>189.2</ele>
        <time>2011-04-17T09:48:58Z</time>
      </trkpt>
      <trkpt lat="49.15042" lon="0.90668">
        <ele>190.4</ele>
        <time>2011-04-17T09:49:05Z</time>
      </trkpt>
      <trkpt lat="49.15029" lon="0.90642">
        <ele>189</ele>
        <time>2011-04-17T09:49:14Z</time>
      </trkpt>
      <trkpt lat="49.15018" lon="0.90616">
        <ele>186.3</ele>
        <time>2011-04-17T09:49:21Z</time>
      </trkpt>
      <trkpt lat="49.14998" lon="0.90574">
        <ele>186</ele>
        <time>2011-04-17T09:49:32Z</time>
      </trkpt>
      <trkpt lat="49.14984" lon="0.90546">
        <ele>184.9</ele>
        <time>2011-04-17T09:49:44Z</time>
      </trkpt>
      <trkpt lat="49.14982" lon="0.90534">
        <ele>182.8</ele>
        <time>2011-04-17T09:49:48Z</time>
      </trkpt>
      <trkpt lat="49.14977" lon="0.90512">
        <ele>182.6</ele>
        <time>2011-04-17T09:49:53Z</time>
      </trkpt>
      <trkpt lat="49.14974" lon="0.9049">
        <ele>182.9</ele>
        <time>2011-04-17T09:49:58Z</time>
      </trkpt>
      <trkpt lat="49.14962" lon="0.90424">
        <ele>186.5</ele>
        <time>2011-04-17T09:50:16Z</time>
      </trkpt>
      <trkpt lat="49.14953" lon="0.90375">
        <ele>188</ele>
        <time>2011-04-17T09:50:29Z</time>
      </trkpt>
      <trkpt lat="49.14944" lon="0.9034">
        <ele>187.5</ele>
        <time>2011-04-17T09:50:38Z</time>
      </trkpt>
      <trkpt lat="49.14921" lon="0.90269">
        <ele>188.6</ele>
        <time>2011-04-17T09:50:56Z</time>
      </trkpt>
      <trkpt lat="49.14909" lon="0.90241">
        <ele>193.4</ele>
        <time>2011-04-17T09:51:05Z</time>
      </trkpt>
      <trkpt lat="49.14904" lon="0.90232">
        <ele>194.7</ele>
        <time>2011-04-17T09:51:08Z</time>
      </trkpt>
      <trkpt lat="49.14886" lon="0.902">
        <ele>201.6</ele>
        <time>2011-04-17T09:51:24Z</time>
      </trkpt>
      <trkpt lat="49.14882" lon="0.90191">
        <ele>198.7</ele>
        <time>2011-04-17T09:51:28Z</time>
      </trkpt>
      <trkpt lat="49.14871" lon="0.90164">
        <ele>190.5</ele>
        <time>2011-04-17T09:51:38Z</time>
      </trkpt>
      <trkpt lat="49.14867" lon="0.90153">
        <ele>188.2</ele>
        <time>2011-04-17T09:51:42Z</time>
      </trkpt>
      <trkpt lat="49.14838" lon="0.90054">
        <ele>182.3</ele>
        <time>2011-04-17T09:52:08Z</time>
      </trkpt>
      <trkpt lat="49.14823" lon="0.90056">
        <ele>182.4</ele>
        <time>2011-04-17T09:52:15Z</time>
      </trkpt>
      <trkpt lat="49.14774" lon="0.90075">
        <ele>180.1</ele>
        <time>2011-04-17T09:52:53Z</time>
      </trkpt>
      <trkpt lat="49.14771" lon="0.90084">
        <ele>188</ele>
        <time>2011-04-17T09:53:01Z</time>
      </trkpt>
      <trkpt lat="49.14745" lon="0.90094">
        <ele>188.2</ele>
        <time>2011-04-17T09:53:09Z</time>
      </trkpt>
      <trkpt lat="49.14728" lon="0.90102">
        <ele>188.5</ele>
        <time>2011-04-17T09:53:13Z</time>
      </trkpt>
      <trkpt lat="49.14678" lon="0.90124">
        <ele>189.1</ele>
        <time>2011-04-17T09:53:22Z</time>
      </trkpt>
      <trkpt lat="49.1457" lon="0.90187">
        <ele>192.8</ele>
        <time>2011-04-17T09:53:39Z</time>
      </trkpt>
      <trkpt lat="49.1446" lon="0.9024">
        <ele>192</ele>
        <time>2011-04-17T09:53:52Z</time>
      </trkpt>
      <trkpt lat="49.14409" lon="0.90238">
        <ele>190.8</ele>
        <time>2011-04-17T09:53:58Z</time>
      </trkpt>
      <trkpt lat="49.14374" lon="0.90243">
        <ele>187.7</ele>
        <time>2011-04-17T09:54:02Z</time>
      </trkpt>
      <trkpt lat="49.14355" lon="0.90242">
        <ele>186.6</ele>
        <time>2011-04-17T09:54:05Z</time>
      </trkpt>
      <trkpt lat="49.14163" lon="0.90297">
        <ele>188.9</ele>
        <time>2011-04-17T09:54:31Z</time>
      </trkpt>
      <trkpt lat="49.14158" lon="0.90304">
        <ele>192.1</ele>
        <time>2011-04-17T09:55:11Z</time>
      </trkpt>
      <trkpt lat="49.14063" lon="0.90346">
        <ele>192.5</ele>
        <time>2011-04-17T09:55:26Z</time>
      </trkpt>
      <trkpt lat="49.14014" lon="0.90373">
        <ele>192.6</ele>
        <time>2011-04-17T09:55:34Z</time>
      </trkpt>
      <trkpt lat="49.14011" lon="0.90411">
        <ele>188.4</ele>
        <time>2011-04-17T09:55:38Z</time>
      </trkpt>
      <trkpt lat="49.14017" lon="0.90411">
        <ele>191.1</ele>
        <time>2011-04-17T09:56:05Z</time>
      </trkpt>
      <trkpt lat="49.14024" lon="0.90409">
        <ele>194.3</ele>
        <time>2011-04-17T09:57:04Z</time>
      </trkpt>
      <trkpt lat="49.14024" lon="0.90409">
        <ele>137.6</ele>
        <time>2011-04-17T09:57:53Z</time>
      </trkpt>
    </trkseg>
  </trk>
</gpx>